<?xml version="1.0" encoding="UTF-8" standalone="no" ?>
<gpx xmlns="http://www.topografix.com/GPX/1/1" xmlns:xsi="http://www.w3.org/2001/XMLSchema-instance" xsi:schemaLocation="http://www.topografix.com/GPX/1/1 http://www.topografix.com/GPX/1/1/gpx.xsd" version="1.1" creator="VisuGPX - https://www.visugpx.com">
  <metadata>
    <name>13100914-APITRI 23 mai 21.v2</name>
  </metadata>
  <trk>
    <name><![CDATA[13100914-APITRI 23 mai 21]]></name>
    <trkseg>
      <trkpt lat="45.60935" lon="5.22057">
        <ele>219</ele>
        <time>2021-05-22T06:59:38Z</time>
      </trkpt>
      <trkpt lat="45.60954" lon="5.2205">
        <ele>220</ele>
        <time>2021-05-22T06:59:41Z</time>
      </trkpt>
      <trkpt lat="45.60977" lon="5.22042">
        <ele>220</ele>
        <time>2021-05-22T06:59:46Z</time>
      </trkpt>
      <trkpt lat="45.61" lon="5.22033">
        <ele>220</ele>
        <time>2021-05-22T06:59:50Z</time>
      </trkpt>
      <trkpt lat="45.61013" lon="5.22033">
        <ele>220</ele>
        <time>2021-05-22T06:59:52Z</time>
      </trkpt>
      <trkpt lat="45.6101" lon="5.22019">
        <ele>221</ele>
        <time>2021-05-22T06:59:54Z</time>
      </trkpt>
      <trkpt lat="45.61019" lon="5.2202">
        <ele>221</ele>
        <time>2021-05-22T06:59:56Z</time>
      </trkpt>
      <trkpt lat="45.61025" lon="5.22028">
        <ele>220</ele>
        <time>2021-05-22T06:59:57Z</time>
      </trkpt>
      <trkpt lat="45.61059" lon="5.22043">
        <ele>220</ele>
        <time>2021-05-22T07:00:03Z</time>
      </trkpt>
      <trkpt lat="45.61113" lon="5.22073">
        <ele>218</ele>
        <time>2021-05-22T07:00:14Z</time>
      </trkpt>
      <trkpt lat="45.61164" lon="5.22099">
        <ele>218</ele>
        <time>2021-05-22T07:00:23Z</time>
      </trkpt>
      <trkpt lat="45.61216" lon="5.22127">
        <ele>219</ele>
        <time>2021-05-22T07:00:33Z</time>
      </trkpt>
      <trkpt lat="45.61265" lon="5.2215">
        <ele>220</ele>
        <time>2021-05-22T07:00:42Z</time>
      </trkpt>
      <trkpt lat="45.61278" lon="5.22154">
        <ele>221</ele>
        <time>2021-05-22T07:00:45Z</time>
      </trkpt>
      <trkpt lat="45.61299" lon="5.22159">
        <ele>223</ele>
        <time>2021-05-22T07:00:49Z</time>
      </trkpt>
      <trkpt lat="45.61305" lon="5.22157">
        <ele>223</ele>
        <time>2021-05-22T07:00:50Z</time>
      </trkpt>
      <trkpt lat="45.61311" lon="5.22153">
        <ele>224</ele>
        <time>2021-05-22T07:00:51Z</time>
      </trkpt>
      <trkpt lat="45.61314" lon="5.22145">
        <ele>224</ele>
        <time>2021-05-22T07:00:52Z</time>
      </trkpt>
      <trkpt lat="45.61318" lon="5.22145">
        <ele>224</ele>
        <time>2021-05-22T07:00:53Z</time>
      </trkpt>
      <trkpt lat="45.61326" lon="5.22147">
        <ele>225</ele>
        <time>2021-05-22T07:00:54Z</time>
      </trkpt>
      <trkpt lat="45.61319" lon="5.2212">
        <ele>225</ele>
        <time>2021-05-22T07:00:58Z</time>
      </trkpt>
      <trkpt lat="45.61317" lon="5.22111">
        <ele>225</ele>
        <time>2021-05-22T07:00:59Z</time>
      </trkpt>
      <trkpt lat="45.61314" lon="5.22083">
        <ele>226</ele>
        <time>2021-05-22T07:01:02Z</time>
      </trkpt>
      <trkpt lat="45.61312" lon="5.22056">
        <ele>225</ele>
        <time>2021-05-22T07:01:06Z</time>
      </trkpt>
      <trkpt lat="45.61311" lon="5.22033">
        <ele>225</ele>
        <time>2021-05-22T07:01:09Z</time>
      </trkpt>
      <trkpt lat="45.61311" lon="5.22018">
        <ele>224</ele>
        <time>2021-05-22T07:01:11Z</time>
      </trkpt>
      <trkpt lat="45.61311" lon="5.21999">
        <ele>224</ele>
        <time>2021-05-22T07:01:13Z</time>
      </trkpt>
      <trkpt lat="45.61314" lon="5.21951">
        <ele>223</ele>
        <time>2021-05-22T07:01:19Z</time>
      </trkpt>
      <trkpt lat="45.61318" lon="5.21907">
        <ele>223</ele>
        <time>2021-05-22T07:01:24Z</time>
      </trkpt>
      <trkpt lat="45.61327" lon="5.21865">
        <ele>222</ele>
        <time>2021-05-22T07:01:30Z</time>
      </trkpt>
      <trkpt lat="45.61335" lon="5.21836">
        <ele>221</ele>
        <time>2021-05-22T07:01:34Z</time>
      </trkpt>
      <trkpt lat="45.61363" lon="5.2176">
        <ele>226</ele>
        <time>2021-05-22T07:01:45Z</time>
      </trkpt>
      <trkpt lat="45.614" lon="5.21652">
        <ele>225</ele>
        <time>2021-05-22T07:01:59Z</time>
      </trkpt>
      <trkpt lat="45.61403" lon="5.21642">
        <ele>224</ele>
        <time>2021-05-22T07:02:01Z</time>
      </trkpt>
      <trkpt lat="45.6142" lon="5.21585">
        <ele>222</ele>
        <time>2021-05-22T07:02:09Z</time>
      </trkpt>
      <trkpt lat="45.61434" lon="5.21541">
        <ele>223</ele>
        <time>2021-05-22T07:02:15Z</time>
      </trkpt>
      <trkpt lat="45.61441" lon="5.21513">
        <ele>223</ele>
        <time>2021-05-22T07:02:18Z</time>
      </trkpt>
      <trkpt lat="45.61449" lon="5.21481">
        <ele>223</ele>
        <time>2021-05-22T07:02:23Z</time>
      </trkpt>
      <trkpt lat="45.61459" lon="5.21429">
        <ele>221</ele>
        <time>2021-05-22T07:02:29Z</time>
      </trkpt>
      <trkpt lat="45.61464" lon="5.21385">
        <ele>220</ele>
        <time>2021-05-22T07:02:35Z</time>
      </trkpt>
      <trkpt lat="45.61466" lon="5.21364">
        <ele>219</ele>
        <time>2021-05-22T07:02:37Z</time>
      </trkpt>
      <trkpt lat="45.61476" lon="5.21113">
        <ele>218</ele>
        <time>2021-05-22T07:03:09Z</time>
      </trkpt>
      <trkpt lat="45.61477" lon="5.21086">
        <ele>218</ele>
        <time>2021-05-22T07:03:12Z</time>
      </trkpt>
      <trkpt lat="45.61479" lon="5.21043">
        <ele>218</ele>
        <time>2021-05-22T07:03:17Z</time>
      </trkpt>
      <trkpt lat="45.61485" lon="5.21025">
        <ele>219</ele>
        <time>2021-05-22T07:03:20Z</time>
      </trkpt>
      <trkpt lat="45.61488" lon="5.21014">
        <ele>219</ele>
        <time>2021-05-22T07:03:21Z</time>
      </trkpt>
      <trkpt lat="45.61493" lon="5.21005">
        <ele>219</ele>
        <time>2021-05-22T07:03:23Z</time>
      </trkpt>
      <trkpt lat="45.61495" lon="5.21">
        <ele>219</ele>
        <time>2021-05-22T07:03:24Z</time>
      </trkpt>
      <trkpt lat="45.61503" lon="5.21001">
        <ele>219</ele>
        <time>2021-05-22T07:03:25Z</time>
      </trkpt>
      <trkpt lat="45.6151" lon="5.20998">
        <ele>219</ele>
        <time>2021-05-22T07:03:26Z</time>
      </trkpt>
      <trkpt lat="45.61516" lon="5.20992">
        <ele>219</ele>
        <time>2021-05-22T07:03:28Z</time>
      </trkpt>
      <trkpt lat="45.61521" lon="5.20982">
        <ele>219</ele>
        <time>2021-05-22T07:03:29Z</time>
      </trkpt>
      <trkpt lat="45.61522" lon="5.20973">
        <ele>219</ele>
        <time>2021-05-22T07:03:30Z</time>
      </trkpt>
      <trkpt lat="45.61522" lon="5.20962">
        <ele>219</ele>
        <time>2021-05-22T07:03:32Z</time>
      </trkpt>
      <trkpt lat="45.61519" lon="5.20953">
        <ele>218</ele>
        <time>2021-05-22T07:03:33Z</time>
      </trkpt>
      <trkpt lat="45.61514" lon="5.20945">
        <ele>218</ele>
        <time>2021-05-22T07:03:34Z</time>
      </trkpt>
      <trkpt lat="45.61508" lon="5.2094">
        <ele>217</ele>
        <time>2021-05-22T07:03:35Z</time>
      </trkpt>
      <trkpt lat="45.615" lon="5.20938">
        <ele>217</ele>
        <time>2021-05-22T07:03:37Z</time>
      </trkpt>
      <trkpt lat="45.61493" lon="5.20939">
        <ele>217</ele>
        <time>2021-05-22T07:03:38Z</time>
      </trkpt>
      <trkpt lat="45.61488" lon="5.2091">
        <ele>217</ele>
        <time>2021-05-22T07:03:42Z</time>
      </trkpt>
      <trkpt lat="45.61486" lon="5.20878">
        <ele>217</ele>
        <time>2021-05-22T07:03:46Z</time>
      </trkpt>
      <trkpt lat="45.61509" lon="5.2023">
        <ele>218</ele>
        <time>2021-05-22T07:05:07Z</time>
      </trkpt>
      <trkpt lat="45.6152" lon="5.20169">
        <ele>218</ele>
        <time>2021-05-22T07:05:14Z</time>
      </trkpt>
      <trkpt lat="45.61542" lon="5.20108">
        <ele>217</ele>
        <time>2021-05-22T07:05:23Z</time>
      </trkpt>
      <trkpt lat="45.6156" lon="5.20077">
        <ele>216</ele>
        <time>2021-05-22T07:05:28Z</time>
      </trkpt>
      <trkpt lat="45.61573" lon="5.20056">
        <ele>216</ele>
        <time>2021-05-22T07:05:31Z</time>
      </trkpt>
      <trkpt lat="45.61579" lon="5.20047">
        <ele>216</ele>
        <time>2021-05-22T07:05:33Z</time>
      </trkpt>
      <trkpt lat="45.61596" lon="5.20019">
        <ele>216</ele>
        <time>2021-05-22T07:05:38Z</time>
      </trkpt>
      <trkpt lat="45.61613" lon="5.19996">
        <ele>217</ele>
        <time>2021-05-22T07:05:42Z</time>
      </trkpt>
      <trkpt lat="45.61625" lon="5.19973">
        <ele>217</ele>
        <time>2021-05-22T07:05:45Z</time>
      </trkpt>
      <trkpt lat="45.61631" lon="5.19948">
        <ele>217</ele>
        <time>2021-05-22T07:05:49Z</time>
      </trkpt>
      <trkpt lat="45.6163" lon="5.19923">
        <ele>217</ele>
        <time>2021-05-22T07:05:52Z</time>
      </trkpt>
      <trkpt lat="45.61624" lon="5.19901">
        <ele>217</ele>
        <time>2021-05-22T07:05:55Z</time>
      </trkpt>
      <trkpt lat="45.61615" lon="5.19886">
        <ele>217</ele>
        <time>2021-05-22T07:05:57Z</time>
      </trkpt>
      <trkpt lat="45.61603" lon="5.19874">
        <ele>217</ele>
        <time>2021-05-22T07:06:00Z</time>
      </trkpt>
      <trkpt lat="45.6159" lon="5.19866">
        <ele>217</ele>
        <time>2021-05-22T07:06:02Z</time>
      </trkpt>
      <trkpt lat="45.6156" lon="5.1985">
        <ele>217</ele>
        <time>2021-05-22T07:06:08Z</time>
      </trkpt>
      <trkpt lat="45.61539" lon="5.19838">
        <ele>216</ele>
        <time>2021-05-22T07:06:12Z</time>
      </trkpt>
      <trkpt lat="45.61486" lon="5.19809">
        <ele>217</ele>
        <time>2021-05-22T07:06:22Z</time>
      </trkpt>
      <trkpt lat="45.61433" lon="5.19779">
        <ele>217</ele>
        <time>2021-05-22T07:06:32Z</time>
      </trkpt>
      <trkpt lat="45.61415" lon="5.1977">
        <ele>218</ele>
        <time>2021-05-22T07:06:36Z</time>
      </trkpt>
      <trkpt lat="45.61417" lon="5.19758">
        <ele>218</ele>
        <time>2021-05-22T07:06:37Z</time>
      </trkpt>
      <trkpt lat="45.61416" lon="5.19746">
        <ele>218</ele>
        <time>2021-05-22T07:06:39Z</time>
      </trkpt>
      <trkpt lat="45.61412" lon="5.19735">
        <ele>217</ele>
        <time>2021-05-22T07:06:40Z</time>
      </trkpt>
      <trkpt lat="45.61407" lon="5.19725">
        <ele>217</ele>
        <time>2021-05-22T07:06:42Z</time>
      </trkpt>
      <trkpt lat="45.614" lon="5.19719">
        <ele>217</ele>
        <time>2021-05-22T07:06:43Z</time>
      </trkpt>
      <trkpt lat="45.61388" lon="5.19715">
        <ele>217</ele>
        <time>2021-05-22T07:06:45Z</time>
      </trkpt>
      <trkpt lat="45.6138" lon="5.19717">
        <ele>217</ele>
        <time>2021-05-22T07:06:47Z</time>
      </trkpt>
      <trkpt lat="45.61372" lon="5.19723">
        <ele>217</ele>
        <time>2021-05-22T07:06:48Z</time>
      </trkpt>
      <trkpt lat="45.61365" lon="5.19732">
        <ele>218</ele>
        <time>2021-05-22T07:06:50Z</time>
      </trkpt>
      <trkpt lat="45.61361" lon="5.19743">
        <ele>218</ele>
        <time>2021-05-22T07:06:52Z</time>
      </trkpt>
      <trkpt lat="45.61169" lon="5.19669">
        <ele>218</ele>
        <time>2021-05-22T07:07:27Z</time>
      </trkpt>
      <trkpt lat="45.61172" lon="5.1967">
        <ele>218</ele>
        <time>2021-05-22T07:07:28Z</time>
      </trkpt>
      <trkpt lat="45.61182" lon="5.19635">
        <ele>218</ele>
        <time>2021-05-22T07:07:32Z</time>
      </trkpt>
      <trkpt lat="45.61188" lon="5.19618">
        <ele>218</ele>
        <time>2021-05-22T07:07:35Z</time>
      </trkpt>
      <trkpt lat="45.61193" lon="5.19593">
        <ele>218</ele>
        <time>2021-05-22T07:07:38Z</time>
      </trkpt>
      <trkpt lat="45.61212" lon="5.19438">
        <ele>217</ele>
        <time>2021-05-22T07:07:57Z</time>
      </trkpt>
      <trkpt lat="45.61219" lon="5.19387">
        <ele>218</ele>
        <time>2021-05-22T07:08:04Z</time>
      </trkpt>
      <trkpt lat="45.6123" lon="5.19325">
        <ele>217</ele>
        <time>2021-05-22T07:08:12Z</time>
      </trkpt>
      <trkpt lat="45.61257" lon="5.19179">
        <ele>218</ele>
        <time>2021-05-22T07:08:31Z</time>
      </trkpt>
      <trkpt lat="45.61287" lon="5.19064">
        <ele>219</ele>
        <time>2021-05-22T07:08:46Z</time>
      </trkpt>
      <trkpt lat="45.61327" lon="5.18922">
        <ele>219</ele>
        <time>2021-05-22T07:09:05Z</time>
      </trkpt>
      <trkpt lat="45.6136" lon="5.18817">
        <ele>219</ele>
        <time>2021-05-22T07:09:19Z</time>
      </trkpt>
      <trkpt lat="45.61386" lon="5.18738">
        <ele>220</ele>
        <time>2021-05-22T07:09:30Z</time>
      </trkpt>
      <trkpt lat="45.61389" lon="5.18721">
        <ele>221</ele>
        <time>2021-05-22T07:09:32Z</time>
      </trkpt>
      <trkpt lat="45.61389" lon="5.18702">
        <ele>221</ele>
        <time>2021-05-22T07:09:35Z</time>
      </trkpt>
      <trkpt lat="45.61379" lon="5.18668">
        <ele>222</ele>
        <time>2021-05-22T07:09:39Z</time>
      </trkpt>
      <trkpt lat="45.61378" lon="5.18655">
        <ele>222</ele>
        <time>2021-05-22T07:09:41Z</time>
      </trkpt>
      <trkpt lat="45.6138" lon="5.18641">
        <ele>222</ele>
        <time>2021-05-22T07:09:43Z</time>
      </trkpt>
      <trkpt lat="45.61393" lon="5.1861">
        <ele>222</ele>
        <time>2021-05-22T07:09:47Z</time>
      </trkpt>
      <trkpt lat="45.61398" lon="5.18601">
        <ele>222</ele>
        <time>2021-05-22T07:09:49Z</time>
      </trkpt>
      <trkpt lat="45.61424" lon="5.18572">
        <ele>222</ele>
        <time>2021-05-22T07:09:55Z</time>
      </trkpt>
      <trkpt lat="45.61437" lon="5.18551">
        <ele>221</ele>
        <time>2021-05-22T07:09:58Z</time>
      </trkpt>
      <trkpt lat="45.61487" lon="5.18452">
        <ele>223</ele>
        <time>2021-05-22T07:10:13Z</time>
      </trkpt>
      <trkpt lat="45.61519" lon="5.18362">
        <ele>225</ele>
        <time>2021-05-22T07:10:26Z</time>
      </trkpt>
      <trkpt lat="45.61543" lon="5.18271">
        <ele>227</ele>
        <time>2021-05-22T07:10:38Z</time>
      </trkpt>
      <trkpt lat="45.61242" lon="5.18133">
        <ele>229</ele>
        <time>2021-05-22T07:11:34Z</time>
      </trkpt>
      <trkpt lat="45.61233" lon="5.18159">
        <ele>229</ele>
        <time>2021-05-22T07:11:38Z</time>
      </trkpt>
      <trkpt lat="45.61229" lon="5.18158">
        <ele>229</ele>
        <time>2021-05-22T07:11:38Z</time>
      </trkpt>
      <trkpt lat="45.61223" lon="5.18168">
        <ele>229</ele>
        <time>2021-05-22T07:11:40Z</time>
      </trkpt>
      <trkpt lat="45.612" lon="5.18174">
        <ele>229</ele>
        <time>2021-05-22T07:11:44Z</time>
      </trkpt>
      <trkpt lat="45.61185" lon="5.18171">
        <ele>230</ele>
        <time>2021-05-22T07:11:47Z</time>
      </trkpt>
      <trkpt lat="45.61173" lon="5.18212">
        <ele>229</ele>
        <time>2021-05-22T07:11:53Z</time>
      </trkpt>
      <trkpt lat="45.61158" lon="5.18203">
        <ele>230</ele>
        <time>2021-05-22T07:11:55Z</time>
      </trkpt>
      <trkpt lat="45.61077" lon="5.18178">
        <ele>240</ele>
        <time>2021-05-22T07:12:10Z</time>
      </trkpt>
      <trkpt lat="45.61064" lon="5.18238">
        <ele>246</ele>
        <time>2021-05-22T07:12:18Z</time>
      </trkpt>
      <trkpt lat="45.61053" lon="5.18307">
        <ele>251</ele>
        <time>2021-05-22T07:12:27Z</time>
      </trkpt>
      <trkpt lat="45.6102" lon="5.18344">
        <ele>263</ele>
        <time>2021-05-22T07:12:34Z</time>
      </trkpt>
      <trkpt lat="45.60929" lon="5.18502">
        <ele>272</ele>
        <time>2021-05-22T07:13:00Z</time>
      </trkpt>
      <trkpt lat="45.60905" lon="5.18586">
        <ele>278</ele>
        <time>2021-05-22T07:13:11Z</time>
      </trkpt>
      <trkpt lat="45.60905" lon="5.18614">
        <ele>277</ele>
        <time>2021-05-22T07:13:15Z</time>
      </trkpt>
      <trkpt lat="45.60902" lon="5.18657">
        <ele>275</ele>
        <time>2021-05-22T07:13:20Z</time>
      </trkpt>
      <trkpt lat="45.60891" lon="5.18702">
        <ele>275</ele>
        <time>2021-05-22T07:13:26Z</time>
      </trkpt>
      <trkpt lat="45.60868" lon="5.18751">
        <ele>277</ele>
        <time>2021-05-22T07:13:33Z</time>
      </trkpt>
      <trkpt lat="45.60836" lon="5.18802">
        <ele>280</ele>
        <time>2021-05-22T07:13:42Z</time>
      </trkpt>
      <trkpt lat="45.60725" lon="5.18908">
        <ele>283</ele>
        <time>2021-05-22T07:14:05Z</time>
      </trkpt>
      <trkpt lat="45.60678" lon="5.18939">
        <ele>285</ele>
        <time>2021-05-22T07:14:15Z</time>
      </trkpt>
      <trkpt lat="45.60587" lon="5.18988">
        <ele>282</ele>
        <time>2021-05-22T07:14:32Z</time>
      </trkpt>
      <trkpt lat="45.60454" lon="5.19067">
        <ele>282</ele>
        <time>2021-05-22T07:14:58Z</time>
      </trkpt>
      <trkpt lat="45.60434" lon="5.19072">
        <ele>283</ele>
        <time>2021-05-22T07:15:01Z</time>
      </trkpt>
      <trkpt lat="45.60397" lon="5.19065">
        <ele>285</ele>
        <time>2021-05-22T07:15:08Z</time>
      </trkpt>
      <trkpt lat="45.60322" lon="5.19056">
        <ele>288</ele>
        <time>2021-05-22T07:15:21Z</time>
      </trkpt>
      <trkpt lat="45.60184" lon="5.1909">
        <ele>290</ele>
        <time>2021-05-22T07:15:46Z</time>
      </trkpt>
      <trkpt lat="45.60156" lon="5.19108">
        <ele>291</ele>
        <time>2021-05-22T07:15:52Z</time>
      </trkpt>
      <trkpt lat="45.60134" lon="5.1913">
        <ele>293</ele>
        <time>2021-05-22T07:15:56Z</time>
      </trkpt>
      <trkpt lat="45.60118" lon="5.19151">
        <ele>294</ele>
        <time>2021-05-22T07:16:00Z</time>
      </trkpt>
      <trkpt lat="45.60104" lon="5.19192">
        <ele>293</ele>
        <time>2021-05-22T07:16:06Z</time>
      </trkpt>
      <trkpt lat="45.60079" lon="5.1922">
        <ele>293</ele>
        <time>2021-05-22T07:16:12Z</time>
      </trkpt>
      <trkpt lat="45.59983" lon="5.19295">
        <ele>303</ele>
        <time>2021-05-22T07:16:31Z</time>
      </trkpt>
      <trkpt lat="45.59826" lon="5.19402">
        <ele>317</ele>
        <time>2021-05-22T07:17:02Z</time>
      </trkpt>
      <trkpt lat="45.59626" lon="5.19492">
        <ele>315</ele>
        <time>2021-05-22T07:17:39Z</time>
      </trkpt>
      <trkpt lat="45.59605" lon="5.19489">
        <ele>315</ele>
        <time>2021-05-22T07:17:43Z</time>
      </trkpt>
      <trkpt lat="45.59505" lon="5.19452">
        <ele>311</ele>
        <time>2021-05-22T07:18:01Z</time>
      </trkpt>
      <trkpt lat="45.59407" lon="5.19459">
        <ele>310</ele>
        <time>2021-05-22T07:18:19Z</time>
      </trkpt>
      <trkpt lat="45.59359" lon="5.19471">
        <ele>311</ele>
        <time>2021-05-22T07:18:28Z</time>
      </trkpt>
      <trkpt lat="45.59319" lon="5.19488">
        <ele>312</ele>
        <time>2021-05-22T07:18:35Z</time>
      </trkpt>
      <trkpt lat="45.59245" lon="5.19511">
        <ele>312</ele>
        <time>2021-05-22T07:18:48Z</time>
      </trkpt>
      <trkpt lat="45.59224" lon="5.19505">
        <ele>312</ele>
        <time>2021-05-22T07:18:52Z</time>
      </trkpt>
      <trkpt lat="45.59203" lon="5.19478">
        <ele>312</ele>
        <time>2021-05-22T07:18:57Z</time>
      </trkpt>
      <trkpt lat="45.5918" lon="5.19456">
        <ele>312</ele>
        <time>2021-05-22T07:19:02Z</time>
      </trkpt>
      <trkpt lat="45.59161" lon="5.19451">
        <ele>312</ele>
        <time>2021-05-22T07:19:06Z</time>
      </trkpt>
      <trkpt lat="45.59149" lon="5.19451">
        <ele>312</ele>
        <time>2021-05-22T07:19:08Z</time>
      </trkpt>
      <trkpt lat="45.59144" lon="5.19444">
        <ele>312</ele>
        <time>2021-05-22T07:19:09Z</time>
      </trkpt>
      <trkpt lat="45.5913" lon="5.19398">
        <ele>313</ele>
        <time>2021-05-22T07:19:15Z</time>
      </trkpt>
      <trkpt lat="45.59106" lon="5.19347">
        <ele>314</ele>
        <time>2021-05-22T07:19:23Z</time>
      </trkpt>
      <trkpt lat="45.59103" lon="5.1933">
        <ele>315</ele>
        <time>2021-05-22T07:19:25Z</time>
      </trkpt>
      <trkpt lat="45.59102" lon="5.19302">
        <ele>315</ele>
        <time>2021-05-22T07:19:29Z</time>
      </trkpt>
      <trkpt lat="45.59094" lon="5.19284">
        <ele>315</ele>
        <time>2021-05-22T07:19:31Z</time>
      </trkpt>
      <trkpt lat="45.59086" lon="5.19276">
        <ele>315</ele>
        <time>2021-05-22T07:19:33Z</time>
      </trkpt>
      <trkpt lat="45.58949" lon="5.19241">
        <ele>317</ele>
        <time>2021-05-22T07:19:58Z</time>
      </trkpt>
      <trkpt lat="45.58929" lon="5.19259">
        <ele>318</ele>
        <time>2021-05-22T07:20:02Z</time>
      </trkpt>
      <trkpt lat="45.5891" lon="5.19217">
        <ele>318</ele>
        <time>2021-05-22T07:20:08Z</time>
      </trkpt>
      <trkpt lat="45.58821" lon="5.19199">
        <ele>319</ele>
        <time>2021-05-22T07:20:24Z</time>
      </trkpt>
      <trkpt lat="45.58779" lon="5.192">
        <ele>320</ele>
        <time>2021-05-22T07:20:32Z</time>
      </trkpt>
      <trkpt lat="45.58706" lon="5.19228">
        <ele>323</ele>
        <time>2021-05-22T07:20:45Z</time>
      </trkpt>
      <trkpt lat="45.58673" lon="5.19254">
        <ele>324</ele>
        <time>2021-05-22T07:20:52Z</time>
      </trkpt>
      <trkpt lat="45.58651" lon="5.19277">
        <ele>324</ele>
        <time>2021-05-22T07:20:57Z</time>
      </trkpt>
      <trkpt lat="45.5863" lon="5.19236">
        <ele>325</ele>
        <time>2021-05-22T07:21:03Z</time>
      </trkpt>
      <trkpt lat="45.58616" lon="5.19202">
        <ele>325</ele>
        <time>2021-05-22T07:21:08Z</time>
      </trkpt>
      <trkpt lat="45.58606" lon="5.19175">
        <ele>326</ele>
        <time>2021-05-22T07:21:12Z</time>
      </trkpt>
      <trkpt lat="45.586" lon="5.1915">
        <ele>326</ele>
        <time>2021-05-22T07:21:15Z</time>
      </trkpt>
      <trkpt lat="45.58593" lon="5.19131">
        <ele>327</ele>
        <time>2021-05-22T07:21:18Z</time>
      </trkpt>
      <trkpt lat="45.58576" lon="5.19094">
        <ele>329</ele>
        <time>2021-05-22T07:21:23Z</time>
      </trkpt>
      <trkpt lat="45.58456" lon="5.19014">
        <ele>340</ele>
        <time>2021-05-22T07:21:47Z</time>
      </trkpt>
      <trkpt lat="45.58447" lon="5.19011">
        <ele>340</ele>
        <time>2021-05-22T07:21:48Z</time>
      </trkpt>
      <trkpt lat="45.58365" lon="5.18948">
        <ele>345</ele>
        <time>2021-05-22T07:22:05Z</time>
      </trkpt>
      <trkpt lat="45.58353" lon="5.18933">
        <ele>346</ele>
        <time>2021-05-22T07:22:08Z</time>
      </trkpt>
      <trkpt lat="45.58344" lon="5.18914">
        <ele>347</ele>
        <time>2021-05-22T07:22:11Z</time>
      </trkpt>
      <trkpt lat="45.58334" lon="5.18879">
        <ele>347</ele>
        <time>2021-05-22T07:22:15Z</time>
      </trkpt>
      <trkpt lat="45.58326" lon="5.1886">
        <ele>348</ele>
        <time>2021-05-22T07:22:18Z</time>
      </trkpt>
      <trkpt lat="45.58285" lon="5.1879">
        <ele>350</ele>
        <time>2021-05-22T07:22:29Z</time>
      </trkpt>
      <trkpt lat="45.58203" lon="5.18668">
        <ele>351</ele>
        <time>2021-05-22T07:22:51Z</time>
      </trkpt>
      <trkpt lat="45.5817" lon="5.18606">
        <ele>349</ele>
        <time>2021-05-22T07:23:00Z</time>
      </trkpt>
      <trkpt lat="45.5815" lon="5.18559">
        <ele>349</ele>
        <time>2021-05-22T07:23:07Z</time>
      </trkpt>
      <trkpt lat="45.58135" lon="5.18507">
        <ele>348</ele>
        <time>2021-05-22T07:23:14Z</time>
      </trkpt>
      <trkpt lat="45.58133" lon="5.18486">
        <ele>347</ele>
        <time>2021-05-22T07:23:17Z</time>
      </trkpt>
      <trkpt lat="45.58136" lon="5.18467">
        <ele>348</ele>
        <time>2021-05-22T07:23:19Z</time>
      </trkpt>
      <trkpt lat="45.58146" lon="5.18448">
        <ele>348</ele>
        <time>2021-05-22T07:23:22Z</time>
      </trkpt>
      <trkpt lat="45.58152" lon="5.18427">
        <ele>349</ele>
        <time>2021-05-22T07:23:25Z</time>
      </trkpt>
      <trkpt lat="45.5815" lon="5.18399">
        <ele>348</ele>
        <time>2021-05-22T07:23:28Z</time>
      </trkpt>
      <trkpt lat="45.58139" lon="5.18375">
        <ele>346</ele>
        <time>2021-05-22T07:23:32Z</time>
      </trkpt>
      <trkpt lat="45.58121" lon="5.18346">
        <ele>345</ele>
        <time>2021-05-22T07:23:37Z</time>
      </trkpt>
      <trkpt lat="45.58085" lon="5.18305">
        <ele>347</ele>
        <time>2021-05-22T07:23:45Z</time>
      </trkpt>
      <trkpt lat="45.58053" lon="5.18249">
        <ele>354</ele>
        <time>2021-05-22T07:23:54Z</time>
      </trkpt>
      <trkpt lat="45.58022" lon="5.18182">
        <ele>363</ele>
        <time>2021-05-22T07:24:04Z</time>
      </trkpt>
      <trkpt lat="45.58012" lon="5.18169">
        <ele>364</ele>
        <time>2021-05-22T07:24:06Z</time>
      </trkpt>
      <trkpt lat="45.58001" lon="5.1816">
        <ele>364</ele>
        <time>2021-05-22T07:24:09Z</time>
      </trkpt>
      <trkpt lat="45.57911" lon="5.18116">
        <ele>371</ele>
        <time>2021-05-22T07:24:26Z</time>
      </trkpt>
      <trkpt lat="45.57901" lon="5.1811">
        <ele>372</ele>
        <time>2021-05-22T07:24:28Z</time>
      </trkpt>
      <trkpt lat="45.57896" lon="5.18105">
        <ele>372</ele>
        <time>2021-05-22T07:24:29Z</time>
      </trkpt>
      <trkpt lat="45.57894" lon="5.18099">
        <ele>373</ele>
        <time>2021-05-22T07:24:29Z</time>
      </trkpt>
      <trkpt lat="45.57895" lon="5.18092">
        <ele>373</ele>
        <time>2021-05-22T07:24:30Z</time>
      </trkpt>
      <trkpt lat="45.57898" lon="5.18088">
        <ele>373</ele>
        <time>2021-05-22T07:24:31Z</time>
      </trkpt>
      <trkpt lat="45.57904" lon="5.18086">
        <ele>373</ele>
        <time>2021-05-22T07:24:32Z</time>
      </trkpt>
      <trkpt lat="45.57918" lon="5.18089">
        <ele>373</ele>
        <time>2021-05-22T07:24:35Z</time>
      </trkpt>
      <trkpt lat="45.57926" lon="5.18086">
        <ele>373</ele>
        <time>2021-05-22T07:24:36Z</time>
      </trkpt>
      <trkpt lat="45.57932" lon="5.18078">
        <ele>374</ele>
        <time>2021-05-22T07:24:38Z</time>
      </trkpt>
      <trkpt lat="45.57935" lon="5.18066">
        <ele>374</ele>
        <time>2021-05-22T07:24:39Z</time>
      </trkpt>
      <trkpt lat="45.57933" lon="5.17974">
        <ele>378</ele>
        <time>2021-05-22T07:24:51Z</time>
      </trkpt>
      <trkpt lat="45.57912" lon="5.17847">
        <ele>379</ele>
        <time>2021-05-22T07:25:07Z</time>
      </trkpt>
      <trkpt lat="45.57888" lon="5.17807">
        <ele>380</ele>
        <time>2021-05-22T07:25:14Z</time>
      </trkpt>
      <trkpt lat="45.57878" lon="5.1778">
        <ele>382</ele>
        <time>2021-05-22T07:25:17Z</time>
      </trkpt>
      <trkpt lat="45.57867" lon="5.17704">
        <ele>384</ele>
        <time>2021-05-22T07:25:27Z</time>
      </trkpt>
      <trkpt lat="45.57851" lon="5.17657">
        <ele>385</ele>
        <time>2021-05-22T07:25:33Z</time>
      </trkpt>
      <trkpt lat="45.57788" lon="5.17536">
        <ele>389</ele>
        <time>2021-05-22T07:25:52Z</time>
      </trkpt>
      <trkpt lat="45.57772" lon="5.17489">
        <ele>392</ele>
        <time>2021-05-22T07:25:59Z</time>
      </trkpt>
      <trkpt lat="45.57766" lon="5.17438">
        <ele>393</ele>
        <time>2021-05-22T07:26:05Z</time>
      </trkpt>
      <trkpt lat="45.57746" lon="5.17371">
        <ele>394</ele>
        <time>2021-05-22T07:26:14Z</time>
      </trkpt>
      <trkpt lat="45.57736" lon="5.17318">
        <ele>395</ele>
        <time>2021-05-22T07:26:21Z</time>
      </trkpt>
      <trkpt lat="45.57732" lon="5.17155">
        <ele>397</ele>
        <time>2021-05-22T07:26:41Z</time>
      </trkpt>
      <trkpt lat="45.57725" lon="5.17096">
        <ele>397</ele>
        <time>2021-05-22T07:26:49Z</time>
      </trkpt>
      <trkpt lat="45.57627" lon="5.16745">
        <ele>395</ele>
        <time>2021-05-22T07:27:36Z</time>
      </trkpt>
      <trkpt lat="45.57619" lon="5.16702">
        <ele>395</ele>
        <time>2021-05-22T07:27:42Z</time>
      </trkpt>
      <trkpt lat="45.57613" lon="5.16658">
        <ele>394</ele>
        <time>2021-05-22T07:27:47Z</time>
      </trkpt>
      <trkpt lat="45.57611" lon="5.16588">
        <ele>394</ele>
        <time>2021-05-22T07:27:56Z</time>
      </trkpt>
      <trkpt lat="45.57606" lon="5.16549">
        <ele>393</ele>
        <time>2021-05-22T07:28:01Z</time>
      </trkpt>
      <trkpt lat="45.57592" lon="5.16486">
        <ele>391</ele>
        <time>2021-05-22T07:28:09Z</time>
      </trkpt>
      <trkpt lat="45.57587" lon="5.16432">
        <ele>386</ele>
        <time>2021-05-22T07:28:16Z</time>
      </trkpt>
      <trkpt lat="45.57588" lon="5.16424">
        <ele>386</ele>
        <time>2021-05-22T07:28:17Z</time>
      </trkpt>
      <trkpt lat="45.57583" lon="5.16415">
        <ele>385</ele>
        <time>2021-05-22T07:28:18Z</time>
      </trkpt>
      <trkpt lat="45.57561" lon="5.1634">
        <ele>390</ele>
        <time>2021-05-22T07:28:28Z</time>
      </trkpt>
      <trkpt lat="45.57551" lon="5.16321">
        <ele>391</ele>
        <time>2021-05-22T07:28:31Z</time>
      </trkpt>
      <trkpt lat="45.57525" lon="5.16306">
        <ele>392</ele>
        <time>2021-05-22T07:28:36Z</time>
      </trkpt>
      <trkpt lat="45.57505" lon="5.16299">
        <ele>392</ele>
        <time>2021-05-22T07:28:40Z</time>
      </trkpt>
      <trkpt lat="45.57487" lon="5.16296">
        <ele>392</ele>
        <time>2021-05-22T07:28:43Z</time>
      </trkpt>
      <trkpt lat="45.57455" lon="5.16296">
        <ele>393</ele>
        <time>2021-05-22T07:28:49Z</time>
      </trkpt>
      <trkpt lat="45.57435" lon="5.16293">
        <ele>393</ele>
        <time>2021-05-22T07:28:52Z</time>
      </trkpt>
      <trkpt lat="45.57419" lon="5.16285">
        <ele>394</ele>
        <time>2021-05-22T07:28:55Z</time>
      </trkpt>
      <trkpt lat="45.57341" lon="5.16184">
        <ele>408</ele>
        <time>2021-05-22T07:29:14Z</time>
      </trkpt>
      <trkpt lat="45.57314" lon="5.16155">
        <ele>409</ele>
        <time>2021-05-22T07:29:20Z</time>
      </trkpt>
      <trkpt lat="45.57277" lon="5.16143">
        <ele>411</ele>
        <time>2021-05-22T07:29:27Z</time>
      </trkpt>
      <trkpt lat="45.57162" lon="5.16141">
        <ele>416</ele>
        <time>2021-05-22T07:29:47Z</time>
      </trkpt>
      <trkpt lat="45.5715" lon="5.16146">
        <ele>416</ele>
        <time>2021-05-22T07:29:50Z</time>
      </trkpt>
      <trkpt lat="45.57143" lon="5.16152">
        <ele>417</ele>
        <time>2021-05-22T07:29:51Z</time>
      </trkpt>
      <trkpt lat="45.57139" lon="5.1616">
        <ele>417</ele>
        <time>2021-05-22T07:29:52Z</time>
      </trkpt>
      <trkpt lat="45.57139" lon="5.16215">
        <ele>419</ele>
        <time>2021-05-22T07:29:59Z</time>
      </trkpt>
      <trkpt lat="45.57135" lon="5.16225">
        <ele>420</ele>
        <time>2021-05-22T07:30:01Z</time>
      </trkpt>
      <trkpt lat="45.57127" lon="5.16234">
        <ele>421</ele>
        <time>2021-05-22T07:30:02Z</time>
      </trkpt>
      <trkpt lat="45.57113" lon="5.16235">
        <ele>422</ele>
        <time>2021-05-22T07:30:05Z</time>
      </trkpt>
      <trkpt lat="45.5707" lon="5.16209">
        <ele>423</ele>
        <time>2021-05-22T07:30:13Z</time>
      </trkpt>
      <trkpt lat="45.57028" lon="5.16188">
        <ele>422</ele>
        <time>2021-05-22T07:30:21Z</time>
      </trkpt>
      <trkpt lat="45.57018" lon="5.16181">
        <ele>422</ele>
        <time>2021-05-22T07:30:23Z</time>
      </trkpt>
      <trkpt lat="45.56945" lon="5.16112">
        <ele>425</ele>
        <time>2021-05-22T07:30:39Z</time>
      </trkpt>
      <trkpt lat="45.56885" lon="5.16034">
        <ele>428</ele>
        <time>2021-05-22T07:30:53Z</time>
      </trkpt>
      <trkpt lat="45.56838" lon="5.15984">
        <ele>429</ele>
        <time>2021-05-22T07:31:04Z</time>
      </trkpt>
      <trkpt lat="45.5682" lon="5.1597">
        <ele>429</ele>
        <time>2021-05-22T07:31:07Z</time>
      </trkpt>
      <trkpt lat="45.56802" lon="5.15962">
        <ele>428</ele>
        <time>2021-05-22T07:31:11Z</time>
      </trkpt>
      <trkpt lat="45.56783" lon="5.15959">
        <ele>428</ele>
        <time>2021-05-22T07:31:14Z</time>
      </trkpt>
      <trkpt lat="45.56662" lon="5.15972">
        <ele>429</ele>
        <time>2021-05-22T07:31:36Z</time>
      </trkpt>
      <trkpt lat="45.56577" lon="5.15967">
        <ele>431</ele>
        <time>2021-05-22T07:31:51Z</time>
      </trkpt>
      <trkpt lat="45.56537" lon="5.15968">
        <ele>432</ele>
        <time>2021-05-22T07:31:58Z</time>
      </trkpt>
      <trkpt lat="45.5649" lon="5.1598">
        <ele>434</ele>
        <time>2021-05-22T07:32:06Z</time>
      </trkpt>
      <trkpt lat="45.56463" lon="5.15993">
        <ele>434</ele>
        <time>2021-05-22T07:32:11Z</time>
      </trkpt>
      <trkpt lat="45.56444" lon="5.16003">
        <ele>434</ele>
        <time>2021-05-22T07:32:15Z</time>
      </trkpt>
      <trkpt lat="45.56423" lon="5.16011">
        <ele>434</ele>
        <time>2021-05-22T07:32:19Z</time>
      </trkpt>
      <trkpt lat="45.56376" lon="5.16015">
        <ele>435</ele>
        <time>2021-05-22T07:32:27Z</time>
      </trkpt>
      <trkpt lat="45.56357" lon="5.16013">
        <ele>435</ele>
        <time>2021-05-22T07:32:31Z</time>
      </trkpt>
      <trkpt lat="45.56338" lon="5.16017">
        <ele>435</ele>
        <time>2021-05-22T07:32:34Z</time>
      </trkpt>
      <trkpt lat="45.56303" lon="5.16029">
        <ele>434</ele>
        <time>2021-05-22T07:32:40Z</time>
      </trkpt>
      <trkpt lat="45.56279" lon="5.16042">
        <ele>434</ele>
        <time>2021-05-22T07:32:45Z</time>
      </trkpt>
      <trkpt lat="45.56238" lon="5.16084">
        <ele>433</ele>
        <time>2021-05-22T07:32:54Z</time>
      </trkpt>
      <trkpt lat="45.56199" lon="5.16132">
        <ele>434</ele>
        <time>2021-05-22T07:33:03Z</time>
      </trkpt>
      <trkpt lat="45.56162" lon="5.16201">
        <ele>434</ele>
        <time>2021-05-22T07:33:14Z</time>
      </trkpt>
      <trkpt lat="45.5615" lon="5.16217">
        <ele>435</ele>
        <time>2021-05-22T07:33:17Z</time>
      </trkpt>
      <trkpt lat="45.56134" lon="5.16232">
        <ele>435</ele>
        <time>2021-05-22T07:33:20Z</time>
      </trkpt>
      <trkpt lat="45.56111" lon="5.16249">
        <ele>435</ele>
        <time>2021-05-22T07:33:25Z</time>
      </trkpt>
      <trkpt lat="45.5605" lon="5.16273">
        <ele>437</ele>
        <time>2021-05-22T07:33:36Z</time>
      </trkpt>
      <trkpt lat="45.5594" lon="5.16307">
        <ele>439</ele>
        <time>2021-05-22T07:33:56Z</time>
      </trkpt>
      <trkpt lat="45.559" lon="5.16316">
        <ele>439</ele>
        <time>2021-05-22T07:34:03Z</time>
      </trkpt>
      <trkpt lat="45.55868" lon="5.16311">
        <ele>439</ele>
        <time>2021-05-22T07:34:09Z</time>
      </trkpt>
      <trkpt lat="45.55836" lon="5.16301">
        <ele>439</ele>
        <time>2021-05-22T07:34:15Z</time>
      </trkpt>
      <trkpt lat="45.55657" lon="5.16293">
        <ele>441</ele>
        <time>2021-05-22T07:34:47Z</time>
      </trkpt>
      <trkpt lat="45.55481" lon="5.16339">
        <ele>449</ele>
        <time>2021-05-22T07:35:19Z</time>
      </trkpt>
      <trkpt lat="45.554" lon="5.16363">
        <ele>449</ele>
        <time>2021-05-22T07:35:33Z</time>
      </trkpt>
      <trkpt lat="45.55246" lon="5.16472">
        <ele>449</ele>
        <time>2021-05-22T07:36:04Z</time>
      </trkpt>
      <trkpt lat="45.55149" lon="5.16501">
        <ele>448</ele>
        <time>2021-05-22T07:36:22Z</time>
      </trkpt>
      <trkpt lat="45.55041" lon="5.16498">
        <ele>447</ele>
        <time>2021-05-22T07:36:41Z</time>
      </trkpt>
      <trkpt lat="45.54931" lon="5.16507">
        <ele>447</ele>
        <time>2021-05-22T07:37:00Z</time>
      </trkpt>
      <trkpt lat="45.54871" lon="5.16505">
        <ele>445</ele>
        <time>2021-05-22T07:37:11Z</time>
      </trkpt>
      <trkpt lat="45.54789" lon="5.16491">
        <ele>443</ele>
        <time>2021-05-22T07:37:26Z</time>
      </trkpt>
      <trkpt lat="45.54588" lon="5.16437">
        <ele>439</ele>
        <time>2021-05-22T07:38:02Z</time>
      </trkpt>
      <trkpt lat="45.54578" lon="5.16438">
        <ele>439</ele>
        <time>2021-05-22T07:38:04Z</time>
      </trkpt>
      <trkpt lat="45.54512" lon="5.16461">
        <ele>439</ele>
        <time>2021-05-22T07:38:16Z</time>
      </trkpt>
      <trkpt lat="45.54478" lon="5.1647">
        <ele>437</ele>
        <time>2021-05-22T07:38:22Z</time>
      </trkpt>
      <trkpt lat="45.54311" lon="5.16505">
        <ele>431</ele>
        <time>2021-05-22T07:38:52Z</time>
      </trkpt>
      <trkpt lat="45.54296" lon="5.16505">
        <ele>431</ele>
        <time>2021-05-22T07:38:55Z</time>
      </trkpt>
      <trkpt lat="45.5428" lon="5.165">
        <ele>432</ele>
        <time>2021-05-22T07:38:58Z</time>
      </trkpt>
      <trkpt lat="45.54264" lon="5.16488">
        <ele>432</ele>
        <time>2021-05-22T07:39:01Z</time>
      </trkpt>
      <trkpt lat="45.54251" lon="5.16471">
        <ele>432</ele>
        <time>2021-05-22T07:39:04Z</time>
      </trkpt>
      <trkpt lat="45.54241" lon="5.16447">
        <ele>433</ele>
        <time>2021-05-22T07:39:08Z</time>
      </trkpt>
      <trkpt lat="45.54167" lon="5.16228">
        <ele>430</ele>
        <time>2021-05-22T07:39:38Z</time>
      </trkpt>
      <trkpt lat="45.54156" lon="5.16207">
        <ele>430</ele>
        <time>2021-05-22T07:39:41Z</time>
      </trkpt>
      <trkpt lat="45.54138" lon="5.16191">
        <ele>430</ele>
        <time>2021-05-22T07:39:45Z</time>
      </trkpt>
      <trkpt lat="45.54119" lon="5.16179">
        <ele>430</ele>
        <time>2021-05-22T07:39:49Z</time>
      </trkpt>
      <trkpt lat="45.53876" lon="5.16071">
        <ele>423</ele>
        <time>2021-05-22T07:40:34Z</time>
      </trkpt>
      <trkpt lat="45.53849" lon="5.16066">
        <ele>422</ele>
        <time>2021-05-22T07:40:39Z</time>
      </trkpt>
      <trkpt lat="45.53784" lon="5.16075">
        <ele>419</ele>
        <time>2021-05-22T07:40:50Z</time>
      </trkpt>
      <trkpt lat="45.5377" lon="5.16082">
        <ele>418</ele>
        <time>2021-05-22T07:40:53Z</time>
      </trkpt>
      <trkpt lat="45.5376" lon="5.16093">
        <ele>417</ele>
        <time>2021-05-22T07:40:55Z</time>
      </trkpt>
      <trkpt lat="45.53754" lon="5.16109">
        <ele>417</ele>
        <time>2021-05-22T07:40:58Z</time>
      </trkpt>
      <trkpt lat="45.53753" lon="5.1613">
        <ele>416</ele>
        <time>2021-05-22T07:41:00Z</time>
      </trkpt>
      <trkpt lat="45.53755" lon="5.16217">
        <ele>416</ele>
        <time>2021-05-22T07:41:11Z</time>
      </trkpt>
      <trkpt lat="45.53754" lon="5.16235">
        <ele>416</ele>
        <time>2021-05-22T07:41:13Z</time>
      </trkpt>
      <trkpt lat="45.53745" lon="5.16287">
        <ele>417</ele>
        <time>2021-05-22T07:41:20Z</time>
      </trkpt>
      <trkpt lat="45.53739" lon="5.16308">
        <ele>417</ele>
        <time>2021-05-22T07:41:23Z</time>
      </trkpt>
      <trkpt lat="45.53728" lon="5.16334">
        <ele>416</ele>
        <time>2021-05-22T07:41:27Z</time>
      </trkpt>
      <trkpt lat="45.53717" lon="5.16355">
        <ele>416</ele>
        <time>2021-05-22T07:41:30Z</time>
      </trkpt>
      <trkpt lat="45.53702" lon="5.16376">
        <ele>415</ele>
        <time>2021-05-22T07:41:34Z</time>
      </trkpt>
      <trkpt lat="45.53693" lon="5.16381">
        <ele>414</ele>
        <time>2021-05-22T07:41:35Z</time>
      </trkpt>
      <trkpt lat="45.5368" lon="5.16383">
        <ele>412</ele>
        <time>2021-05-22T07:41:38Z</time>
      </trkpt>
      <trkpt lat="45.53627" lon="5.16362">
        <ele>407</ele>
        <time>2021-05-22T07:41:47Z</time>
      </trkpt>
      <trkpt lat="45.5361" lon="5.16362">
        <ele>407</ele>
        <time>2021-05-22T07:41:50Z</time>
      </trkpt>
      <trkpt lat="45.53525" lon="5.164">
        <ele>409</ele>
        <time>2021-05-22T07:42:06Z</time>
      </trkpt>
      <trkpt lat="45.53509" lon="5.16401">
        <ele>410</ele>
        <time>2021-05-22T07:42:09Z</time>
      </trkpt>
      <trkpt lat="45.53502" lon="5.16395">
        <ele>410</ele>
        <time>2021-05-22T07:42:11Z</time>
      </trkpt>
      <trkpt lat="45.53498" lon="5.1639">
        <ele>411</ele>
        <time>2021-05-22T07:42:12Z</time>
      </trkpt>
      <trkpt lat="45.53493" lon="5.16361">
        <ele>411</ele>
        <time>2021-05-22T07:42:15Z</time>
      </trkpt>
      <trkpt lat="45.53508" lon="5.16005">
        <ele>420</ele>
        <time>2021-05-22T07:43:00Z</time>
      </trkpt>
      <trkpt lat="45.53512" lon="5.15955">
        <ele>424</ele>
        <time>2021-05-22T07:43:06Z</time>
      </trkpt>
      <trkpt lat="45.5352" lon="5.15918">
        <ele>426</ele>
        <time>2021-05-22T07:43:11Z</time>
      </trkpt>
      <trkpt lat="45.5354" lon="5.15866">
        <ele>429</ele>
        <time>2021-05-22T07:43:18Z</time>
      </trkpt>
      <trkpt lat="45.53562" lon="5.15817">
        <ele>432</ele>
        <time>2021-05-22T07:43:25Z</time>
      </trkpt>
      <trkpt lat="45.53615" lon="5.15709">
        <ele>441</ele>
        <time>2021-05-22T07:43:42Z</time>
      </trkpt>
      <trkpt lat="45.53635" lon="5.15657">
        <ele>444</ele>
        <time>2021-05-22T07:43:49Z</time>
      </trkpt>
      <trkpt lat="45.53667" lon="5.15559">
        <ele>449</ele>
        <time>2021-05-22T07:44:03Z</time>
      </trkpt>
      <trkpt lat="45.53682" lon="5.15522">
        <ele>452</ele>
        <time>2021-05-22T07:44:08Z</time>
      </trkpt>
      <trkpt lat="45.53703" lon="5.15501">
        <ele>449</ele>
        <time>2021-05-22T07:44:13Z</time>
      </trkpt>
      <trkpt lat="45.53724" lon="5.15488">
        <ele>443</ele>
        <time>2021-05-22T07:44:17Z</time>
      </trkpt>
      <trkpt lat="45.53731" lon="5.15479">
        <ele>441</ele>
        <time>2021-05-22T07:44:18Z</time>
      </trkpt>
      <trkpt lat="45.53735" lon="5.15468">
        <ele>440</ele>
        <time>2021-05-22T07:44:20Z</time>
      </trkpt>
      <trkpt lat="45.53736" lon="5.15449">
        <ele>439</ele>
        <time>2021-05-22T07:44:22Z</time>
      </trkpt>
      <trkpt lat="45.53691" lon="5.15369">
        <ele>444</ele>
        <time>2021-05-22T07:44:35Z</time>
      </trkpt>
      <trkpt lat="45.53675" lon="5.15354">
        <ele>446</ele>
        <time>2021-05-22T07:44:39Z</time>
      </trkpt>
      <trkpt lat="45.5366" lon="5.15352">
        <ele>448</ele>
        <time>2021-05-22T07:44:41Z</time>
      </trkpt>
      <trkpt lat="45.53651" lon="5.15358">
        <ele>449</ele>
        <time>2021-05-22T07:44:43Z</time>
      </trkpt>
      <trkpt lat="45.53638" lon="5.15374">
        <ele>451</ele>
        <time>2021-05-22T07:44:46Z</time>
      </trkpt>
      <trkpt lat="45.53628" lon="5.15394">
        <ele>454</ele>
        <time>2021-05-22T07:44:49Z</time>
      </trkpt>
      <trkpt lat="45.53618" lon="5.15406">
        <ele>455</ele>
        <time>2021-05-22T07:44:51Z</time>
      </trkpt>
      <trkpt lat="45.53595" lon="5.15418">
        <ele>455</ele>
        <time>2021-05-22T07:44:56Z</time>
      </trkpt>
      <trkpt lat="45.53553" lon="5.15438">
        <ele>459</ele>
        <time>2021-05-22T07:45:04Z</time>
      </trkpt>
      <trkpt lat="45.53481" lon="5.15452">
        <ele>464</ele>
        <time>2021-05-22T07:45:17Z</time>
      </trkpt>
      <trkpt lat="45.53391" lon="5.15503">
        <ele>469</ele>
        <time>2021-05-22T07:45:34Z</time>
      </trkpt>
      <trkpt lat="45.5332" lon="5.15536">
        <ele>469</ele>
        <time>2021-05-22T07:45:47Z</time>
      </trkpt>
      <trkpt lat="45.53297" lon="5.15551">
        <ele>469</ele>
        <time>2021-05-22T07:45:52Z</time>
      </trkpt>
      <trkpt lat="45.53227" lon="5.15605">
        <ele>472</ele>
        <time>2021-05-22T07:46:06Z</time>
      </trkpt>
      <trkpt lat="45.53208" lon="5.15613">
        <ele>473</ele>
        <time>2021-05-22T07:46:09Z</time>
      </trkpt>
      <trkpt lat="45.53188" lon="5.15613">
        <ele>473</ele>
        <time>2021-05-22T07:46:13Z</time>
      </trkpt>
      <trkpt lat="45.53168" lon="5.15602">
        <ele>474</ele>
        <time>2021-05-22T07:46:17Z</time>
      </trkpt>
      <trkpt lat="45.53154" lon="5.1558">
        <ele>473</ele>
        <time>2021-05-22T07:46:20Z</time>
      </trkpt>
      <trkpt lat="45.52965" lon="5.15266">
        <ele>473</ele>
        <time>2021-05-22T07:47:12Z</time>
      </trkpt>
      <trkpt lat="45.52944" lon="5.15241">
        <ele>474</ele>
        <time>2021-05-22T07:47:17Z</time>
      </trkpt>
      <trkpt lat="45.52914" lon="5.15218">
        <ele>475</ele>
        <time>2021-05-22T07:47:23Z</time>
      </trkpt>
      <trkpt lat="45.52777" lon="5.15137">
        <ele>472</ele>
        <time>2021-05-22T07:47:49Z</time>
      </trkpt>
      <trkpt lat="45.52755" lon="5.15118">
        <ele>470</ele>
        <time>2021-05-22T07:47:54Z</time>
      </trkpt>
      <trkpt lat="45.52732" lon="5.15087">
        <ele>469</ele>
        <time>2021-05-22T07:47:59Z</time>
      </trkpt>
      <trkpt lat="45.52676" lon="5.14982">
        <ele>467</ele>
        <time>2021-05-22T07:48:16Z</time>
      </trkpt>
      <trkpt lat="45.52655" lon="5.14944">
        <ele>465</ele>
        <time>2021-05-22T07:48:22Z</time>
      </trkpt>
      <trkpt lat="45.52641" lon="5.14928">
        <ele>464</ele>
        <time>2021-05-22T07:48:25Z</time>
      </trkpt>
      <trkpt lat="45.52627" lon="5.14917">
        <ele>463</ele>
        <time>2021-05-22T07:48:28Z</time>
      </trkpt>
      <trkpt lat="45.52611" lon="5.14912">
        <ele>462</ele>
        <time>2021-05-22T07:48:31Z</time>
      </trkpt>
      <trkpt lat="45.52589" lon="5.14915">
        <ele>461</ele>
        <time>2021-05-22T07:48:35Z</time>
      </trkpt>
      <trkpt lat="45.52576" lon="5.14924">
        <ele>461</ele>
        <time>2021-05-22T07:48:37Z</time>
      </trkpt>
      <trkpt lat="45.52539" lon="5.1496">
        <ele>462</ele>
        <time>2021-05-22T07:48:45Z</time>
      </trkpt>
      <trkpt lat="45.52517" lon="5.14975">
        <ele>460</ele>
        <time>2021-05-22T07:48:50Z</time>
      </trkpt>
      <trkpt lat="45.52502" lon="5.14978">
        <ele>459</ele>
        <time>2021-05-22T07:48:52Z</time>
      </trkpt>
      <trkpt lat="45.52486" lon="5.14977">
        <ele>458</ele>
        <time>2021-05-22T07:48:55Z</time>
      </trkpt>
      <trkpt lat="45.52464" lon="5.1497">
        <ele>456</ele>
        <time>2021-05-22T07:48:59Z</time>
      </trkpt>
      <trkpt lat="45.52275" lon="5.14903">
        <ele>441</ele>
        <time>2021-05-22T07:49:34Z</time>
      </trkpt>
      <trkpt lat="45.51929" lon="5.14783">
        <ele>422</ele>
        <time>2021-05-22T07:50:37Z</time>
      </trkpt>
      <trkpt lat="45.51762" lon="5.14745">
        <ele>418</ele>
        <time>2021-05-22T07:51:07Z</time>
      </trkpt>
      <trkpt lat="45.51646" lon="5.14756">
        <ele>418</ele>
        <time>2021-05-22T07:51:28Z</time>
      </trkpt>
      <trkpt lat="45.51454" lon="5.14783">
        <ele>408</ele>
        <time>2021-05-22T07:52:02Z</time>
      </trkpt>
      <trkpt lat="45.51336" lon="5.14804">
        <ele>403</ele>
        <time>2021-05-22T07:52:24Z</time>
      </trkpt>
      <trkpt lat="45.51256" lon="5.14823">
        <ele>401</ele>
        <time>2021-05-22T07:52:38Z</time>
      </trkpt>
      <trkpt lat="45.51196" lon="5.14837">
        <ele>400</ele>
        <time>2021-05-22T07:52:49Z</time>
      </trkpt>
      <trkpt lat="45.51154" lon="5.14856">
        <ele>400</ele>
        <time>2021-05-22T07:52:57Z</time>
      </trkpt>
      <trkpt lat="45.50984" lon="5.14973">
        <ele>399</ele>
        <time>2021-05-22T07:53:30Z</time>
      </trkpt>
      <trkpt lat="45.50788" lon="5.15097">
        <ele>394</ele>
        <time>2021-05-22T07:54:08Z</time>
      </trkpt>
      <trkpt lat="45.50742" lon="5.15098">
        <ele>393</ele>
        <time>2021-05-22T07:54:17Z</time>
      </trkpt>
      <trkpt lat="45.50708" lon="5.15091">
        <ele>393</ele>
        <time>2021-05-22T07:54:23Z</time>
      </trkpt>
      <trkpt lat="45.50696" lon="5.15084">
        <ele>392</ele>
        <time>2021-05-22T07:54:25Z</time>
      </trkpt>
      <trkpt lat="45.50688" lon="5.15117">
        <ele>393</ele>
        <time>2021-05-22T07:54:29Z</time>
      </trkpt>
      <trkpt lat="45.50678" lon="5.15135">
        <ele>394</ele>
        <time>2021-05-22T07:54:32Z</time>
      </trkpt>
      <trkpt lat="45.5053" lon="5.15209">
        <ele>399</ele>
        <time>2021-05-22T07:55:00Z</time>
      </trkpt>
      <trkpt lat="45.50467" lon="5.15218">
        <ele>400</ele>
        <time>2021-05-22T07:55:11Z</time>
      </trkpt>
      <trkpt lat="45.50436" lon="5.15209">
        <ele>399</ele>
        <time>2021-05-22T07:55:17Z</time>
      </trkpt>
      <trkpt lat="45.5042" lon="5.15213">
        <ele>399</ele>
        <time>2021-05-22T07:55:20Z</time>
      </trkpt>
      <trkpt lat="45.50403" lon="5.15224">
        <ele>398</ele>
        <time>2021-05-22T07:55:23Z</time>
      </trkpt>
      <trkpt lat="45.50371" lon="5.15236">
        <ele>395</ele>
        <time>2021-05-22T07:55:29Z</time>
      </trkpt>
      <trkpt lat="45.50342" lon="5.15269">
        <ele>392</ele>
        <time>2021-05-22T07:55:36Z</time>
      </trkpt>
      <trkpt lat="45.50321" lon="5.15285">
        <ele>390</ele>
        <time>2021-05-22T07:55:40Z</time>
      </trkpt>
      <trkpt lat="45.50294" lon="5.1529">
        <ele>388</ele>
        <time>2021-05-22T07:55:45Z</time>
      </trkpt>
      <trkpt lat="45.50264" lon="5.15227">
        <ele>387</ele>
        <time>2021-05-22T07:55:54Z</time>
      </trkpt>
      <trkpt lat="45.50232" lon="5.1515">
        <ele>385</ele>
        <time>2021-05-22T07:56:05Z</time>
      </trkpt>
      <trkpt lat="45.50213" lon="5.15071">
        <ele>385</ele>
        <time>2021-05-22T07:56:16Z</time>
      </trkpt>
      <trkpt lat="45.50196" lon="5.15045">
        <ele>384</ele>
        <time>2021-05-22T07:56:20Z</time>
      </trkpt>
      <trkpt lat="45.49961" lon="5.14822">
        <ele>377</ele>
        <time>2021-05-22T07:57:10Z</time>
      </trkpt>
      <trkpt lat="45.49911" lon="5.14773">
        <ele>376</ele>
        <time>2021-05-22T07:57:21Z</time>
      </trkpt>
      <trkpt lat="45.49872" lon="5.14725">
        <ele>375</ele>
        <time>2021-05-22T07:57:30Z</time>
      </trkpt>
      <trkpt lat="45.49834" lon="5.1467">
        <ele>375</ele>
        <time>2021-05-22T07:57:40Z</time>
      </trkpt>
      <trkpt lat="45.49786" lon="5.14578">
        <ele>373</ele>
        <time>2021-05-22T07:57:54Z</time>
      </trkpt>
      <trkpt lat="45.49747" lon="5.14478">
        <ele>370</ele>
        <time>2021-05-22T07:58:09Z</time>
      </trkpt>
      <trkpt lat="45.49726" lon="5.14398">
        <ele>372</ele>
        <time>2021-05-22T07:58:19Z</time>
      </trkpt>
      <trkpt lat="45.49715" lon="5.14348">
        <ele>372</ele>
        <time>2021-05-22T07:58:26Z</time>
      </trkpt>
      <trkpt lat="45.49704" lon="5.1428">
        <ele>372</ele>
        <time>2021-05-22T07:58:35Z</time>
      </trkpt>
      <trkpt lat="45.49692" lon="5.14238">
        <ele>372</ele>
        <time>2021-05-22T07:58:40Z</time>
      </trkpt>
      <trkpt lat="45.4967" lon="5.142">
        <ele>371</ele>
        <time>2021-05-22T07:58:46Z</time>
      </trkpt>
      <trkpt lat="45.49663" lon="5.1418">
        <ele>371</ele>
        <time>2021-05-22T07:58:49Z</time>
      </trkpt>
      <trkpt lat="45.49658" lon="5.14157">
        <ele>371</ele>
        <time>2021-05-22T07:58:52Z</time>
      </trkpt>
      <trkpt lat="45.49659" lon="5.14133">
        <ele>371</ele>
        <time>2021-05-22T07:58:55Z</time>
      </trkpt>
      <trkpt lat="45.49668" lon="5.14118">
        <ele>371</ele>
        <time>2021-05-22T07:58:58Z</time>
      </trkpt>
      <trkpt lat="45.49678" lon="5.1411">
        <ele>371</ele>
        <time>2021-05-22T07:59:00Z</time>
      </trkpt>
      <trkpt lat="45.49685" lon="5.14097">
        <ele>371</ele>
        <time>2021-05-22T07:59:02Z</time>
      </trkpt>
      <trkpt lat="45.49686" lon="5.14086">
        <ele>371</ele>
        <time>2021-05-22T07:59:03Z</time>
      </trkpt>
      <trkpt lat="45.49684" lon="5.14074">
        <ele>371</ele>
        <time>2021-05-22T07:59:05Z</time>
      </trkpt>
      <trkpt lat="45.49677" lon="5.14061">
        <ele>370</ele>
        <time>2021-05-22T07:59:07Z</time>
      </trkpt>
      <trkpt lat="45.49666" lon="5.14055">
        <ele>370</ele>
        <time>2021-05-22T07:59:09Z</time>
      </trkpt>
      <trkpt lat="45.49656" lon="5.14056">
        <ele>370</ele>
        <time>2021-05-22T07:59:10Z</time>
      </trkpt>
      <trkpt lat="45.49648" lon="5.14064">
        <ele>371</ele>
        <time>2021-05-22T07:59:12Z</time>
      </trkpt>
      <trkpt lat="45.49627" lon="5.14062">
        <ele>371</ele>
        <time>2021-05-22T07:59:16Z</time>
      </trkpt>
      <trkpt lat="45.49564" lon="5.14046">
        <ele>372</ele>
        <time>2021-05-22T07:59:27Z</time>
      </trkpt>
      <trkpt lat="45.49511" lon="5.14052">
        <ele>373</ele>
        <time>2021-05-22T07:59:37Z</time>
      </trkpt>
      <trkpt lat="45.49485" lon="5.14063">
        <ele>374</ele>
        <time>2021-05-22T07:59:42Z</time>
      </trkpt>
      <trkpt lat="45.49461" lon="5.14056">
        <ele>375</ele>
        <time>2021-05-22T07:59:46Z</time>
      </trkpt>
      <trkpt lat="45.49439" lon="5.14047">
        <ele>375</ele>
        <time>2021-05-22T07:59:50Z</time>
      </trkpt>
      <trkpt lat="45.4942" lon="5.14035">
        <ele>376</ele>
        <time>2021-05-22T07:59:54Z</time>
      </trkpt>
      <trkpt lat="45.49398" lon="5.1402">
        <ele>376</ele>
        <time>2021-05-22T07:59:58Z</time>
      </trkpt>
      <trkpt lat="45.49336" lon="5.13969">
        <ele>375</ele>
        <time>2021-05-22T08:00:11Z</time>
      </trkpt>
      <trkpt lat="45.49254" lon="5.13917">
        <ele>370</ele>
        <time>2021-05-22T08:00:27Z</time>
      </trkpt>
      <trkpt lat="45.49234" lon="5.13901">
        <ele>371</ele>
        <time>2021-05-22T08:00:31Z</time>
      </trkpt>
      <trkpt lat="45.49219" lon="5.13885">
        <ele>373</ele>
        <time>2021-05-22T08:00:34Z</time>
      </trkpt>
      <trkpt lat="45.49211" lon="5.13876">
        <ele>373</ele>
        <time>2021-05-22T08:00:36Z</time>
      </trkpt>
      <trkpt lat="45.49131" lon="5.13813">
        <ele>376</ele>
        <time>2021-05-22T08:00:52Z</time>
      </trkpt>
      <trkpt lat="45.49044" lon="5.13763">
        <ele>376</ele>
        <time>2021-05-22T08:01:09Z</time>
      </trkpt>
      <trkpt lat="45.48934" lon="5.13731">
        <ele>377</ele>
        <time>2021-05-22T08:01:29Z</time>
      </trkpt>
      <trkpt lat="45.48769" lon="5.13714">
        <ele>386</ele>
        <time>2021-05-22T08:01:58Z</time>
      </trkpt>
      <trkpt lat="45.48748" lon="5.13703">
        <ele>388</ele>
        <time>2021-05-22T08:02:02Z</time>
      </trkpt>
      <trkpt lat="45.48662" lon="5.13626">
        <ele>395</ele>
        <time>2021-05-22T08:02:20Z</time>
      </trkpt>
      <trkpt lat="45.48622" lon="5.13599">
        <ele>401</ele>
        <time>2021-05-22T08:02:28Z</time>
      </trkpt>
      <trkpt lat="45.48585" lon="5.13548">
        <ele>404</ele>
        <time>2021-05-22T08:02:37Z</time>
      </trkpt>
      <trkpt lat="45.48502" lon="5.13445">
        <ele>417</ele>
        <time>2021-05-22T08:02:57Z</time>
      </trkpt>
      <trkpt lat="45.48434" lon="5.13356">
        <ele>426</ele>
        <time>2021-05-22T08:03:13Z</time>
      </trkpt>
      <trkpt lat="45.48397" lon="5.13337">
        <ele>430</ele>
        <time>2021-05-22T08:03:20Z</time>
      </trkpt>
      <trkpt lat="45.48366" lon="5.13324">
        <ele>432</ele>
        <time>2021-05-22T08:03:26Z</time>
      </trkpt>
      <trkpt lat="45.4833" lon="5.13339">
        <ele>437</ele>
        <time>2021-05-22T08:03:33Z</time>
      </trkpt>
      <trkpt lat="45.48262" lon="5.13388">
        <ele>446</ele>
        <time>2021-05-22T08:03:46Z</time>
      </trkpt>
      <trkpt lat="45.48244" lon="5.13391">
        <ele>448</ele>
        <time>2021-05-22T08:03:50Z</time>
      </trkpt>
      <trkpt lat="45.48221" lon="5.13377">
        <ele>449</ele>
        <time>2021-05-22T08:03:54Z</time>
      </trkpt>
      <trkpt lat="45.4819" lon="5.13344">
        <ele>450</ele>
        <time>2021-05-22T08:04:01Z</time>
      </trkpt>
      <trkpt lat="45.48146" lon="5.13303">
        <ele>452</ele>
        <time>2021-05-22T08:04:10Z</time>
      </trkpt>
      <trkpt lat="45.48113" lon="5.13276">
        <ele>452</ele>
        <time>2021-05-22T08:04:17Z</time>
      </trkpt>
      <trkpt lat="45.48069" lon="5.13249">
        <ele>452</ele>
        <time>2021-05-22T08:04:26Z</time>
      </trkpt>
      <trkpt lat="45.48041" lon="5.13236">
        <ele>453</ele>
        <time>2021-05-22T08:04:31Z</time>
      </trkpt>
      <trkpt lat="45.47981" lon="5.13194">
        <ele>453</ele>
        <time>2021-05-22T08:04:43Z</time>
      </trkpt>
      <trkpt lat="45.47713" lon="5.13058">
        <ele>432</ele>
        <time>2021-05-22T08:05:33Z</time>
      </trkpt>
      <trkpt lat="45.47688" lon="5.13017">
        <ele>427</ele>
        <time>2021-05-22T08:05:40Z</time>
      </trkpt>
      <trkpt lat="45.47539" lon="5.12684">
        <ele>419</ele>
        <time>2021-05-22T08:06:29Z</time>
      </trkpt>
      <trkpt lat="45.47459" lon="5.1252">
        <ele>412</ele>
        <time>2021-05-22T08:06:54Z</time>
      </trkpt>
      <trkpt lat="45.47442" lon="5.125">
        <ele>411</ele>
        <time>2021-05-22T08:06:58Z</time>
      </trkpt>
      <trkpt lat="45.47403" lon="5.12479">
        <ele>409</ele>
        <time>2021-05-22T08:07:06Z</time>
      </trkpt>
      <trkpt lat="45.47398" lon="5.12475">
        <ele>409</ele>
        <time>2021-05-22T08:07:07Z</time>
      </trkpt>
      <trkpt lat="45.47334" lon="5.12421">
        <ele>408</ele>
        <time>2021-05-22T08:07:20Z</time>
      </trkpt>
      <trkpt lat="45.47196" lon="5.12227">
        <ele>410</ele>
        <time>2021-05-22T08:07:54Z</time>
      </trkpt>
      <trkpt lat="45.47128" lon="5.1214">
        <ele>411</ele>
        <time>2021-05-22T08:08:11Z</time>
      </trkpt>
      <trkpt lat="45.46987" lon="5.11961">
        <ele>414</ele>
        <time>2021-05-22T08:08:44Z</time>
      </trkpt>
      <trkpt lat="45.46918" lon="5.11874">
        <ele>414</ele>
        <time>2021-05-22T08:09:01Z</time>
      </trkpt>
      <trkpt lat="45.46911" lon="5.11866">
        <ele>414</ele>
        <time>2021-05-22T08:09:02Z</time>
      </trkpt>
      <trkpt lat="45.46909" lon="5.11863">
        <ele>414</ele>
        <time>2021-05-22T08:09:03Z</time>
      </trkpt>
      <trkpt lat="45.46897" lon="5.11881">
        <ele>415</ele>
        <time>2021-05-22T08:09:06Z</time>
      </trkpt>
      <trkpt lat="45.46883" lon="5.11895">
        <ele>416</ele>
        <time>2021-05-22T08:09:09Z</time>
      </trkpt>
      <trkpt lat="45.46812" lon="5.11888">
        <ele>415</ele>
        <time>2021-05-22T08:09:22Z</time>
      </trkpt>
      <trkpt lat="45.46782" lon="5.119">
        <ele>414</ele>
        <time>2021-05-22T08:09:27Z</time>
      </trkpt>
      <trkpt lat="45.46762" lon="5.11924">
        <ele>415</ele>
        <time>2021-05-22T08:09:32Z</time>
      </trkpt>
      <trkpt lat="45.46683" lon="5.1203">
        <ele>417</ele>
        <time>2021-05-22T08:09:51Z</time>
      </trkpt>
      <trkpt lat="45.46615" lon="5.12145">
        <ele>420</ele>
        <time>2021-05-22T08:10:10Z</time>
      </trkpt>
      <trkpt lat="45.46345" lon="5.12724">
        <ele>424</ele>
        <time>2021-05-22T08:11:37Z</time>
      </trkpt>
      <trkpt lat="45.4633" lon="5.12778">
        <ele>425</ele>
        <time>2021-05-22T08:11:44Z</time>
      </trkpt>
      <trkpt lat="45.46329" lon="5.12836">
        <ele>428</ele>
        <time>2021-05-22T08:11:51Z</time>
      </trkpt>
      <trkpt lat="45.4633" lon="5.12907">
        <ele>427</ele>
        <time>2021-05-22T08:12:00Z</time>
      </trkpt>
      <trkpt lat="45.46294" lon="5.1298">
        <ele>424</ele>
        <time>2021-05-22T08:12:11Z</time>
      </trkpt>
      <trkpt lat="45.46284" lon="5.13109">
        <ele>430</ele>
        <time>2021-05-22T08:12:27Z</time>
      </trkpt>
      <trkpt lat="45.46251" lon="5.13248">
        <ele>431</ele>
        <time>2021-05-22T08:12:46Z</time>
      </trkpt>
      <trkpt lat="45.46028" lon="5.13694">
        <ele>425</ele>
        <time>2021-05-22T08:13:54Z</time>
      </trkpt>
      <trkpt lat="45.45834" lon="5.14107">
        <ele>423</ele>
        <time>2021-05-22T08:14:56Z</time>
      </trkpt>
      <trkpt lat="45.4582" lon="5.14135">
        <ele>424</ele>
        <time>2021-05-22T08:15:00Z</time>
      </trkpt>
      <trkpt lat="45.45794" lon="5.14164">
        <ele>424</ele>
        <time>2021-05-22T08:15:06Z</time>
      </trkpt>
      <trkpt lat="45.4578" lon="5.14169">
        <ele>424</ele>
        <time>2021-05-22T08:15:09Z</time>
      </trkpt>
      <trkpt lat="45.45763" lon="5.1417">
        <ele>423</ele>
        <time>2021-05-22T08:15:12Z</time>
      </trkpt>
      <trkpt lat="45.45744" lon="5.1417">
        <ele>423</ele>
        <time>2021-05-22T08:15:15Z</time>
      </trkpt>
      <trkpt lat="45.45731" lon="5.1417">
        <ele>425</ele>
        <time>2021-05-22T08:15:17Z</time>
      </trkpt>
      <trkpt lat="45.45701" lon="5.14182">
        <ele>430</ele>
        <time>2021-05-22T08:15:23Z</time>
      </trkpt>
      <trkpt lat="45.45679" lon="5.14214">
        <ele>430</ele>
        <time>2021-05-22T08:15:29Z</time>
      </trkpt>
      <trkpt lat="45.45652" lon="5.14262">
        <ele>430</ele>
        <time>2021-05-22T08:15:36Z</time>
      </trkpt>
      <trkpt lat="45.45539" lon="5.14484">
        <ele>446</ele>
        <time>2021-05-22T08:16:11Z</time>
      </trkpt>
      <trkpt lat="45.45399" lon="5.14749">
        <ele>445</ele>
        <time>2021-05-22T08:16:52Z</time>
      </trkpt>
      <trkpt lat="45.45351" lon="5.14954">
        <ele>453</ele>
        <time>2021-05-22T08:17:19Z</time>
      </trkpt>
      <trkpt lat="45.45348" lon="5.15005">
        <ele>456</ele>
        <time>2021-05-22T08:17:25Z</time>
      </trkpt>
      <trkpt lat="45.45351" lon="5.15042">
        <ele>456</ele>
        <time>2021-05-22T08:17:30Z</time>
      </trkpt>
      <trkpt lat="45.45352" lon="5.1508">
        <ele>457</ele>
        <time>2021-05-22T08:17:35Z</time>
      </trkpt>
      <trkpt lat="45.45344" lon="5.15104">
        <ele>458</ele>
        <time>2021-05-22T08:17:38Z</time>
      </trkpt>
      <trkpt lat="45.45327" lon="5.15121">
        <ele>459</ele>
        <time>2021-05-22T08:17:42Z</time>
      </trkpt>
      <trkpt lat="45.45301" lon="5.15138">
        <ele>463</ele>
        <time>2021-05-22T08:17:47Z</time>
      </trkpt>
      <trkpt lat="45.45283" lon="5.15177">
        <ele>466</ele>
        <time>2021-05-22T08:17:53Z</time>
      </trkpt>
      <trkpt lat="45.45274" lon="5.1521">
        <ele>470</ele>
        <time>2021-05-22T08:17:57Z</time>
      </trkpt>
      <trkpt lat="45.45255" lon="5.15282">
        <ele>476</ele>
        <time>2021-05-22T08:18:07Z</time>
      </trkpt>
      <trkpt lat="45.45229" lon="5.15402">
        <ele>482</ele>
        <time>2021-05-22T08:18:22Z</time>
      </trkpt>
      <trkpt lat="45.45193" lon="5.1551">
        <ele>486</ele>
        <time>2021-05-22T08:18:37Z</time>
      </trkpt>
      <trkpt lat="45.45134" lon="5.15574">
        <ele>488</ele>
        <time>2021-05-22T08:18:50Z</time>
      </trkpt>
      <trkpt lat="45.45114" lon="5.15591">
        <ele>488</ele>
        <time>2021-05-22T08:18:55Z</time>
      </trkpt>
      <trkpt lat="45.45054" lon="5.15643">
        <ele>490</ele>
        <time>2021-05-22T08:19:07Z</time>
      </trkpt>
      <trkpt lat="45.4496" lon="5.15834">
        <ele>494</ele>
        <time>2021-05-22T08:19:36Z</time>
      </trkpt>
      <trkpt lat="45.44916" lon="5.15928">
        <ele>496</ele>
        <time>2021-05-22T08:19:50Z</time>
      </trkpt>
      <trkpt lat="45.44908" lon="5.16065">
        <ele>493</ele>
        <time>2021-05-22T08:20:07Z</time>
      </trkpt>
      <trkpt lat="45.449" lon="5.16097">
        <ele>493</ele>
        <time>2021-05-22T08:20:12Z</time>
      </trkpt>
      <trkpt lat="45.44877" lon="5.16147">
        <ele>496</ele>
        <time>2021-05-22T08:20:19Z</time>
      </trkpt>
      <trkpt lat="45.44845" lon="5.16208">
        <ele>500</ele>
        <time>2021-05-22T08:20:29Z</time>
      </trkpt>
      <trkpt lat="45.44822" lon="5.16269">
        <ele>501</ele>
        <time>2021-05-22T08:20:37Z</time>
      </trkpt>
      <trkpt lat="45.44788" lon="5.16335">
        <ele>503</ele>
        <time>2021-05-22T08:20:48Z</time>
      </trkpt>
      <trkpt lat="45.44758" lon="5.16368">
        <ele>505</ele>
        <time>2021-05-22T08:20:54Z</time>
      </trkpt>
      <trkpt lat="45.44738" lon="5.16408">
        <ele>505</ele>
        <time>2021-05-22T08:21:00Z</time>
      </trkpt>
      <trkpt lat="45.4473" lon="5.16485">
        <ele>503</ele>
        <time>2021-05-22T08:21:10Z</time>
      </trkpt>
      <trkpt lat="45.44717" lon="5.16556">
        <ele>499</ele>
        <time>2021-05-22T08:21:19Z</time>
      </trkpt>
      <trkpt lat="45.44714" lon="5.16679">
        <ele>496</ele>
        <time>2021-05-22T08:21:35Z</time>
      </trkpt>
      <trkpt lat="45.44709" lon="5.16734">
        <ele>498</ele>
        <time>2021-05-22T08:21:42Z</time>
      </trkpt>
      <trkpt lat="45.44705" lon="5.16786">
        <ele>496</ele>
        <time>2021-05-22T08:21:48Z</time>
      </trkpt>
      <trkpt lat="45.44683" lon="5.16913">
        <ele>501</ele>
        <time>2021-05-22T08:22:04Z</time>
      </trkpt>
      <trkpt lat="45.44682" lon="5.16956">
        <ele>503</ele>
        <time>2021-05-22T08:22:10Z</time>
      </trkpt>
      <trkpt lat="45.44682" lon="5.16959">
        <ele>503</ele>
        <time>2021-05-22T08:22:10Z</time>
      </trkpt>
      <trkpt lat="45.44682" lon="5.17023">
        <ele>503</ele>
        <time>2021-05-22T08:22:18Z</time>
      </trkpt>
      <trkpt lat="45.4467" lon="5.17091">
        <ele>501</ele>
        <time>2021-05-22T08:22:27Z</time>
      </trkpt>
      <trkpt lat="45.44665" lon="5.17131">
        <ele>501</ele>
        <time>2021-05-22T08:22:32Z</time>
      </trkpt>
      <trkpt lat="45.44671" lon="5.17221">
        <ele>496</ele>
        <time>2021-05-22T08:22:43Z</time>
      </trkpt>
      <trkpt lat="45.44677" lon="5.17294">
        <ele>494</ele>
        <time>2021-05-22T08:22:52Z</time>
      </trkpt>
      <trkpt lat="45.44682" lon="5.17326">
        <ele>494</ele>
        <time>2021-05-22T08:22:57Z</time>
      </trkpt>
      <trkpt lat="45.4469" lon="5.17346">
        <ele>494</ele>
        <time>2021-05-22T08:22:59Z</time>
      </trkpt>
      <trkpt lat="45.44699" lon="5.17368">
        <ele>494</ele>
        <time>2021-05-22T08:23:03Z</time>
      </trkpt>
      <trkpt lat="45.4471" lon="5.17394">
        <ele>493</ele>
        <time>2021-05-22T08:23:06Z</time>
      </trkpt>
      <trkpt lat="45.44716" lon="5.17416">
        <ele>493</ele>
        <time>2021-05-22T08:23:09Z</time>
      </trkpt>
      <trkpt lat="45.4472" lon="5.17446">
        <ele>494</ele>
        <time>2021-05-22T08:23:13Z</time>
      </trkpt>
      <trkpt lat="45.44719" lon="5.17478">
        <ele>494</ele>
        <time>2021-05-22T08:23:17Z</time>
      </trkpt>
      <trkpt lat="45.44715" lon="5.17509">
        <ele>496</ele>
        <time>2021-05-22T08:23:21Z</time>
      </trkpt>
      <trkpt lat="45.44707" lon="5.1754">
        <ele>497</ele>
        <time>2021-05-22T08:23:25Z</time>
      </trkpt>
      <trkpt lat="45.44697" lon="5.17565">
        <ele>498</ele>
        <time>2021-05-22T08:23:29Z</time>
      </trkpt>
      <trkpt lat="45.44684" lon="5.17588">
        <ele>501</ele>
        <time>2021-05-22T08:23:32Z</time>
      </trkpt>
      <trkpt lat="45.44669" lon="5.17604">
        <ele>503</ele>
        <time>2021-05-22T08:23:36Z</time>
      </trkpt>
      <trkpt lat="45.44646" lon="5.1761">
        <ele>505</ele>
        <time>2021-05-22T08:23:40Z</time>
      </trkpt>
      <trkpt lat="45.44598" lon="5.17606">
        <ele>508</ele>
        <time>2021-05-22T08:23:49Z</time>
      </trkpt>
      <trkpt lat="45.44582" lon="5.17611">
        <ele>509</ele>
        <time>2021-05-22T08:23:51Z</time>
      </trkpt>
      <trkpt lat="45.44545" lon="5.17644">
        <ele>511</ele>
        <time>2021-05-22T08:23:59Z</time>
      </trkpt>
      <trkpt lat="45.4451" lon="5.17689">
        <ele>512</ele>
        <time>2021-05-22T08:24:08Z</time>
      </trkpt>
      <trkpt lat="45.44497" lon="5.17699">
        <ele>513</ele>
        <time>2021-05-22T08:24:10Z</time>
      </trkpt>
      <trkpt lat="45.4448" lon="5.17702">
        <ele>514</ele>
        <time>2021-05-22T08:24:13Z</time>
      </trkpt>
      <trkpt lat="45.44453" lon="5.17691">
        <ele>516</ele>
        <time>2021-05-22T08:24:18Z</time>
      </trkpt>
      <trkpt lat="45.44435" lon="5.17692">
        <ele>518</ele>
        <time>2021-05-22T08:24:21Z</time>
      </trkpt>
      <trkpt lat="45.44419" lon="5.177">
        <ele>519</ele>
        <time>2021-05-22T08:24:24Z</time>
      </trkpt>
      <trkpt lat="45.4435" lon="5.17758">
        <ele>527</ele>
        <time>2021-05-22T08:24:39Z</time>
      </trkpt>
      <trkpt lat="45.44314" lon="5.17781">
        <ele>532</ele>
        <time>2021-05-22T08:24:46Z</time>
      </trkpt>
      <trkpt lat="45.44283" lon="5.17808">
        <ele>536</ele>
        <time>2021-05-22T08:24:52Z</time>
      </trkpt>
      <trkpt lat="45.44233" lon="5.17822">
        <ele>539</ele>
        <time>2021-05-22T08:25:01Z</time>
      </trkpt>
      <trkpt lat="45.44192" lon="5.17849">
        <ele>542</ele>
        <time>2021-05-22T08:25:09Z</time>
      </trkpt>
      <trkpt lat="45.44159" lon="5.17877">
        <ele>544</ele>
        <time>2021-05-22T08:25:16Z</time>
      </trkpt>
      <trkpt lat="45.44102" lon="5.17904">
        <ele>543</ele>
        <time>2021-05-22T08:25:27Z</time>
      </trkpt>
      <trkpt lat="45.44086" lon="5.17933">
        <ele>543</ele>
        <time>2021-05-22T08:25:31Z</time>
      </trkpt>
      <trkpt lat="45.44081" lon="5.17952">
        <ele>543</ele>
        <time>2021-05-22T08:25:34Z</time>
      </trkpt>
      <trkpt lat="45.44084" lon="5.18021">
        <ele>547</ele>
        <time>2021-05-22T08:25:43Z</time>
      </trkpt>
      <trkpt lat="45.4408" lon="5.18054">
        <ele>549</ele>
        <time>2021-05-22T08:25:47Z</time>
      </trkpt>
      <trkpt lat="45.4402" lon="5.18156">
        <ele>551</ele>
        <time>2021-05-22T08:26:03Z</time>
      </trkpt>
      <trkpt lat="45.4388" lon="5.18356">
        <ele>547</ele>
        <time>2021-05-22T08:26:39Z</time>
      </trkpt>
      <trkpt lat="45.43859" lon="5.18393">
        <ele>545</ele>
        <time>2021-05-22T08:26:45Z</time>
      </trkpt>
      <trkpt lat="45.43823" lon="5.18415">
        <ele>541</ele>
        <time>2021-05-22T08:26:52Z</time>
      </trkpt>
      <trkpt lat="45.43811" lon="5.18418">
        <ele>540</ele>
        <time>2021-05-22T08:26:54Z</time>
      </trkpt>
      <trkpt lat="45.43774" lon="5.18397">
        <ele>537</ele>
        <time>2021-05-22T08:27:01Z</time>
      </trkpt>
      <trkpt lat="45.43745" lon="5.18384">
        <ele>535</ele>
        <time>2021-05-22T08:27:06Z</time>
      </trkpt>
      <trkpt lat="45.43729" lon="5.18382">
        <ele>535</ele>
        <time>2021-05-22T08:27:09Z</time>
      </trkpt>
      <trkpt lat="45.43608" lon="5.18468">
        <ele>526</ele>
        <time>2021-05-22T08:27:33Z</time>
      </trkpt>
      <trkpt lat="45.43568" lon="5.18482">
        <ele>523</ele>
        <time>2021-05-22T08:27:41Z</time>
      </trkpt>
      <trkpt lat="45.43528" lon="5.1852">
        <ele>517</ele>
        <time>2021-05-22T08:27:49Z</time>
      </trkpt>
      <trkpt lat="45.43488" lon="5.18539">
        <ele>513</ele>
        <time>2021-05-22T08:27:57Z</time>
      </trkpt>
      <trkpt lat="45.43432" lon="5.18548">
        <ele>507</ele>
        <time>2021-05-22T08:28:07Z</time>
      </trkpt>
      <trkpt lat="45.43406" lon="5.18542">
        <ele>504</ele>
        <time>2021-05-22T08:28:11Z</time>
      </trkpt>
      <trkpt lat="45.43343" lon="5.18515">
        <ele>492</ele>
        <time>2021-05-22T08:28:23Z</time>
      </trkpt>
      <trkpt lat="45.43339" lon="5.18501">
        <ele>493</ele>
        <time>2021-05-22T08:28:25Z</time>
      </trkpt>
      <trkpt lat="45.43338" lon="5.1846">
        <ele>493</ele>
        <time>2021-05-22T08:28:30Z</time>
      </trkpt>
      <trkpt lat="45.43345" lon="5.18416">
        <ele>496</ele>
        <time>2021-05-22T08:28:36Z</time>
      </trkpt>
      <trkpt lat="45.43359" lon="5.18369">
        <ele>505</ele>
        <time>2021-05-22T08:28:42Z</time>
      </trkpt>
      <trkpt lat="45.4336" lon="5.18355">
        <ele>506</ele>
        <time>2021-05-22T08:28:44Z</time>
      </trkpt>
      <trkpt lat="45.43356" lon="5.18348">
        <ele>506</ele>
        <time>2021-05-22T08:28:45Z</time>
      </trkpt>
      <trkpt lat="45.43338" lon="5.18356">
        <ele>502</ele>
        <time>2021-05-22T08:28:48Z</time>
      </trkpt>
      <trkpt lat="45.43323" lon="5.18365">
        <ele>499</ele>
        <time>2021-05-22T08:28:51Z</time>
      </trkpt>
      <trkpt lat="45.43223" lon="5.18481">
        <ele>479</ele>
        <time>2021-05-22T08:29:14Z</time>
      </trkpt>
      <trkpt lat="45.43207" lon="5.18489">
        <ele>479</ele>
        <time>2021-05-22T08:29:17Z</time>
      </trkpt>
      <trkpt lat="45.43191" lon="5.18491">
        <ele>479</ele>
        <time>2021-05-22T08:29:20Z</time>
      </trkpt>
      <trkpt lat="45.43168" lon="5.18504">
        <ele>477</ele>
        <time>2021-05-22T08:29:24Z</time>
      </trkpt>
      <trkpt lat="45.43106" lon="5.18523">
        <ele>472</ele>
        <time>2021-05-22T08:29:36Z</time>
      </trkpt>
      <trkpt lat="45.43048" lon="5.18519">
        <ele>468</ele>
        <time>2021-05-22T08:29:46Z</time>
      </trkpt>
      <trkpt lat="45.43014" lon="5.18499">
        <ele>467</ele>
        <time>2021-05-22T08:29:53Z</time>
      </trkpt>
      <trkpt lat="45.43" lon="5.18486">
        <ele>468</ele>
        <time>2021-05-22T08:29:55Z</time>
      </trkpt>
      <trkpt lat="45.42917" lon="5.18423">
        <ele>456</ele>
        <time>2021-05-22T08:30:12Z</time>
      </trkpt>
      <trkpt lat="45.42848" lon="5.1838">
        <ele>446</ele>
        <time>2021-05-22T08:30:26Z</time>
      </trkpt>
      <trkpt lat="45.42788" lon="5.18287">
        <ele>439</ele>
        <time>2021-05-22T08:30:41Z</time>
      </trkpt>
      <trkpt lat="45.42737" lon="5.18219">
        <ele>429</ele>
        <time>2021-05-22T08:30:54Z</time>
      </trkpt>
      <trkpt lat="45.42695" lon="5.18187">
        <ele>426</ele>
        <time>2021-05-22T08:31:02Z</time>
      </trkpt>
      <trkpt lat="45.42676" lon="5.18166">
        <ele>424</ele>
        <time>2021-05-22T08:31:07Z</time>
      </trkpt>
      <trkpt lat="45.42662" lon="5.18139">
        <ele>424</ele>
        <time>2021-05-22T08:31:11Z</time>
      </trkpt>
      <trkpt lat="45.42644" lon="5.18091">
        <ele>423</ele>
        <time>2021-05-22T08:31:18Z</time>
      </trkpt>
      <trkpt lat="45.42638" lon="5.18089">
        <ele>423</ele>
        <time>2021-05-22T08:31:19Z</time>
      </trkpt>
      <trkpt lat="45.42632" lon="5.18092">
        <ele>422</ele>
        <time>2021-05-22T08:31:20Z</time>
      </trkpt>
      <trkpt lat="45.42671" lon="5.18225">
        <ele>419</ele>
        <time>2021-05-22T08:31:38Z</time>
      </trkpt>
      <trkpt lat="45.42709" lon="5.18343">
        <ele>418</ele>
        <time>2021-05-22T08:31:54Z</time>
      </trkpt>
      <trkpt lat="45.42763" lon="5.18484">
        <ele>420</ele>
        <time>2021-05-22T08:32:14Z</time>
      </trkpt>
      <trkpt lat="45.42793" lon="5.18627">
        <ele>421</ele>
        <time>2021-05-22T08:32:33Z</time>
      </trkpt>
      <trkpt lat="45.42797" lon="5.18644">
        <ele>422</ele>
        <time>2021-05-22T08:32:35Z</time>
      </trkpt>
      <trkpt lat="45.42817" lon="5.18737">
        <ele>423</ele>
        <time>2021-05-22T08:32:47Z</time>
      </trkpt>
      <trkpt lat="45.42819" lon="5.18748">
        <ele>423</ele>
        <time>2021-05-22T08:32:48Z</time>
      </trkpt>
      <trkpt lat="45.42858" lon="5.18878">
        <ele>424</ele>
        <time>2021-05-22T08:33:06Z</time>
      </trkpt>
      <trkpt lat="45.42901" lon="5.18993">
        <ele>423</ele>
        <time>2021-05-22T08:33:22Z</time>
      </trkpt>
      <trkpt lat="45.42959" lon="5.19084">
        <ele>423</ele>
        <time>2021-05-22T08:33:38Z</time>
      </trkpt>
      <trkpt lat="45.42966" lon="5.19101">
        <ele>423</ele>
        <time>2021-05-22T08:33:40Z</time>
      </trkpt>
      <trkpt lat="45.42978" lon="5.19138">
        <ele>424</ele>
        <time>2021-05-22T08:33:45Z</time>
      </trkpt>
      <trkpt lat="45.4301" lon="5.1923">
        <ele>427</ele>
        <time>2021-05-22T08:33:58Z</time>
      </trkpt>
      <trkpt lat="45.43031" lon="5.19291">
        <ele>428</ele>
        <time>2021-05-22T08:34:07Z</time>
      </trkpt>
      <trkpt lat="45.43039" lon="5.19314">
        <ele>429</ele>
        <time>2021-05-22T08:34:10Z</time>
      </trkpt>
      <trkpt lat="45.4308" lon="5.19435">
        <ele>433</ele>
        <time>2021-05-22T08:34:27Z</time>
      </trkpt>
      <trkpt lat="45.43083" lon="5.19444">
        <ele>433</ele>
        <time>2021-05-22T08:34:28Z</time>
      </trkpt>
      <trkpt lat="45.4309" lon="5.19463">
        <ele>434</ele>
        <time>2021-05-22T08:34:31Z</time>
      </trkpt>
      <trkpt lat="45.43104" lon="5.19505">
        <ele>435</ele>
        <time>2021-05-22T08:34:36Z</time>
      </trkpt>
      <trkpt lat="45.43129" lon="5.19579">
        <ele>433</ele>
        <time>2021-05-22T08:34:47Z</time>
      </trkpt>
      <trkpt lat="45.43133" lon="5.1959">
        <ele>433</ele>
        <time>2021-05-22T08:34:48Z</time>
      </trkpt>
      <trkpt lat="45.43148" lon="5.1961">
        <ele>434</ele>
        <time>2021-05-22T08:34:52Z</time>
      </trkpt>
      <trkpt lat="45.43151" lon="5.19614">
        <ele>434</ele>
        <time>2021-05-22T08:34:53Z</time>
      </trkpt>
      <trkpt lat="45.43164" lon="5.19634">
        <ele>435</ele>
        <time>2021-05-22T08:34:56Z</time>
      </trkpt>
      <trkpt lat="45.43169" lon="5.1966">
        <ele>435</ele>
        <time>2021-05-22T08:34:59Z</time>
      </trkpt>
      <trkpt lat="45.43171" lon="5.19679">
        <ele>436</ele>
        <time>2021-05-22T08:35:02Z</time>
      </trkpt>
      <trkpt lat="45.43178" lon="5.19723">
        <ele>436</ele>
        <time>2021-05-22T08:35:07Z</time>
      </trkpt>
      <trkpt lat="45.43186" lon="5.19746">
        <ele>437</ele>
        <time>2021-05-22T08:35:11Z</time>
      </trkpt>
      <trkpt lat="45.43193" lon="5.19764">
        <ele>438</ele>
        <time>2021-05-22T08:35:13Z</time>
      </trkpt>
      <trkpt lat="45.43199" lon="5.1978">
        <ele>439</ele>
        <time>2021-05-22T08:35:15Z</time>
      </trkpt>
      <trkpt lat="45.43208" lon="5.1983">
        <ele>440</ele>
        <time>2021-05-22T08:35:22Z</time>
      </trkpt>
      <trkpt lat="45.43209" lon="5.19849">
        <ele>441</ele>
        <time>2021-05-22T08:35:24Z</time>
      </trkpt>
      <trkpt lat="45.43208" lon="5.19886">
        <ele>443</ele>
        <time>2021-05-22T08:35:29Z</time>
      </trkpt>
      <trkpt lat="45.43204" lon="5.19907">
        <ele>444</ele>
        <time>2021-05-22T08:35:32Z</time>
      </trkpt>
      <trkpt lat="45.43198" lon="5.19928">
        <ele>445</ele>
        <time>2021-05-22T08:35:34Z</time>
      </trkpt>
      <trkpt lat="45.43189" lon="5.19964">
        <ele>447</ele>
        <time>2021-05-22T08:35:39Z</time>
      </trkpt>
      <trkpt lat="45.43187" lon="5.19972">
        <ele>447</ele>
        <time>2021-05-22T08:35:40Z</time>
      </trkpt>
      <trkpt lat="45.43169" lon="5.20037">
        <ele>449</ele>
        <time>2021-05-22T08:35:49Z</time>
      </trkpt>
      <trkpt lat="45.43151" lon="5.20118">
        <ele>448</ele>
        <time>2021-05-22T08:36:00Z</time>
      </trkpt>
      <trkpt lat="45.43139" lon="5.202">
        <ele>450</ele>
        <time>2021-05-22T08:36:10Z</time>
      </trkpt>
      <trkpt lat="45.43133" lon="5.20255">
        <ele>451</ele>
        <time>2021-05-22T08:36:17Z</time>
      </trkpt>
      <trkpt lat="45.43134" lon="5.2029">
        <ele>451</ele>
        <time>2021-05-22T08:36:21Z</time>
      </trkpt>
      <trkpt lat="45.43135" lon="5.20303">
        <ele>451</ele>
        <time>2021-05-22T08:36:23Z</time>
      </trkpt>
      <trkpt lat="45.43136" lon="5.20323">
        <ele>450</ele>
        <time>2021-05-22T08:36:25Z</time>
      </trkpt>
      <trkpt lat="45.43138" lon="5.20354">
        <ele>450</ele>
        <time>2021-05-22T08:36:29Z</time>
      </trkpt>
      <trkpt lat="45.4314" lon="5.20365">
        <ele>450</ele>
        <time>2021-05-22T08:36:31Z</time>
      </trkpt>
      <trkpt lat="45.43146" lon="5.2037">
        <ele>451</ele>
        <time>2021-05-22T08:36:32Z</time>
      </trkpt>
      <trkpt lat="45.4315" lon="5.20371">
        <ele>452</ele>
        <time>2021-05-22T08:36:33Z</time>
      </trkpt>
      <trkpt lat="45.43149" lon="5.20409">
        <ele>451</ele>
        <time>2021-05-22T08:36:37Z</time>
      </trkpt>
      <trkpt lat="45.43152" lon="5.20478">
        <ele>451</ele>
        <time>2021-05-22T08:36:46Z</time>
      </trkpt>
      <trkpt lat="45.43159" lon="5.20751">
        <ele>446</ele>
        <time>2021-05-22T08:37:20Z</time>
      </trkpt>
      <trkpt lat="45.43162" lon="5.20923">
        <ele>440</ele>
        <time>2021-05-22T08:37:42Z</time>
      </trkpt>
      <trkpt lat="45.43157" lon="5.20968">
        <ele>439</ele>
        <time>2021-05-22T08:37:47Z</time>
      </trkpt>
      <trkpt lat="45.43156" lon="5.20991">
        <ele>439</ele>
        <time>2021-05-22T08:37:50Z</time>
      </trkpt>
      <trkpt lat="45.43154" lon="5.21001">
        <ele>438</ele>
        <time>2021-05-22T08:37:52Z</time>
      </trkpt>
      <trkpt lat="45.43148" lon="5.21011">
        <ele>438</ele>
        <time>2021-05-22T08:37:53Z</time>
      </trkpt>
      <trkpt lat="45.43141" lon="5.21015">
        <ele>437</ele>
        <time>2021-05-22T08:37:55Z</time>
      </trkpt>
      <trkpt lat="45.43135" lon="5.21023">
        <ele>436</ele>
        <time>2021-05-22T08:37:56Z</time>
      </trkpt>
      <trkpt lat="45.43133" lon="5.21034">
        <ele>436</ele>
        <time>2021-05-22T08:37:57Z</time>
      </trkpt>
      <trkpt lat="45.43134" lon="5.21045">
        <ele>436</ele>
        <time>2021-05-22T08:37:59Z</time>
      </trkpt>
      <trkpt lat="45.43138" lon="5.21053">
        <ele>437</ele>
        <time>2021-05-22T08:38:00Z</time>
      </trkpt>
      <trkpt lat="45.43144" lon="5.21058">
        <ele>438</ele>
        <time>2021-05-22T08:38:01Z</time>
      </trkpt>
      <trkpt lat="45.43151" lon="5.21059">
        <ele>439</ele>
        <time>2021-05-22T08:38:03Z</time>
      </trkpt>
      <trkpt lat="45.43157" lon="5.21057">
        <ele>440</ele>
        <time>2021-05-22T08:38:04Z</time>
      </trkpt>
      <trkpt lat="45.43165" lon="5.21068">
        <ele>441</ele>
        <time>2021-05-22T08:38:06Z</time>
      </trkpt>
      <trkpt lat="45.43174" lon="5.21088">
        <ele>442</ele>
        <time>2021-05-22T08:38:09Z</time>
      </trkpt>
      <trkpt lat="45.43174" lon="5.21113">
        <ele>442</ele>
        <time>2021-05-22T08:38:12Z</time>
      </trkpt>
      <trkpt lat="45.43172" lon="5.21145">
        <ele>442</ele>
        <time>2021-05-22T08:38:16Z</time>
      </trkpt>
      <trkpt lat="45.43164" lon="5.21233">
        <ele>442</ele>
        <time>2021-05-22T08:38:27Z</time>
      </trkpt>
      <trkpt lat="45.43153" lon="5.21324">
        <ele>443</ele>
        <time>2021-05-22T08:38:38Z</time>
      </trkpt>
      <trkpt lat="45.43132" lon="5.2145">
        <ele>441</ele>
        <time>2021-05-22T08:38:54Z</time>
      </trkpt>
      <trkpt lat="45.43123" lon="5.21479">
        <ele>440</ele>
        <time>2021-05-22T08:38:58Z</time>
      </trkpt>
      <trkpt lat="45.4306" lon="5.21657">
        <ele>436</ele>
        <time>2021-05-22T08:39:23Z</time>
      </trkpt>
      <trkpt lat="45.42879" lon="5.22198">
        <ele>442</ele>
        <time>2021-05-22T08:40:38Z</time>
      </trkpt>
      <trkpt lat="45.42864" lon="5.22267">
        <ele>443</ele>
        <time>2021-05-22T08:40:47Z</time>
      </trkpt>
      <trkpt lat="45.42968" lon="5.22354">
        <ele>446</ele>
        <time>2021-05-22T08:41:09Z</time>
      </trkpt>
      <trkpt lat="45.43024" lon="5.22383">
        <ele>447</ele>
        <time>2021-05-22T08:41:19Z</time>
      </trkpt>
      <trkpt lat="45.43084" lon="5.2242">
        <ele>450</ele>
        <time>2021-05-22T08:41:31Z</time>
      </trkpt>
      <trkpt lat="45.43115" lon="5.22444">
        <ele>451</ele>
        <time>2021-05-22T08:41:37Z</time>
      </trkpt>
      <trkpt lat="45.43126" lon="5.22457">
        <ele>451</ele>
        <time>2021-05-22T08:41:40Z</time>
      </trkpt>
      <trkpt lat="45.432" lon="5.22465">
        <ele>453</ele>
        <time>2021-05-22T08:41:53Z</time>
      </trkpt>
      <trkpt lat="45.43318" lon="5.22475">
        <ele>455</ele>
        <time>2021-05-22T08:42:14Z</time>
      </trkpt>
      <trkpt lat="45.43452" lon="5.22508">
        <ele>459</ele>
        <time>2021-05-22T08:42:38Z</time>
      </trkpt>
      <trkpt lat="45.43481" lon="5.22507">
        <ele>459</ele>
        <time>2021-05-22T08:42:43Z</time>
      </trkpt>
      <trkpt lat="45.43584" lon="5.22476">
        <ele>462</ele>
        <time>2021-05-22T08:43:02Z</time>
      </trkpt>
      <trkpt lat="45.43611" lon="5.22482">
        <ele>463</ele>
        <time>2021-05-22T08:43:07Z</time>
      </trkpt>
      <trkpt lat="45.43651" lon="5.22499">
        <ele>465</ele>
        <time>2021-05-22T08:43:14Z</time>
      </trkpt>
      <trkpt lat="45.43819" lon="5.2251">
        <ele>472</ele>
        <time>2021-05-22T08:43:44Z</time>
      </trkpt>
      <trkpt lat="45.43865" lon="5.22517">
        <ele>476</ele>
        <time>2021-05-22T08:43:52Z</time>
      </trkpt>
      <trkpt lat="45.4389" lon="5.22535">
        <ele>479</ele>
        <time>2021-05-22T08:43:57Z</time>
      </trkpt>
      <trkpt lat="45.43919" lon="5.22566">
        <ele>485</ele>
        <time>2021-05-22T08:44:04Z</time>
      </trkpt>
      <trkpt lat="45.43948" lon="5.22592">
        <ele>487</ele>
        <time>2021-05-22T08:44:10Z</time>
      </trkpt>
      <trkpt lat="45.43991" lon="5.22623">
        <ele>493</ele>
        <time>2021-05-22T08:44:19Z</time>
      </trkpt>
      <trkpt lat="45.44018" lon="5.22632">
        <ele>496</ele>
        <time>2021-05-22T08:44:24Z</time>
      </trkpt>
      <trkpt lat="45.44108" lon="5.2265">
        <ele>499</ele>
        <time>2021-05-22T08:44:40Z</time>
      </trkpt>
      <trkpt lat="45.44167" lon="5.22667">
        <ele>502</ele>
        <time>2021-05-22T08:44:50Z</time>
      </trkpt>
      <trkpt lat="45.44194" lon="5.22669">
        <ele>505</ele>
        <time>2021-05-22T08:44:55Z</time>
      </trkpt>
      <trkpt lat="45.44222" lon="5.2267">
        <ele>507</ele>
        <time>2021-05-22T08:45:00Z</time>
      </trkpt>
      <trkpt lat="45.44272" lon="5.22663">
        <ele>513</ele>
        <time>2021-05-22T08:45:09Z</time>
      </trkpt>
      <trkpt lat="45.44427" lon="5.22588">
        <ele>528</ele>
        <time>2021-05-22T08:45:38Z</time>
      </trkpt>
      <trkpt lat="45.44627" lon="5.22618">
        <ele>548</ele>
        <time>2021-05-22T08:46:14Z</time>
      </trkpt>
      <trkpt lat="45.447" lon="5.22659">
        <ele>555</ele>
        <time>2021-05-22T08:46:28Z</time>
      </trkpt>
      <trkpt lat="45.44721" lon="5.22654">
        <ele>556</ele>
        <time>2021-05-22T08:46:32Z</time>
      </trkpt>
      <trkpt lat="45.44744" lon="5.22629">
        <ele>558</ele>
        <time>2021-05-22T08:46:37Z</time>
      </trkpt>
      <trkpt lat="45.44829" lon="5.2258">
        <ele>564</ele>
        <time>2021-05-22T08:46:53Z</time>
      </trkpt>
      <trkpt lat="45.44949" lon="5.22531">
        <ele>568</ele>
        <time>2021-05-22T08:47:15Z</time>
      </trkpt>
      <trkpt lat="45.44967" lon="5.22533">
        <ele>569</ele>
        <time>2021-05-22T08:47:19Z</time>
      </trkpt>
      <trkpt lat="45.45171" lon="5.22576">
        <ele>576</ele>
        <time>2021-05-22T08:47:55Z</time>
      </trkpt>
      <trkpt lat="45.45304" lon="5.22589">
        <ele>571</ele>
        <time>2021-05-22T08:48:19Z</time>
      </trkpt>
      <trkpt lat="45.45391" lon="5.2269">
        <ele>572</ele>
        <time>2021-05-22T08:48:39Z</time>
      </trkpt>
      <trkpt lat="45.45473" lon="5.22804">
        <ele>572</ele>
        <time>2021-05-22T08:48:59Z</time>
      </trkpt>
      <trkpt lat="45.45566" lon="5.22942">
        <ele>570</ele>
        <time>2021-05-22T08:49:23Z</time>
      </trkpt>
      <trkpt lat="45.45596" lon="5.22984">
        <ele>570</ele>
        <time>2021-05-22T08:49:31Z</time>
      </trkpt>
      <trkpt lat="45.45615" lon="5.23003">
        <ele>570</ele>
        <time>2021-05-22T08:49:35Z</time>
      </trkpt>
      <trkpt lat="45.45727" lon="5.23041">
        <ele>573</ele>
        <time>2021-05-22T08:49:55Z</time>
      </trkpt>
      <trkpt lat="45.45768" lon="5.23062">
        <ele>574</ele>
        <time>2021-05-22T08:50:03Z</time>
      </trkpt>
      <trkpt lat="45.45876" lon="5.23135">
        <ele>574</ele>
        <time>2021-05-22T08:50:24Z</time>
      </trkpt>
      <trkpt lat="45.45894" lon="5.23141">
        <ele>573</ele>
        <time>2021-05-22T08:50:28Z</time>
      </trkpt>
      <trkpt lat="45.45909" lon="5.23142">
        <ele>572</ele>
        <time>2021-05-22T08:50:30Z</time>
      </trkpt>
      <trkpt lat="45.45933" lon="5.23133">
        <ele>571</ele>
        <time>2021-05-22T08:50:35Z</time>
      </trkpt>
      <trkpt lat="45.46062" lon="5.23039">
        <ele>564</ele>
        <time>2021-05-22T08:51:01Z</time>
      </trkpt>
      <trkpt lat="45.46084" lon="5.23027">
        <ele>563</ele>
        <time>2021-05-22T08:51:05Z</time>
      </trkpt>
      <trkpt lat="45.46096" lon="5.23026">
        <ele>563</ele>
        <time>2021-05-22T08:51:07Z</time>
      </trkpt>
      <trkpt lat="45.46114" lon="5.23029">
        <ele>562</ele>
        <time>2021-05-22T08:51:10Z</time>
      </trkpt>
      <trkpt lat="45.4614" lon="5.23041">
        <ele>562</ele>
        <time>2021-05-22T08:51:15Z</time>
      </trkpt>
      <trkpt lat="45.46166" lon="5.23045">
        <ele>561</ele>
        <time>2021-05-22T08:51:20Z</time>
      </trkpt>
      <trkpt lat="45.46209" lon="5.23026">
        <ele>561</ele>
        <time>2021-05-22T08:51:28Z</time>
      </trkpt>
      <trkpt lat="45.46231" lon="5.23013">
        <ele>560</ele>
        <time>2021-05-22T08:51:32Z</time>
      </trkpt>
      <trkpt lat="45.46276" lon="5.22997">
        <ele>556</ele>
        <time>2021-05-22T08:51:40Z</time>
      </trkpt>
      <trkpt lat="45.46298" lon="5.22999">
        <ele>553</ele>
        <time>2021-05-22T08:51:44Z</time>
      </trkpt>
      <trkpt lat="45.46346" lon="5.23009">
        <ele>546</ele>
        <time>2021-05-22T08:51:53Z</time>
      </trkpt>
      <trkpt lat="45.46386" lon="5.2301">
        <ele>543</ele>
        <time>2021-05-22T08:52:00Z</time>
      </trkpt>
      <trkpt lat="45.46402" lon="5.23009">
        <ele>542</ele>
        <time>2021-05-22T08:52:03Z</time>
      </trkpt>
      <trkpt lat="45.46412" lon="5.23001">
        <ele>540</ele>
        <time>2021-05-22T08:52:05Z</time>
      </trkpt>
      <trkpt lat="45.46423" lon="5.22986">
        <ele>541</ele>
        <time>2021-05-22T08:52:07Z</time>
      </trkpt>
      <trkpt lat="45.46436" lon="5.22958">
        <ele>542</ele>
        <time>2021-05-22T08:52:12Z</time>
      </trkpt>
      <trkpt lat="45.46443" lon="5.22931">
        <ele>541</ele>
        <time>2021-05-22T08:52:15Z</time>
      </trkpt>
      <trkpt lat="45.46447" lon="5.22905">
        <ele>541</ele>
        <time>2021-05-22T08:52:19Z</time>
      </trkpt>
      <trkpt lat="45.46454" lon="5.22882">
        <ele>541</ele>
        <time>2021-05-22T08:52:22Z</time>
      </trkpt>
      <trkpt lat="45.46463" lon="5.22867">
        <ele>540</ele>
        <time>2021-05-22T08:52:24Z</time>
      </trkpt>
      <trkpt lat="45.46473" lon="5.22856">
        <ele>540</ele>
        <time>2021-05-22T08:52:26Z</time>
      </trkpt>
      <trkpt lat="45.46492" lon="5.22842">
        <ele>538</ele>
        <time>2021-05-22T08:52:30Z</time>
      </trkpt>
      <trkpt lat="45.46541" lon="5.22813">
        <ele>539</ele>
        <time>2021-05-22T08:52:40Z</time>
      </trkpt>
      <trkpt lat="45.46569" lon="5.22781">
        <ele>538</ele>
        <time>2021-05-22T08:52:46Z</time>
      </trkpt>
      <trkpt lat="45.46609" lon="5.22728">
        <ele>537</ele>
        <time>2021-05-22T08:52:56Z</time>
      </trkpt>
      <trkpt lat="45.4667" lon="5.22627">
        <ele>531</ele>
        <time>2021-05-22T08:53:12Z</time>
      </trkpt>
      <trkpt lat="45.4669" lon="5.2261">
        <ele>529</ele>
        <time>2021-05-22T08:53:16Z</time>
      </trkpt>
      <trkpt lat="45.46706" lon="5.22604">
        <ele>528</ele>
        <time>2021-05-22T08:53:19Z</time>
      </trkpt>
      <trkpt lat="45.46726" lon="5.22606">
        <ele>528</ele>
        <time>2021-05-22T08:53:23Z</time>
      </trkpt>
      <trkpt lat="45.46741" lon="5.22613">
        <ele>527</ele>
        <time>2021-05-22T08:53:26Z</time>
      </trkpt>
      <trkpt lat="45.46758" lon="5.22627">
        <ele>528</ele>
        <time>2021-05-22T08:53:29Z</time>
      </trkpt>
      <trkpt lat="45.46777" lon="5.2266">
        <ele>531</ele>
        <time>2021-05-22T08:53:35Z</time>
      </trkpt>
      <trkpt lat="45.46788" lon="5.22666">
        <ele>532</ele>
        <time>2021-05-22T08:53:37Z</time>
      </trkpt>
      <trkpt lat="45.46798" lon="5.22669">
        <ele>532</ele>
        <time>2021-05-22T08:53:39Z</time>
      </trkpt>
      <trkpt lat="45.46807" lon="5.22664">
        <ele>532</ele>
        <time>2021-05-22T08:53:40Z</time>
      </trkpt>
      <trkpt lat="45.469" lon="5.22577">
        <ele>529</ele>
        <time>2021-05-22T08:54:00Z</time>
      </trkpt>
      <trkpt lat="45.46953" lon="5.2254">
        <ele>526</ele>
        <time>2021-05-22T08:54:11Z</time>
      </trkpt>
      <trkpt lat="45.46968" lon="5.22539">
        <ele>526</ele>
        <time>2021-05-22T08:54:13Z</time>
      </trkpt>
      <trkpt lat="45.46985" lon="5.22544">
        <ele>526</ele>
        <time>2021-05-22T08:54:16Z</time>
      </trkpt>
      <trkpt lat="45.47105" lon="5.22588">
        <ele>521</ele>
        <time>2021-05-22T08:54:38Z</time>
      </trkpt>
      <trkpt lat="45.47149" lon="5.22601">
        <ele>518</ele>
        <time>2021-05-22T08:54:46Z</time>
      </trkpt>
      <trkpt lat="45.47166" lon="5.226">
        <ele>516</ele>
        <time>2021-05-22T08:54:49Z</time>
      </trkpt>
      <trkpt lat="45.47182" lon="5.22593">
        <ele>516</ele>
        <time>2021-05-22T08:54:52Z</time>
      </trkpt>
      <trkpt lat="45.47227" lon="5.2256">
        <ele>515</ele>
        <time>2021-05-22T08:55:01Z</time>
      </trkpt>
      <trkpt lat="45.47338" lon="5.22516">
        <ele>513</ele>
        <time>2021-05-22T08:55:22Z</time>
      </trkpt>
      <trkpt lat="45.4738" lon="5.22482">
        <ele>513</ele>
        <time>2021-05-22T08:55:30Z</time>
      </trkpt>
      <trkpt lat="45.47416" lon="5.22448">
        <ele>511</ele>
        <time>2021-05-22T08:55:38Z</time>
      </trkpt>
      <trkpt lat="45.47453" lon="5.22422">
        <ele>509</ele>
        <time>2021-05-22T08:55:45Z</time>
      </trkpt>
      <trkpt lat="45.475" lon="5.22393">
        <ele>507</ele>
        <time>2021-05-22T08:55:55Z</time>
      </trkpt>
      <trkpt lat="45.47523" lon="5.22372">
        <ele>510</ele>
        <time>2021-05-22T08:55:59Z</time>
      </trkpt>
      <trkpt lat="45.4754" lon="5.22349">
        <ele>510</ele>
        <time>2021-05-22T08:56:04Z</time>
      </trkpt>
      <trkpt lat="45.47568" lon="5.22291">
        <ele>509</ele>
        <time>2021-05-22T08:56:12Z</time>
      </trkpt>
      <trkpt lat="45.476" lon="5.2221">
        <ele>502</ele>
        <time>2021-05-22T08:56:24Z</time>
      </trkpt>
      <trkpt lat="45.47617" lon="5.22188">
        <ele>500</ele>
        <time>2021-05-22T08:56:28Z</time>
      </trkpt>
      <trkpt lat="45.47647" lon="5.22174">
        <ele>499</ele>
        <time>2021-05-22T08:56:34Z</time>
      </trkpt>
      <trkpt lat="45.47682" lon="5.22167">
        <ele>498</ele>
        <time>2021-05-22T08:56:40Z</time>
      </trkpt>
      <trkpt lat="45.47723" lon="5.22169">
        <ele>498</ele>
        <time>2021-05-22T08:56:47Z</time>
      </trkpt>
      <trkpt lat="45.47788" lon="5.22157">
        <ele>497</ele>
        <time>2021-05-22T08:56:59Z</time>
      </trkpt>
      <trkpt lat="45.47809" lon="5.22147">
        <ele>495</ele>
        <time>2021-05-22T08:57:03Z</time>
      </trkpt>
      <trkpt lat="45.47827" lon="5.22134">
        <ele>493</ele>
        <time>2021-05-22T08:57:06Z</time>
      </trkpt>
      <trkpt lat="45.47847" lon="5.22113">
        <ele>490</ele>
        <time>2021-05-22T08:57:11Z</time>
      </trkpt>
      <trkpt lat="45.47873" lon="5.22092">
        <ele>487</ele>
        <time>2021-05-22T08:57:16Z</time>
      </trkpt>
      <trkpt lat="45.47908" lon="5.22079">
        <ele>487</ele>
        <time>2021-05-22T08:57:23Z</time>
      </trkpt>
      <trkpt lat="45.48018" lon="5.22052">
        <ele>483</ele>
        <time>2021-05-22T08:57:42Z</time>
      </trkpt>
      <trkpt lat="45.48142" lon="5.21995">
        <ele>484</ele>
        <time>2021-05-22T08:58:06Z</time>
      </trkpt>
      <trkpt lat="45.48183" lon="5.2198">
        <ele>485</ele>
        <time>2021-05-22T08:58:13Z</time>
      </trkpt>
      <trkpt lat="45.48197" lon="5.21897">
        <ele>483</ele>
        <time>2021-05-22T08:58:24Z</time>
      </trkpt>
      <trkpt lat="45.48211" lon="5.21836">
        <ele>482</ele>
        <time>2021-05-22T08:58:32Z</time>
      </trkpt>
      <trkpt lat="45.48219" lon="5.21818">
        <ele>481</ele>
        <time>2021-05-22T08:58:35Z</time>
      </trkpt>
      <trkpt lat="45.48255" lon="5.21754">
        <ele>480</ele>
        <time>2021-05-22T08:58:45Z</time>
      </trkpt>
      <trkpt lat="45.48262" lon="5.21738">
        <ele>480</ele>
        <time>2021-05-22T08:58:47Z</time>
      </trkpt>
      <trkpt lat="45.48263" lon="5.21717">
        <ele>479</ele>
        <time>2021-05-22T08:58:50Z</time>
      </trkpt>
      <trkpt lat="45.48271" lon="5.21719">
        <ele>479</ele>
        <time>2021-05-22T08:58:51Z</time>
      </trkpt>
      <trkpt lat="45.48281" lon="5.21714">
        <ele>479</ele>
        <time>2021-05-22T08:58:53Z</time>
      </trkpt>
      <trkpt lat="45.48298" lon="5.21686">
        <ele>479</ele>
        <time>2021-05-22T08:58:58Z</time>
      </trkpt>
      <trkpt lat="45.48334" lon="5.2164">
        <ele>482</ele>
        <time>2021-05-22T08:59:06Z</time>
      </trkpt>
      <trkpt lat="45.48378" lon="5.21603">
        <ele>483</ele>
        <time>2021-05-22T08:59:15Z</time>
      </trkpt>
      <trkpt lat="45.48426" lon="5.21559">
        <ele>484</ele>
        <time>2021-05-22T08:59:26Z</time>
      </trkpt>
      <trkpt lat="45.48492" lon="5.21484">
        <ele>483</ele>
        <time>2021-05-22T08:59:41Z</time>
      </trkpt>
      <trkpt lat="45.48512" lon="5.21446">
        <ele>481</ele>
        <time>2021-05-22T08:59:46Z</time>
      </trkpt>
      <trkpt lat="45.48537" lon="5.21391">
        <ele>477</ele>
        <time>2021-05-22T08:59:55Z</time>
      </trkpt>
      <trkpt lat="45.48545" lon="5.21321">
        <ele>478</ele>
        <time>2021-05-22T09:00:03Z</time>
      </trkpt>
      <trkpt lat="45.48553" lon="5.21275">
        <ele>476</ele>
        <time>2021-05-22T09:00:09Z</time>
      </trkpt>
      <trkpt lat="45.48635" lon="5.21067">
        <ele>466</ele>
        <time>2021-05-22T09:00:39Z</time>
      </trkpt>
      <trkpt lat="45.48655" lon="5.21021">
        <ele>464</ele>
        <time>2021-05-22T09:00:46Z</time>
      </trkpt>
      <trkpt lat="45.48665" lon="5.21024">
        <ele>464</ele>
        <time>2021-05-22T09:00:48Z</time>
      </trkpt>
      <trkpt lat="45.48665" lon="5.21041">
        <ele>464</ele>
        <time>2021-05-22T09:00:50Z</time>
      </trkpt>
      <trkpt lat="45.48658" lon="5.21209">
        <ele>465</ele>
        <time>2021-05-22T09:01:11Z</time>
      </trkpt>
      <trkpt lat="45.48665" lon="5.21263">
        <ele>465</ele>
        <time>2021-05-22T09:01:18Z</time>
      </trkpt>
      <trkpt lat="45.48674" lon="5.21292">
        <ele>465</ele>
        <time>2021-05-22T09:01:22Z</time>
      </trkpt>
      <trkpt lat="45.48707" lon="5.21349">
        <ele>467</ele>
        <time>2021-05-22T09:01:31Z</time>
      </trkpt>
      <trkpt lat="45.48723" lon="5.2138">
        <ele>467</ele>
        <time>2021-05-22T09:01:36Z</time>
      </trkpt>
      <trkpt lat="45.48758" lon="5.21473">
        <ele>465</ele>
        <time>2021-05-22T09:01:49Z</time>
      </trkpt>
      <trkpt lat="45.48776" lon="5.21513">
        <ele>464</ele>
        <time>2021-05-22T09:01:55Z</time>
      </trkpt>
      <trkpt lat="45.48802" lon="5.21555">
        <ele>463</ele>
        <time>2021-05-22T09:02:02Z</time>
      </trkpt>
      <trkpt lat="45.48835" lon="5.21602">
        <ele>463</ele>
        <time>2021-05-22T09:02:10Z</time>
      </trkpt>
      <trkpt lat="45.48859" lon="5.21662">
        <ele>465</ele>
        <time>2021-05-22T09:02:19Z</time>
      </trkpt>
      <trkpt lat="45.48878" lon="5.21721">
        <ele>466</ele>
        <time>2021-05-22T09:02:27Z</time>
      </trkpt>
      <trkpt lat="45.48911" lon="5.21879">
        <ele>467</ele>
        <time>2021-05-22T09:02:47Z</time>
      </trkpt>
      <trkpt lat="45.48919" lon="5.21933">
        <ele>468</ele>
        <time>2021-05-22T09:02:54Z</time>
      </trkpt>
      <trkpt lat="45.48925" lon="5.22034">
        <ele>469</ele>
        <time>2021-05-22T09:03:07Z</time>
      </trkpt>
      <trkpt lat="45.48937" lon="5.22087">
        <ele>470</ele>
        <time>2021-05-22T09:03:14Z</time>
      </trkpt>
      <trkpt lat="45.48954" lon="5.22141">
        <ele>471</ele>
        <time>2021-05-22T09:03:21Z</time>
      </trkpt>
      <trkpt lat="45.48959" lon="5.22177">
        <ele>471</ele>
        <time>2021-05-22T09:03:26Z</time>
      </trkpt>
      <trkpt lat="45.48959" lon="5.22217">
        <ele>471</ele>
        <time>2021-05-22T09:03:31Z</time>
      </trkpt>
      <trkpt lat="45.48955" lon="5.22255">
        <ele>471</ele>
        <time>2021-05-22T09:03:36Z</time>
      </trkpt>
      <trkpt lat="45.48953" lon="5.22302">
        <ele>471</ele>
        <time>2021-05-22T09:03:41Z</time>
      </trkpt>
      <trkpt lat="45.48958" lon="5.22358">
        <ele>471</ele>
        <time>2021-05-22T09:03:48Z</time>
      </trkpt>
      <trkpt lat="45.48982" lon="5.22487">
        <ele>473</ele>
        <time>2021-05-22T09:04:05Z</time>
      </trkpt>
      <trkpt lat="45.48983" lon="5.2257">
        <ele>474</ele>
        <time>2021-05-22T09:04:15Z</time>
      </trkpt>
      <trkpt lat="45.48965" lon="5.22748">
        <ele>476</ele>
        <time>2021-05-22T09:04:38Z</time>
      </trkpt>
      <trkpt lat="45.48971" lon="5.22902">
        <ele>477</ele>
        <time>2021-05-22T09:04:57Z</time>
      </trkpt>
      <trkpt lat="45.48968" lon="5.22973">
        <ele>478</ele>
        <time>2021-05-22T09:05:06Z</time>
      </trkpt>
      <trkpt lat="45.48971" lon="5.23019">
        <ele>479</ele>
        <time>2021-05-22T09:05:12Z</time>
      </trkpt>
      <trkpt lat="45.48983" lon="5.23107">
        <ele>480</ele>
        <time>2021-05-22T09:05:23Z</time>
      </trkpt>
      <trkpt lat="45.48992" lon="5.23137">
        <ele>481</ele>
        <time>2021-05-22T09:05:27Z</time>
      </trkpt>
      <trkpt lat="45.49011" lon="5.23175">
        <ele>482</ele>
        <time>2021-05-22T09:05:33Z</time>
      </trkpt>
      <trkpt lat="45.49049" lon="5.23241">
        <ele>482</ele>
        <time>2021-05-22T09:05:44Z</time>
      </trkpt>
      <trkpt lat="45.49053" lon="5.23259">
        <ele>482</ele>
        <time>2021-05-22T09:05:46Z</time>
      </trkpt>
      <trkpt lat="45.49056" lon="5.23375">
        <ele>483</ele>
        <time>2021-05-22T09:06:00Z</time>
      </trkpt>
      <trkpt lat="45.4906" lon="5.23425">
        <ele>483</ele>
        <time>2021-05-22T09:06:07Z</time>
      </trkpt>
      <trkpt lat="45.49069" lon="5.23461">
        <ele>483</ele>
        <time>2021-05-22T09:06:11Z</time>
      </trkpt>
      <trkpt lat="45.49109" lon="5.23595">
        <ele>485</ele>
        <time>2021-05-22T09:06:30Z</time>
      </trkpt>
      <trkpt lat="45.49151" lon="5.2371">
        <ele>487</ele>
        <time>2021-05-22T09:06:46Z</time>
      </trkpt>
      <trkpt lat="45.49167" lon="5.2374">
        <ele>487</ele>
        <time>2021-05-22T09:06:50Z</time>
      </trkpt>
      <trkpt lat="45.49172" lon="5.23755">
        <ele>487</ele>
        <time>2021-05-22T09:06:53Z</time>
      </trkpt>
      <trkpt lat="45.49189" lon="5.23856">
        <ele>489</ele>
        <time>2021-05-22T09:07:05Z</time>
      </trkpt>
      <trkpt lat="45.49206" lon="5.23966">
        <ele>489</ele>
        <time>2021-05-22T09:07:20Z</time>
      </trkpt>
      <trkpt lat="45.49227" lon="5.24085">
        <ele>490</ele>
        <time>2021-05-22T09:07:35Z</time>
      </trkpt>
      <trkpt lat="45.49227" lon="5.24104">
        <ele>491</ele>
        <time>2021-05-22T09:07:37Z</time>
      </trkpt>
      <trkpt lat="45.49226" lon="5.24113">
        <ele>491</ele>
        <time>2021-05-22T09:07:38Z</time>
      </trkpt>
      <trkpt lat="45.49237" lon="5.24101">
        <ele>491</ele>
        <time>2021-05-22T09:07:41Z</time>
      </trkpt>
      <trkpt lat="45.4925" lon="5.24093">
        <ele>490</ele>
        <time>2021-05-22T09:07:43Z</time>
      </trkpt>
      <trkpt lat="45.49257" lon="5.24093">
        <ele>491</ele>
        <time>2021-05-22T09:07:45Z</time>
      </trkpt>
      <trkpt lat="45.493" lon="5.24114">
        <ele>493</ele>
        <time>2021-05-22T09:07:53Z</time>
      </trkpt>
      <trkpt lat="45.49342" lon="5.24147">
        <ele>494</ele>
        <time>2021-05-22T09:08:01Z</time>
      </trkpt>
      <trkpt lat="45.49407" lon="5.2419">
        <ele>495</ele>
        <time>2021-05-22T09:08:14Z</time>
      </trkpt>
      <trkpt lat="45.4954" lon="5.24212">
        <ele>497</ele>
        <time>2021-05-22T09:08:38Z</time>
      </trkpt>
      <trkpt lat="45.49601" lon="5.24243">
        <ele>497</ele>
        <time>2021-05-22T09:08:49Z</time>
      </trkpt>
      <trkpt lat="45.4964" lon="5.24285">
        <ele>499</ele>
        <time>2021-05-22T09:08:58Z</time>
      </trkpt>
      <trkpt lat="45.4975" lon="5.24464">
        <ele>500</ele>
        <time>2021-05-22T09:09:28Z</time>
      </trkpt>
      <trkpt lat="45.49836" lon="5.24548">
        <ele>502</ele>
        <time>2021-05-22T09:09:46Z</time>
      </trkpt>
      <trkpt lat="45.50011" lon="5.24709">
        <ele>495</ele>
        <time>2021-05-22T09:10:23Z</time>
      </trkpt>
      <trkpt lat="45.50115" lon="5.24802">
        <ele>494</ele>
        <time>2021-05-22T09:10:45Z</time>
      </trkpt>
      <trkpt lat="45.50225" lon="5.24914">
        <ele>490</ele>
        <time>2021-05-22T09:11:09Z</time>
      </trkpt>
      <trkpt lat="45.50232" lon="5.25044">
        <ele>479</ele>
        <time>2021-05-22T09:11:25Z</time>
      </trkpt>
      <trkpt lat="45.50224" lon="5.25105">
        <ele>477</ele>
        <time>2021-05-22T09:11:33Z</time>
      </trkpt>
      <trkpt lat="45.50203" lon="5.25198">
        <ele>478</ele>
        <time>2021-05-22T09:11:45Z</time>
      </trkpt>
      <trkpt lat="45.50197" lon="5.25252">
        <ele>478</ele>
        <time>2021-05-22T09:11:52Z</time>
      </trkpt>
      <trkpt lat="45.50218" lon="5.25345">
        <ele>475</ele>
        <time>2021-05-22T09:12:04Z</time>
      </trkpt>
      <trkpt lat="45.5023" lon="5.25381">
        <ele>472</ele>
        <time>2021-05-22T09:12:09Z</time>
      </trkpt>
      <trkpt lat="45.50237" lon="5.25415">
        <ele>470</ele>
        <time>2021-05-22T09:12:14Z</time>
      </trkpt>
      <trkpt lat="45.5025" lon="5.25446">
        <ele>469</ele>
        <time>2021-05-22T09:12:18Z</time>
      </trkpt>
      <trkpt lat="45.50384" lon="5.25642">
        <ele>469</ele>
        <time>2021-05-22T09:12:52Z</time>
      </trkpt>
      <trkpt lat="45.50399" lon="5.2565">
        <ele>468</ele>
        <time>2021-05-22T09:12:55Z</time>
      </trkpt>
      <trkpt lat="45.50429" lon="5.2566">
        <ele>467</ele>
        <time>2021-05-22T09:13:01Z</time>
      </trkpt>
      <trkpt lat="45.50626" lon="5.25677">
        <ele>465</ele>
        <time>2021-05-22T09:13:36Z</time>
      </trkpt>
      <trkpt lat="45.5083" lon="5.25688">
        <ele>462</ele>
        <time>2021-05-22T09:14:12Z</time>
      </trkpt>
      <trkpt lat="45.50887" lon="5.25711">
        <ele>464</ele>
        <time>2021-05-22T09:14:23Z</time>
      </trkpt>
      <trkpt lat="45.50928" lon="5.25747">
        <ele>465</ele>
        <time>2021-05-22T09:14:31Z</time>
      </trkpt>
      <trkpt lat="45.51027" lon="5.25887">
        <ele>470</ele>
        <time>2021-05-22T09:14:56Z</time>
      </trkpt>
      <trkpt lat="45.51144" lon="5.26066">
        <ele>462</ele>
        <time>2021-05-22T09:15:27Z</time>
      </trkpt>
      <trkpt lat="45.51179" lon="5.2613">
        <ele>461</ele>
        <time>2021-05-22T09:15:37Z</time>
      </trkpt>
      <trkpt lat="45.51422" lon="5.26654">
        <ele>468</ele>
        <time>2021-05-22T09:16:55Z</time>
      </trkpt>
      <trkpt lat="45.5147" lon="5.26761">
        <ele>469</ele>
        <time>2021-05-22T09:17:11Z</time>
      </trkpt>
      <trkpt lat="45.51506" lon="5.26836">
        <ele>467</ele>
        <time>2021-05-22T09:17:22Z</time>
      </trkpt>
      <trkpt lat="45.51502" lon="5.2683">
        <ele>467</ele>
        <time>2021-05-22T09:17:23Z</time>
      </trkpt>
      <trkpt lat="45.51561" lon="5.26783">
        <ele>472</ele>
        <time>2021-05-22T09:17:35Z</time>
      </trkpt>
      <trkpt lat="45.51647" lon="5.26753">
        <ele>483</ele>
        <time>2021-05-22T09:17:51Z</time>
      </trkpt>
      <trkpt lat="45.51754" lon="5.26734">
        <ele>500</ele>
        <time>2021-05-22T09:18:10Z</time>
      </trkpt>
      <trkpt lat="45.51805" lon="5.26727">
        <ele>502</ele>
        <time>2021-05-22T09:18:19Z</time>
      </trkpt>
      <trkpt lat="45.51838" lon="5.26733">
        <ele>503</ele>
        <time>2021-05-22T09:18:25Z</time>
      </trkpt>
      <trkpt lat="45.5187" lon="5.26735">
        <ele>503</ele>
        <time>2021-05-22T09:18:31Z</time>
      </trkpt>
      <trkpt lat="45.51892" lon="5.26731">
        <ele>503</ele>
        <time>2021-05-22T09:18:35Z</time>
      </trkpt>
      <trkpt lat="45.51911" lon="5.26719">
        <ele>503</ele>
        <time>2021-05-22T09:18:39Z</time>
      </trkpt>
      <trkpt lat="45.51925" lon="5.26701">
        <ele>503</ele>
        <time>2021-05-22T09:18:42Z</time>
      </trkpt>
      <trkpt lat="45.51946" lon="5.26713">
        <ele>502</ele>
        <time>2021-05-22T09:18:46Z</time>
      </trkpt>
      <trkpt lat="45.51969" lon="5.26699">
        <ele>502</ele>
        <time>2021-05-22T09:18:50Z</time>
      </trkpt>
      <trkpt lat="45.52022" lon="5.26634">
        <ele>502</ele>
        <time>2021-05-22T09:19:03Z</time>
      </trkpt>
      <trkpt lat="45.5206" lon="5.26604">
        <ele>502</ele>
        <time>2021-05-22T09:19:11Z</time>
      </trkpt>
      <trkpt lat="45.52113" lon="5.26552">
        <ele>502</ele>
        <time>2021-05-22T09:19:22Z</time>
      </trkpt>
      <trkpt lat="45.52138" lon="5.26532">
        <ele>501</ele>
        <time>2021-05-22T09:19:27Z</time>
      </trkpt>
      <trkpt lat="45.52177" lon="5.26507">
        <ele>500</ele>
        <time>2021-05-22T09:19:35Z</time>
      </trkpt>
      <trkpt lat="45.52202" lon="5.26484">
        <ele>498</ele>
        <time>2021-05-22T09:19:40Z</time>
      </trkpt>
      <trkpt lat="45.5223" lon="5.26449">
        <ele>496</ele>
        <time>2021-05-22T09:19:47Z</time>
      </trkpt>
      <trkpt lat="45.52257" lon="5.26416">
        <ele>493</ele>
        <time>2021-05-22T09:19:53Z</time>
      </trkpt>
      <trkpt lat="45.52287" lon="5.26366">
        <ele>490</ele>
        <time>2021-05-22T09:20:01Z</time>
      </trkpt>
      <trkpt lat="45.52297" lon="5.26337">
        <ele>488</ele>
        <time>2021-05-22T09:20:05Z</time>
      </trkpt>
      <trkpt lat="45.52311" lon="5.26247">
        <ele>487</ele>
        <time>2021-05-22T09:20:17Z</time>
      </trkpt>
      <trkpt lat="45.52318" lon="5.26219">
        <ele>486</ele>
        <time>2021-05-22T09:20:20Z</time>
      </trkpt>
      <trkpt lat="45.52344" lon="5.2619">
        <ele>486</ele>
        <time>2021-05-22T09:20:26Z</time>
      </trkpt>
      <trkpt lat="45.52433" lon="5.26115">
        <ele>485</ele>
        <time>2021-05-22T09:20:45Z</time>
      </trkpt>
      <trkpt lat="45.52456" lon="5.26105">
        <ele>486</ele>
        <time>2021-05-22T09:20:49Z</time>
      </trkpt>
      <trkpt lat="45.52485" lon="5.26106">
        <ele>486</ele>
        <time>2021-05-22T09:20:54Z</time>
      </trkpt>
      <trkpt lat="45.52501" lon="5.26096">
        <ele>487</ele>
        <time>2021-05-22T09:20:57Z</time>
      </trkpt>
      <trkpt lat="45.52564" lon="5.26037">
        <ele>487</ele>
        <time>2021-05-22T09:21:11Z</time>
      </trkpt>
      <trkpt lat="45.5263" lon="5.25997">
        <ele>488</ele>
        <time>2021-05-22T09:21:23Z</time>
      </trkpt>
      <trkpt lat="45.52655" lon="5.25977">
        <ele>489</ele>
        <time>2021-05-22T09:21:28Z</time>
      </trkpt>
      <trkpt lat="45.52687" lon="5.25956">
        <ele>491</ele>
        <time>2021-05-22T09:21:35Z</time>
      </trkpt>
      <trkpt lat="45.52713" lon="5.25944">
        <ele>491</ele>
        <time>2021-05-22T09:21:40Z</time>
      </trkpt>
      <trkpt lat="45.5284" lon="5.25871">
        <ele>496</ele>
        <time>2021-05-22T09:22:04Z</time>
      </trkpt>
      <trkpt lat="45.52855" lon="5.25854">
        <ele>497</ele>
        <time>2021-05-22T09:22:07Z</time>
      </trkpt>
      <trkpt lat="45.52908" lon="5.25787">
        <ele>500</ele>
        <time>2021-05-22T09:22:20Z</time>
      </trkpt>
      <trkpt lat="45.52933" lon="5.25752">
        <ele>502</ele>
        <time>2021-05-22T09:22:26Z</time>
      </trkpt>
      <trkpt lat="45.52962" lon="5.25724">
        <ele>504</ele>
        <time>2021-05-22T09:22:32Z</time>
      </trkpt>
      <trkpt lat="45.52992" lon="5.25706">
        <ele>506</ele>
        <time>2021-05-22T09:22:38Z</time>
      </trkpt>
      <trkpt lat="45.53006" lon="5.25695">
        <ele>506</ele>
        <time>2021-05-22T09:22:41Z</time>
      </trkpt>
      <trkpt lat="45.53021" lon="5.2568">
        <ele>507</ele>
        <time>2021-05-22T09:22:44Z</time>
      </trkpt>
      <trkpt lat="45.53026" lon="5.25666">
        <ele>507</ele>
        <time>2021-05-22T09:22:46Z</time>
      </trkpt>
      <trkpt lat="45.5304" lon="5.25666">
        <ele>507</ele>
        <time>2021-05-22T09:22:49Z</time>
      </trkpt>
      <trkpt lat="45.53117" lon="5.25633">
        <ele>502</ele>
        <time>2021-05-22T09:23:03Z</time>
      </trkpt>
      <trkpt lat="45.53189" lon="5.25612">
        <ele>498</ele>
        <time>2021-05-22T09:23:16Z</time>
      </trkpt>
      <trkpt lat="45.53393" lon="5.25469">
        <ele>485</ele>
        <time>2021-05-22T09:23:57Z</time>
      </trkpt>
      <trkpt lat="45.5341" lon="5.2546">
        <ele>485</ele>
        <time>2021-05-22T09:24:00Z</time>
      </trkpt>
      <trkpt lat="45.53426" lon="5.25456">
        <ele>484</ele>
        <time>2021-05-22T09:24:03Z</time>
      </trkpt>
      <trkpt lat="45.5346" lon="5.25455">
        <ele>481</ele>
        <time>2021-05-22T09:24:09Z</time>
      </trkpt>
      <trkpt lat="45.53478" lon="5.25463">
        <ele>480</ele>
        <time>2021-05-22T09:24:12Z</time>
      </trkpt>
      <trkpt lat="45.53488" lon="5.25476">
        <ele>480</ele>
        <time>2021-05-22T09:24:14Z</time>
      </trkpt>
      <trkpt lat="45.53502" lon="5.25489">
        <ele>479</ele>
        <time>2021-05-22T09:24:17Z</time>
      </trkpt>
      <trkpt lat="45.53519" lon="5.25496">
        <ele>477</ele>
        <time>2021-05-22T09:24:21Z</time>
      </trkpt>
      <trkpt lat="45.53557" lon="5.25501">
        <ele>472</ele>
        <time>2021-05-22T09:24:27Z</time>
      </trkpt>
      <trkpt lat="45.53575" lon="5.25508">
        <ele>470</ele>
        <time>2021-05-22T09:24:31Z</time>
      </trkpt>
      <trkpt lat="45.53584" lon="5.25525">
        <ele>471</ele>
        <time>2021-05-22T09:24:33Z</time>
      </trkpt>
      <trkpt lat="45.53674" lon="5.25839">
        <ele>458</ele>
        <time>2021-05-22T09:25:16Z</time>
      </trkpt>
      <trkpt lat="45.53693" lon="5.25866">
        <ele>457</ele>
        <time>2021-05-22T09:25:20Z</time>
      </trkpt>
      <trkpt lat="45.53712" lon="5.25877">
        <ele>454</ele>
        <time>2021-05-22T09:25:24Z</time>
      </trkpt>
      <trkpt lat="45.53735" lon="5.25887">
        <ele>449</ele>
        <time>2021-05-22T09:25:28Z</time>
      </trkpt>
      <trkpt lat="45.53765" lon="5.25891">
        <ele>445</ele>
        <time>2021-05-22T09:25:34Z</time>
      </trkpt>
      <trkpt lat="45.53782" lon="5.25871">
        <ele>443</ele>
        <time>2021-05-22T09:25:38Z</time>
      </trkpt>
      <trkpt lat="45.53786" lon="5.25861">
        <ele>443</ele>
        <time>2021-05-22T09:25:39Z</time>
      </trkpt>
      <trkpt lat="45.53794" lon="5.2582">
        <ele>441</ele>
        <time>2021-05-22T09:25:44Z</time>
      </trkpt>
      <trkpt lat="45.53825" lon="5.25726">
        <ele>437</ele>
        <time>2021-05-22T09:25:57Z</time>
      </trkpt>
      <trkpt lat="45.53815" lon="5.25622">
        <ele>430</ele>
        <time>2021-05-22T09:26:10Z</time>
      </trkpt>
      <trkpt lat="45.53824" lon="5.25593">
        <ele>428</ele>
        <time>2021-05-22T09:26:14Z</time>
      </trkpt>
      <trkpt lat="45.53865" lon="5.25548">
        <ele>427</ele>
        <time>2021-05-22T09:26:24Z</time>
      </trkpt>
      <trkpt lat="45.53875" lon="5.25532">
        <ele>427</ele>
        <time>2021-05-22T09:26:26Z</time>
      </trkpt>
      <trkpt lat="45.53887" lon="5.25486">
        <ele>425</ele>
        <time>2021-05-22T09:26:32Z</time>
      </trkpt>
      <trkpt lat="45.53924" lon="5.25441">
        <ele>424</ele>
        <time>2021-05-22T09:26:41Z</time>
      </trkpt>
      <trkpt lat="45.53947" lon="5.25424">
        <ele>423</ele>
        <time>2021-05-22T09:26:46Z</time>
      </trkpt>
      <trkpt lat="45.53983" lon="5.25382">
        <ele>421</ele>
        <time>2021-05-22T09:26:54Z</time>
      </trkpt>
      <trkpt lat="45.53993" lon="5.25358">
        <ele>419</ele>
        <time>2021-05-22T09:26:57Z</time>
      </trkpt>
      <trkpt lat="45.54003" lon="5.25339">
        <ele>417</ele>
        <time>2021-05-22T09:27:00Z</time>
      </trkpt>
      <trkpt lat="45.5402" lon="5.25317">
        <ele>416</ele>
        <time>2021-05-22T09:27:04Z</time>
      </trkpt>
      <trkpt lat="45.54048" lon="5.25303">
        <ele>415</ele>
        <time>2021-05-22T09:27:10Z</time>
      </trkpt>
      <trkpt lat="45.54071" lon="5.25285">
        <ele>413</ele>
        <time>2021-05-22T09:27:14Z</time>
      </trkpt>
      <trkpt lat="45.54088" lon="5.25268">
        <ele>411</ele>
        <time>2021-05-22T09:27:18Z</time>
      </trkpt>
      <trkpt lat="45.54107" lon="5.25245">
        <ele>409</ele>
        <time>2021-05-22T09:27:22Z</time>
      </trkpt>
      <trkpt lat="45.54117" lon="5.25227">
        <ele>408</ele>
        <time>2021-05-22T09:27:25Z</time>
      </trkpt>
      <trkpt lat="45.54124" lon="5.25205">
        <ele>407</ele>
        <time>2021-05-22T09:27:28Z</time>
      </trkpt>
      <trkpt lat="45.54134" lon="5.25163">
        <ele>403</ele>
        <time>2021-05-22T09:27:34Z</time>
      </trkpt>
      <trkpt lat="45.5414" lon="5.25143">
        <ele>404</ele>
        <time>2021-05-22T09:27:37Z</time>
      </trkpt>
      <trkpt lat="45.54159" lon="5.25118">
        <ele>402</ele>
        <time>2021-05-22T09:27:41Z</time>
      </trkpt>
      <trkpt lat="45.54174" lon="5.25101">
        <ele>399</ele>
        <time>2021-05-22T09:27:45Z</time>
      </trkpt>
      <trkpt lat="45.54203" lon="5.25084">
        <ele>396</ele>
        <time>2021-05-22T09:27:50Z</time>
      </trkpt>
      <trkpt lat="45.54225" lon="5.25065">
        <ele>394</ele>
        <time>2021-05-22T09:27:55Z</time>
      </trkpt>
      <trkpt lat="45.54246" lon="5.25043">
        <ele>392</ele>
        <time>2021-05-22T09:27:59Z</time>
      </trkpt>
      <trkpt lat="45.54267" lon="5.25028">
        <ele>391</ele>
        <time>2021-05-22T09:28:04Z</time>
      </trkpt>
      <trkpt lat="45.54298" lon="5.2502">
        <ele>389</ele>
        <time>2021-05-22T09:28:09Z</time>
      </trkpt>
      <trkpt lat="45.54329" lon="5.2502">
        <ele>386</ele>
        <time>2021-05-22T09:28:15Z</time>
      </trkpt>
      <trkpt lat="45.54363" lon="5.25024">
        <ele>385</ele>
        <time>2021-05-22T09:28:21Z</time>
      </trkpt>
      <trkpt lat="45.54388" lon="5.25019">
        <ele>385</ele>
        <time>2021-05-22T09:28:25Z</time>
      </trkpt>
      <trkpt lat="45.54416" lon="5.25007">
        <ele>383</ele>
        <time>2021-05-22T09:28:30Z</time>
      </trkpt>
      <trkpt lat="45.54447" lon="5.24985">
        <ele>380</ele>
        <time>2021-05-22T09:28:37Z</time>
      </trkpt>
      <trkpt lat="45.54472" lon="5.24974">
        <ele>378</ele>
        <time>2021-05-22T09:28:41Z</time>
      </trkpt>
      <trkpt lat="45.54497" lon="5.24969">
        <ele>376</ele>
        <time>2021-05-22T09:28:46Z</time>
      </trkpt>
      <trkpt lat="45.54522" lon="5.24969">
        <ele>375</ele>
        <time>2021-05-22T09:28:50Z</time>
      </trkpt>
      <trkpt lat="45.54662" lon="5.25005">
        <ele>363</ele>
        <time>2021-05-22T09:29:16Z</time>
      </trkpt>
      <trkpt lat="45.54673" lon="5.25004">
        <ele>362</ele>
        <time>2021-05-22T09:29:17Z</time>
      </trkpt>
      <trkpt lat="45.54678" lon="5.25001">
        <ele>361</ele>
        <time>2021-05-22T09:29:18Z</time>
      </trkpt>
      <trkpt lat="45.54637" lon="5.24891">
        <ele>364</ele>
        <time>2021-05-22T09:29:34Z</time>
      </trkpt>
      <trkpt lat="45.54596" lon="5.24769">
        <ele>367</ele>
        <time>2021-05-22T09:29:51Z</time>
      </trkpt>
      <trkpt lat="45.54584" lon="5.2471">
        <ele>369</ele>
        <time>2021-05-22T09:29:58Z</time>
      </trkpt>
      <trkpt lat="45.54573" lon="5.24637">
        <ele>371</ele>
        <time>2021-05-22T09:30:08Z</time>
      </trkpt>
      <trkpt lat="45.54573" lon="5.24611">
        <ele>371</ele>
        <time>2021-05-22T09:30:11Z</time>
      </trkpt>
      <trkpt lat="45.5457" lon="5.24582">
        <ele>371</ele>
        <time>2021-05-22T09:30:15Z</time>
      </trkpt>
      <trkpt lat="45.54566" lon="5.24557">
        <ele>371</ele>
        <time>2021-05-22T09:30:18Z</time>
      </trkpt>
      <trkpt lat="45.54563" lon="5.24519">
        <ele>370</ele>
        <time>2021-05-22T09:30:23Z</time>
      </trkpt>
      <trkpt lat="45.54565" lon="5.24448">
        <ele>369</ele>
        <time>2021-05-22T09:30:31Z</time>
      </trkpt>
      <trkpt lat="45.5457" lon="5.24416">
        <ele>368</ele>
        <time>2021-05-22T09:30:36Z</time>
      </trkpt>
      <trkpt lat="45.54577" lon="5.24387">
        <ele>368</ele>
        <time>2021-05-22T09:30:39Z</time>
      </trkpt>
      <trkpt lat="45.54601" lon="5.24343">
        <ele>368</ele>
        <time>2021-05-22T09:30:46Z</time>
      </trkpt>
      <trkpt lat="45.54615" lon="5.2432">
        <ele>368</ele>
        <time>2021-05-22T09:30:50Z</time>
      </trkpt>
      <trkpt lat="45.54633" lon="5.24303">
        <ele>368</ele>
        <time>2021-05-22T09:30:54Z</time>
      </trkpt>
      <trkpt lat="45.54647" lon="5.24298">
        <ele>367</ele>
        <time>2021-05-22T09:30:57Z</time>
      </trkpt>
      <trkpt lat="45.54693" lon="5.24296">
        <ele>367</ele>
        <time>2021-05-22T09:31:05Z</time>
      </trkpt>
      <trkpt lat="45.54715" lon="5.24299">
        <ele>367</ele>
        <time>2021-05-22T09:31:09Z</time>
      </trkpt>
      <trkpt lat="45.54739" lon="5.24298">
        <ele>369</ele>
        <time>2021-05-22T09:31:13Z</time>
      </trkpt>
      <trkpt lat="45.5476" lon="5.24293">
        <ele>369</ele>
        <time>2021-05-22T09:31:17Z</time>
      </trkpt>
      <trkpt lat="45.54783" lon="5.2428">
        <ele>370</ele>
        <time>2021-05-22T09:31:21Z</time>
      </trkpt>
      <trkpt lat="45.54795" lon="5.24264">
        <ele>370</ele>
        <time>2021-05-22T09:31:24Z</time>
      </trkpt>
      <trkpt lat="45.54807" lon="5.2424">
        <ele>370</ele>
        <time>2021-05-22T09:31:28Z</time>
      </trkpt>
      <trkpt lat="45.54809" lon="5.24208">
        <ele>372</ele>
        <time>2021-05-22T09:31:32Z</time>
      </trkpt>
      <trkpt lat="45.54822" lon="5.2407">
        <ele>379</ele>
        <time>2021-05-22T09:31:49Z</time>
      </trkpt>
      <trkpt lat="45.54828" lon="5.2404">
        <ele>380</ele>
        <time>2021-05-22T09:31:53Z</time>
      </trkpt>
      <trkpt lat="45.54878" lon="5.23841">
        <ele>387</ele>
        <time>2021-05-22T09:32:19Z</time>
      </trkpt>
      <trkpt lat="45.54889" lon="5.23806">
        <ele>387</ele>
        <time>2021-05-22T09:32:24Z</time>
      </trkpt>
      <trkpt lat="45.54921" lon="5.23746">
        <ele>388</ele>
        <time>2021-05-22T09:32:33Z</time>
      </trkpt>
      <trkpt lat="45.54953" lon="5.23689">
        <ele>391</ele>
        <time>2021-05-22T09:32:43Z</time>
      </trkpt>
      <trkpt lat="45.54967" lon="5.2367">
        <ele>393</ele>
        <time>2021-05-22T09:32:46Z</time>
      </trkpt>
      <trkpt lat="45.55002" lon="5.23619">
        <ele>397</ele>
        <time>2021-05-22T09:32:55Z</time>
      </trkpt>
      <trkpt lat="45.55027" lon="5.2357">
        <ele>401</ele>
        <time>2021-05-22T09:33:02Z</time>
      </trkpt>
      <trkpt lat="45.55053" lon="5.23516">
        <ele>405</ele>
        <time>2021-05-22T09:33:11Z</time>
      </trkpt>
      <trkpt lat="45.55065" lon="5.23493">
        <ele>407</ele>
        <time>2021-05-22T09:33:14Z</time>
      </trkpt>
      <trkpt lat="45.55087" lon="5.23444">
        <ele>411</ele>
        <time>2021-05-22T09:33:21Z</time>
      </trkpt>
      <trkpt lat="45.551" lon="5.23401">
        <ele>414</ele>
        <time>2021-05-22T09:33:27Z</time>
      </trkpt>
      <trkpt lat="45.55105" lon="5.2336">
        <ele>416</ele>
        <time>2021-05-22T09:33:32Z</time>
      </trkpt>
      <trkpt lat="45.55106" lon="5.23336">
        <ele>417</ele>
        <time>2021-05-22T09:33:35Z</time>
      </trkpt>
      <trkpt lat="45.55106" lon="5.23323">
        <ele>417</ele>
        <time>2021-05-22T09:33:37Z</time>
      </trkpt>
      <trkpt lat="45.55102" lon="5.23301">
        <ele>418</ele>
        <time>2021-05-22T09:33:40Z</time>
      </trkpt>
      <trkpt lat="45.55085" lon="5.23244">
        <ele>418</ele>
        <time>2021-05-22T09:33:48Z</time>
      </trkpt>
      <trkpt lat="45.55077" lon="5.23216">
        <ele>420</ele>
        <time>2021-05-22T09:33:51Z</time>
      </trkpt>
      <trkpt lat="45.55055" lon="5.23164">
        <ele>420</ele>
        <time>2021-05-22T09:33:59Z</time>
      </trkpt>
      <trkpt lat="45.55028" lon="5.23086">
        <ele>423</ele>
        <time>2021-05-22T09:34:10Z</time>
      </trkpt>
      <trkpt lat="45.55004" lon="5.23033">
        <ele>425</ele>
        <time>2021-05-22T09:34:18Z</time>
      </trkpt>
      <trkpt lat="45.54955" lon="5.22961">
        <ele>426</ele>
        <time>2021-05-22T09:34:30Z</time>
      </trkpt>
      <trkpt lat="45.54923" lon="5.22904">
        <ele>427</ele>
        <time>2021-05-22T09:34:39Z</time>
      </trkpt>
      <trkpt lat="45.54922" lon="5.22815">
        <ele>432</ele>
        <time>2021-05-22T09:34:50Z</time>
      </trkpt>
      <trkpt lat="45.54896" lon="5.22693">
        <ele>436</ele>
        <time>2021-05-22T09:35:06Z</time>
      </trkpt>
      <trkpt lat="45.54893" lon="5.22606">
        <ele>438</ele>
        <time>2021-05-22T09:35:17Z</time>
      </trkpt>
      <trkpt lat="45.54893" lon="5.22562">
        <ele>439</ele>
        <time>2021-05-22T09:35:23Z</time>
      </trkpt>
      <trkpt lat="45.54892" lon="5.2251">
        <ele>440</ele>
        <time>2021-05-22T09:35:29Z</time>
      </trkpt>
      <trkpt lat="45.54886" lon="5.22442">
        <ele>441</ele>
        <time>2021-05-22T09:35:38Z</time>
      </trkpt>
      <trkpt lat="45.54884" lon="5.22426">
        <ele>442</ele>
        <time>2021-05-22T09:35:40Z</time>
      </trkpt>
      <trkpt lat="45.54884" lon="5.22408">
        <ele>442</ele>
        <time>2021-05-22T09:35:42Z</time>
      </trkpt>
      <trkpt lat="45.54883" lon="5.22394">
        <ele>442</ele>
        <time>2021-05-22T09:35:44Z</time>
      </trkpt>
      <trkpt lat="45.54887" lon="5.22348">
        <ele>442</ele>
        <time>2021-05-22T09:35:49Z</time>
      </trkpt>
      <trkpt lat="45.54889" lon="5.22349">
        <ele>443</ele>
        <time>2021-05-22T09:35:50Z</time>
      </trkpt>
      <trkpt lat="45.54905" lon="5.22347">
        <ele>444</ele>
        <time>2021-05-22T09:35:53Z</time>
      </trkpt>
      <trkpt lat="45.5492" lon="5.22333">
        <ele>445</ele>
        <time>2021-05-22T09:35:56Z</time>
      </trkpt>
      <trkpt lat="45.55076" lon="5.22182">
        <ele>448</ele>
        <time>2021-05-22T09:36:29Z</time>
      </trkpt>
      <trkpt lat="45.55151" lon="5.21952">
        <ele>446</ele>
        <time>2021-05-22T09:37:01Z</time>
      </trkpt>
      <trkpt lat="45.55173" lon="5.21888">
        <ele>446</ele>
        <time>2021-05-22T09:37:10Z</time>
      </trkpt>
      <trkpt lat="45.55201" lon="5.21837">
        <ele>448</ele>
        <time>2021-05-22T09:37:18Z</time>
      </trkpt>
      <trkpt lat="45.55244" lon="5.21789">
        <ele>449</ele>
        <time>2021-05-22T09:37:28Z</time>
      </trkpt>
      <trkpt lat="45.55292" lon="5.21714">
        <ele>449</ele>
        <time>2021-05-22T09:37:40Z</time>
      </trkpt>
      <trkpt lat="45.55326" lon="5.21677">
        <ele>449</ele>
        <time>2021-05-22T09:37:48Z</time>
      </trkpt>
      <trkpt lat="45.55361" lon="5.21649">
        <ele>449</ele>
        <time>2021-05-22T09:37:55Z</time>
      </trkpt>
      <trkpt lat="45.55388" lon="5.2162">
        <ele>449</ele>
        <time>2021-05-22T09:38:01Z</time>
      </trkpt>
      <trkpt lat="45.55405" lon="5.21591">
        <ele>449</ele>
        <time>2021-05-22T09:38:06Z</time>
      </trkpt>
      <trkpt lat="45.55419" lon="5.21555">
        <ele>451</ele>
        <time>2021-05-22T09:38:11Z</time>
      </trkpt>
      <trkpt lat="45.5544" lon="5.21473">
        <ele>458</ele>
        <time>2021-05-22T09:38:22Z</time>
      </trkpt>
      <trkpt lat="45.55462" lon="5.21432">
        <ele>461</ele>
        <time>2021-05-22T09:38:28Z</time>
      </trkpt>
      <trkpt lat="45.55467" lon="5.21426">
        <ele>462</ele>
        <time>2021-05-22T09:38:29Z</time>
      </trkpt>
      <trkpt lat="45.55489" lon="5.21413">
        <ele>463</ele>
        <time>2021-05-22T09:38:34Z</time>
      </trkpt>
      <trkpt lat="45.55497" lon="5.2141">
        <ele>463</ele>
        <time>2021-05-22T09:38:35Z</time>
      </trkpt>
      <trkpt lat="45.55497" lon="5.2141">
        <ele>463</ele>
        <time>2021-05-22T09:38:35Z</time>
      </trkpt>
      <trkpt lat="45.55507" lon="5.21407">
        <ele>464</ele>
        <time>2021-05-22T09:38:37Z</time>
      </trkpt>
      <trkpt lat="45.55524" lon="5.21407">
        <ele>466</ele>
        <time>2021-05-22T09:38:40Z</time>
      </trkpt>
      <trkpt lat="45.5554" lon="5.21411">
        <ele>467</ele>
        <time>2021-05-22T09:38:43Z</time>
      </trkpt>
      <trkpt lat="45.55564" lon="5.21426">
        <ele>468</ele>
        <time>2021-05-22T09:38:48Z</time>
      </trkpt>
      <trkpt lat="45.55588" lon="5.21444">
        <ele>469</ele>
        <time>2021-05-22T09:38:52Z</time>
      </trkpt>
      <trkpt lat="45.55605" lon="5.21461">
        <ele>469</ele>
        <time>2021-05-22T09:38:56Z</time>
      </trkpt>
      <trkpt lat="45.55642" lon="5.21514">
        <ele>470</ele>
        <time>2021-05-22T09:39:05Z</time>
      </trkpt>
      <trkpt lat="45.55655" lon="5.21529">
        <ele>470</ele>
        <time>2021-05-22T09:39:08Z</time>
      </trkpt>
      <trkpt lat="45.55713" lon="5.21572">
        <ele>473</ele>
        <time>2021-05-22T09:39:20Z</time>
      </trkpt>
      <trkpt lat="45.55734" lon="5.21594">
        <ele>474</ele>
        <time>2021-05-22T09:39:25Z</time>
      </trkpt>
      <trkpt lat="45.55815" lon="5.21685">
        <ele>473</ele>
        <time>2021-05-22T09:39:43Z</time>
      </trkpt>
      <trkpt lat="45.55844" lon="5.21715">
        <ele>472</ele>
        <time>2021-05-22T09:39:49Z</time>
      </trkpt>
      <trkpt lat="45.55908" lon="5.21762">
        <ele>477</ele>
        <time>2021-05-22T09:40:02Z</time>
      </trkpt>
      <trkpt lat="45.55926" lon="5.21777">
        <ele>477</ele>
        <time>2021-05-22T09:40:06Z</time>
      </trkpt>
      <trkpt lat="45.55938" lon="5.21793">
        <ele>477</ele>
        <time>2021-05-22T09:40:09Z</time>
      </trkpt>
      <trkpt lat="45.55955" lon="5.21823">
        <ele>476</ele>
        <time>2021-05-22T09:40:14Z</time>
      </trkpt>
      <trkpt lat="45.5598" lon="5.21883">
        <ele>475</ele>
        <time>2021-05-22T09:40:22Z</time>
      </trkpt>
      <trkpt lat="45.56" lon="5.21958">
        <ele>475</ele>
        <time>2021-05-22T09:40:32Z</time>
      </trkpt>
      <trkpt lat="45.56014" lon="5.22">
        <ele>475</ele>
        <time>2021-05-22T09:40:38Z</time>
      </trkpt>
      <trkpt lat="45.56023" lon="5.2202">
        <ele>474</ele>
        <time>2021-05-22T09:40:41Z</time>
      </trkpt>
      <trkpt lat="45.56032" lon="5.22039">
        <ele>474</ele>
        <time>2021-05-22T09:40:44Z</time>
      </trkpt>
      <trkpt lat="45.56043" lon="5.22057">
        <ele>474</ele>
        <time>2021-05-22T09:40:47Z</time>
      </trkpt>
      <trkpt lat="45.56137" lon="5.22174">
        <ele>475</ele>
        <time>2021-05-22T09:41:09Z</time>
      </trkpt>
      <trkpt lat="45.56153" lon="5.22199">
        <ele>475</ele>
        <time>2021-05-22T09:41:13Z</time>
      </trkpt>
      <trkpt lat="45.5617" lon="5.22234">
        <ele>476</ele>
        <time>2021-05-22T09:41:19Z</time>
      </trkpt>
      <trkpt lat="45.56178" lon="5.22251">
        <ele>476</ele>
        <time>2021-05-22T09:41:21Z</time>
      </trkpt>
      <trkpt lat="45.56182" lon="5.2226">
        <ele>476</ele>
        <time>2021-05-22T09:41:22Z</time>
      </trkpt>
      <trkpt lat="45.56185" lon="5.22266">
        <ele>476</ele>
        <time>2021-05-22T09:41:23Z</time>
      </trkpt>
      <trkpt lat="45.56203" lon="5.22281">
        <ele>477</ele>
        <time>2021-05-22T09:41:27Z</time>
      </trkpt>
      <trkpt lat="45.56301" lon="5.22376">
        <ele>476</ele>
        <time>2021-05-22T09:41:48Z</time>
      </trkpt>
      <trkpt lat="45.56326" lon="5.22395">
        <ele>477</ele>
        <time>2021-05-22T09:41:53Z</time>
      </trkpt>
      <trkpt lat="45.56338" lon="5.22397">
        <ele>477</ele>
        <time>2021-05-22T09:41:55Z</time>
      </trkpt>
      <trkpt lat="45.5635" lon="5.22394">
        <ele>477</ele>
        <time>2021-05-22T09:41:57Z</time>
      </trkpt>
      <trkpt lat="45.56422" lon="5.22341">
        <ele>476</ele>
        <time>2021-05-22T09:42:12Z</time>
      </trkpt>
      <trkpt lat="45.56431" lon="5.22339">
        <ele>476</ele>
        <time>2021-05-22T09:42:14Z</time>
      </trkpt>
      <trkpt lat="45.5658" lon="5.22336">
        <ele>480</ele>
        <time>2021-05-22T09:42:40Z</time>
      </trkpt>
      <trkpt lat="45.56683" lon="5.22343">
        <ele>482</ele>
        <time>2021-05-22T09:42:58Z</time>
      </trkpt>
      <trkpt lat="45.56786" lon="5.22345">
        <ele>485</ele>
        <time>2021-05-22T09:43:17Z</time>
      </trkpt>
      <trkpt lat="45.56843" lon="5.22302">
        <ele>488</ele>
        <time>2021-05-22T09:43:28Z</time>
      </trkpt>
      <trkpt lat="45.56922" lon="5.22199">
        <ele>487</ele>
        <time>2021-05-22T09:43:47Z</time>
      </trkpt>
      <trkpt lat="45.57054" lon="5.22146">
        <ele>472</ele>
        <time>2021-05-22T09:44:12Z</time>
      </trkpt>
      <trkpt lat="45.57108" lon="5.22199">
        <ele>466</ele>
        <time>2021-05-22T09:44:23Z</time>
      </trkpt>
      <trkpt lat="45.57172" lon="5.22177">
        <ele>462</ele>
        <time>2021-05-22T09:44:35Z</time>
      </trkpt>
      <trkpt lat="45.57185" lon="5.22157">
        <ele>462</ele>
        <time>2021-05-22T09:44:38Z</time>
      </trkpt>
      <trkpt lat="45.57197" lon="5.2209">
        <ele>461</ele>
        <time>2021-05-22T09:44:47Z</time>
      </trkpt>
      <trkpt lat="45.57212" lon="5.21941">
        <ele>459</ele>
        <time>2021-05-22T09:45:06Z</time>
      </trkpt>
      <trkpt lat="45.57228" lon="5.21721">
        <ele>457</ele>
        <time>2021-05-22T09:45:33Z</time>
      </trkpt>
      <trkpt lat="45.57235" lon="5.21672">
        <ele>456</ele>
        <time>2021-05-22T09:45:40Z</time>
      </trkpt>
      <trkpt lat="45.57273" lon="5.21586">
        <ele>456</ele>
        <time>2021-05-22T09:45:52Z</time>
      </trkpt>
      <trkpt lat="45.5728" lon="5.21552">
        <ele>457</ele>
        <time>2021-05-22T09:45:57Z</time>
      </trkpt>
      <trkpt lat="45.57269" lon="5.21397">
        <ele>458</ele>
        <time>2021-05-22T09:46:16Z</time>
      </trkpt>
      <trkpt lat="45.57293" lon="5.21283">
        <ele>455</ele>
        <time>2021-05-22T09:46:31Z</time>
      </trkpt>
      <trkpt lat="45.57307" lon="5.21205">
        <ele>452</ele>
        <time>2021-05-22T09:46:41Z</time>
      </trkpt>
      <trkpt lat="45.57308" lon="5.21192">
        <ele>451</ele>
        <time>2021-05-22T09:46:42Z</time>
      </trkpt>
      <trkpt lat="45.5731" lon="5.21088">
        <ele>447</ele>
        <time>2021-05-22T09:46:55Z</time>
      </trkpt>
      <trkpt lat="45.57351" lon="5.20901">
        <ele>429</ele>
        <time>2021-05-22T09:47:20Z</time>
      </trkpt>
      <trkpt lat="45.57397" lon="5.20615">
        <ele>419</ele>
        <time>2021-05-22T09:47:56Z</time>
      </trkpt>
      <trkpt lat="45.57397" lon="5.20551">
        <ele>415</ele>
        <time>2021-05-22T09:48:04Z</time>
      </trkpt>
      <trkpt lat="45.57363" lon="5.20471">
        <ele>409</ele>
        <time>2021-05-22T09:48:16Z</time>
      </trkpt>
      <trkpt lat="45.57363" lon="5.20454">
        <ele>407</ele>
        <time>2021-05-22T09:48:18Z</time>
      </trkpt>
      <trkpt lat="45.57361" lon="5.20367">
        <ele>401</ele>
        <time>2021-05-22T09:48:29Z</time>
      </trkpt>
      <trkpt lat="45.57389" lon="5.20251">
        <ele>394</ele>
        <time>2021-05-22T09:48:44Z</time>
      </trkpt>
      <trkpt lat="45.57399" lon="5.20232">
        <ele>392</ele>
        <time>2021-05-22T09:48:47Z</time>
      </trkpt>
      <trkpt lat="45.57411" lon="5.20219">
        <ele>390</ele>
        <time>2021-05-22T09:48:50Z</time>
      </trkpt>
      <trkpt lat="45.57416" lon="5.20217">
        <ele>389</ele>
        <time>2021-05-22T09:48:51Z</time>
      </trkpt>
      <trkpt lat="45.57475" lon="5.20208">
        <ele>389</ele>
        <time>2021-05-22T09:49:01Z</time>
      </trkpt>
      <trkpt lat="45.57487" lon="5.20209">
        <ele>388</ele>
        <time>2021-05-22T09:49:04Z</time>
      </trkpt>
      <trkpt lat="45.57524" lon="5.20231">
        <ele>388</ele>
        <time>2021-05-22T09:49:11Z</time>
      </trkpt>
      <trkpt lat="45.57555" lon="5.20241">
        <ele>388</ele>
        <time>2021-05-22T09:49:16Z</time>
      </trkpt>
      <trkpt lat="45.57605" lon="5.20242">
        <ele>386</ele>
        <time>2021-05-22T09:49:25Z</time>
      </trkpt>
      <trkpt lat="45.5762" lon="5.20247">
        <ele>385</ele>
        <time>2021-05-22T09:49:28Z</time>
      </trkpt>
      <trkpt lat="45.57628" lon="5.20249">
        <ele>384</ele>
        <time>2021-05-22T09:49:29Z</time>
      </trkpt>
      <trkpt lat="45.57648" lon="5.20246">
        <ele>383</ele>
        <time>2021-05-22T09:49:33Z</time>
      </trkpt>
      <trkpt lat="45.57672" lon="5.20238">
        <ele>382</ele>
        <time>2021-05-22T09:49:37Z</time>
      </trkpt>
      <trkpt lat="45.57696" lon="5.20222">
        <ele>380</ele>
        <time>2021-05-22T09:49:42Z</time>
      </trkpt>
      <trkpt lat="45.57729" lon="5.20159">
        <ele>378</ele>
        <time>2021-05-22T09:49:52Z</time>
      </trkpt>
      <trkpt lat="45.57753" lon="5.20084">
        <ele>375</ele>
        <time>2021-05-22T09:50:02Z</time>
      </trkpt>
      <trkpt lat="45.57797" lon="5.19905">
        <ele>372</ele>
        <time>2021-05-22T09:50:26Z</time>
      </trkpt>
      <trkpt lat="45.57808" lon="5.1985">
        <ele>371</ele>
        <time>2021-05-22T09:50:33Z</time>
      </trkpt>
      <trkpt lat="45.57826" lon="5.198">
        <ele>370</ele>
        <time>2021-05-22T09:50:40Z</time>
      </trkpt>
      <trkpt lat="45.57849" lon="5.19772">
        <ele>369</ele>
        <time>2021-05-22T09:50:45Z</time>
      </trkpt>
      <trkpt lat="45.57865" lon="5.19751">
        <ele>370</ele>
        <time>2021-05-22T09:50:49Z</time>
      </trkpt>
      <trkpt lat="45.57885" lon="5.19729">
        <ele>370</ele>
        <time>2021-05-22T09:50:54Z</time>
      </trkpt>
      <trkpt lat="45.57897" lon="5.19715">
        <ele>370</ele>
        <time>2021-05-22T09:50:56Z</time>
      </trkpt>
      <trkpt lat="45.57959" lon="5.19659">
        <ele>366</ele>
        <time>2021-05-22T09:51:09Z</time>
      </trkpt>
      <trkpt lat="45.58043" lon="5.19606">
        <ele>360</ele>
        <time>2021-05-22T09:51:26Z</time>
      </trkpt>
      <trkpt lat="45.58073" lon="5.19591">
        <ele>360</ele>
        <time>2021-05-22T09:51:31Z</time>
      </trkpt>
      <trkpt lat="45.58083" lon="5.19586">
        <ele>360</ele>
        <time>2021-05-22T09:51:33Z</time>
      </trkpt>
      <trkpt lat="45.58085" lon="5.19585">
        <ele>360</ele>
        <time>2021-05-22T09:51:34Z</time>
      </trkpt>
      <trkpt lat="45.58127" lon="5.19559">
        <ele>357</ele>
        <time>2021-05-22T09:51:42Z</time>
      </trkpt>
      <trkpt lat="45.58131" lon="5.19556">
        <ele>357</ele>
        <time>2021-05-22T09:51:43Z</time>
      </trkpt>
      <trkpt lat="45.5817" lon="5.19539">
        <ele>354</ele>
        <time>2021-05-22T09:51:50Z</time>
      </trkpt>
      <trkpt lat="45.58201" lon="5.19518">
        <ele>351</ele>
        <time>2021-05-22T09:51:56Z</time>
      </trkpt>
      <trkpt lat="45.58218" lon="5.19504">
        <ele>350</ele>
        <time>2021-05-22T09:51:59Z</time>
      </trkpt>
      <trkpt lat="45.58248" lon="5.19472">
        <ele>346</ele>
        <time>2021-05-22T09:52:06Z</time>
      </trkpt>
      <trkpt lat="45.5826" lon="5.19461">
        <ele>345</ele>
        <time>2021-05-22T09:52:09Z</time>
      </trkpt>
      <trkpt lat="45.58276" lon="5.19447">
        <ele>344</ele>
        <time>2021-05-22T09:52:12Z</time>
      </trkpt>
      <trkpt lat="45.58293" lon="5.19437">
        <ele>343</ele>
        <time>2021-05-22T09:52:15Z</time>
      </trkpt>
      <trkpt lat="45.58337" lon="5.19416">
        <ele>341</ele>
        <time>2021-05-22T09:52:24Z</time>
      </trkpt>
      <trkpt lat="45.58373" lon="5.19404">
        <ele>339</ele>
        <time>2021-05-22T09:52:30Z</time>
      </trkpt>
      <trkpt lat="45.58394" lon="5.19398">
        <ele>337</ele>
        <time>2021-05-22T09:52:34Z</time>
      </trkpt>
      <trkpt lat="45.58416" lon="5.19397">
        <ele>336</ele>
        <time>2021-05-22T09:52:38Z</time>
      </trkpt>
      <trkpt lat="45.58473" lon="5.19407">
        <ele>333</ele>
        <time>2021-05-22T09:52:48Z</time>
      </trkpt>
      <trkpt lat="45.58504" lon="5.19404">
        <ele>331</ele>
        <time>2021-05-22T09:52:54Z</time>
      </trkpt>
      <trkpt lat="45.58537" lon="5.19375">
        <ele>330</ele>
        <time>2021-05-22T09:53:00Z</time>
      </trkpt>
      <trkpt lat="45.58568" lon="5.19368">
        <ele>329</ele>
        <time>2021-05-22T09:53:06Z</time>
      </trkpt>
      <trkpt lat="45.58627" lon="5.19368">
        <ele>327</ele>
        <time>2021-05-22T09:53:17Z</time>
      </trkpt>
      <trkpt lat="45.58628" lon="5.19369">
        <ele>327</ele>
        <time>2021-05-22T09:53:17Z</time>
      </trkpt>
      <trkpt lat="45.58665" lon="5.19381">
        <ele>326</ele>
        <time>2021-05-22T09:53:24Z</time>
      </trkpt>
      <trkpt lat="45.58698" lon="5.19385">
        <ele>326</ele>
        <time>2021-05-22T09:53:29Z</time>
      </trkpt>
      <trkpt lat="45.58704" lon="5.19382">
        <ele>325</ele>
        <time>2021-05-22T09:53:31Z</time>
      </trkpt>
      <trkpt lat="45.58707" lon="5.1938">
        <ele>325</ele>
        <time>2021-05-22T09:53:31Z</time>
      </trkpt>
      <trkpt lat="45.58711" lon="5.19389">
        <ele>325</ele>
        <time>2021-05-22T09:53:32Z</time>
      </trkpt>
      <trkpt lat="45.58712" lon="5.19393">
        <ele>326</ele>
        <time>2021-05-22T09:53:33Z</time>
      </trkpt>
      <trkpt lat="45.58728" lon="5.19429">
        <ele>326</ele>
        <time>2021-05-22T09:53:38Z</time>
      </trkpt>
      <trkpt lat="45.58737" lon="5.19448">
        <ele>326</ele>
        <time>2021-05-22T09:53:41Z</time>
      </trkpt>
      <trkpt lat="45.58754" lon="5.19499">
        <ele>327</ele>
        <time>2021-05-22T09:53:48Z</time>
      </trkpt>
      <trkpt lat="45.58757" lon="5.19512">
        <ele>327</ele>
        <time>2021-05-22T09:53:50Z</time>
      </trkpt>
      <trkpt lat="45.58755" lon="5.19553">
        <ele>327</ele>
        <time>2021-05-22T09:53:55Z</time>
      </trkpt>
      <trkpt lat="45.58755" lon="5.19602">
        <ele>328</ele>
        <time>2021-05-22T09:54:01Z</time>
      </trkpt>
      <trkpt lat="45.58754" lon="5.1963">
        <ele>328</ele>
        <time>2021-05-22T09:54:05Z</time>
      </trkpt>
      <trkpt lat="45.58754" lon="5.19641">
        <ele>328</ele>
        <time>2021-05-22T09:54:06Z</time>
      </trkpt>
      <trkpt lat="45.58759" lon="5.19654">
        <ele>328</ele>
        <time>2021-05-22T09:54:08Z</time>
      </trkpt>
      <trkpt lat="45.58794" lon="5.19707">
        <ele>326</ele>
        <time>2021-05-22T09:54:17Z</time>
      </trkpt>
      <trkpt lat="45.58796" lon="5.1971">
        <ele>326</ele>
        <time>2021-05-22T09:54:17Z</time>
      </trkpt>
      <trkpt lat="45.58814" lon="5.19736">
        <ele>324</ele>
        <time>2021-05-22T09:54:22Z</time>
      </trkpt>
      <trkpt lat="45.58837" lon="5.19779">
        <ele>322</ele>
        <time>2021-05-22T09:54:29Z</time>
      </trkpt>
      <trkpt lat="45.58867" lon="5.19858">
        <ele>321</ele>
        <time>2021-05-22T09:54:40Z</time>
      </trkpt>
      <trkpt lat="45.58885" lon="5.1992">
        <ele>320</ele>
        <time>2021-05-22T09:54:48Z</time>
      </trkpt>
      <trkpt lat="45.58908" lon="5.19995">
        <ele>320</ele>
        <time>2021-05-22T09:54:58Z</time>
      </trkpt>
      <trkpt lat="45.58939" lon="5.20127">
        <ele>320</ele>
        <time>2021-05-22T09:55:16Z</time>
      </trkpt>
      <trkpt lat="45.58949" lon="5.20178">
        <ele>319</ele>
        <time>2021-05-22T09:55:22Z</time>
      </trkpt>
      <trkpt lat="45.58955" lon="5.20207">
        <ele>318</ele>
        <time>2021-05-22T09:55:26Z</time>
      </trkpt>
      <trkpt lat="45.58964" lon="5.20244">
        <ele>318</ele>
        <time>2021-05-22T09:55:31Z</time>
      </trkpt>
      <trkpt lat="45.58971" lon="5.20261">
        <ele>318</ele>
        <time>2021-05-22T09:55:34Z</time>
      </trkpt>
      <trkpt lat="45.5898" lon="5.20277">
        <ele>318</ele>
        <time>2021-05-22T09:55:36Z</time>
      </trkpt>
      <trkpt lat="45.58999" lon="5.20303">
        <ele>318</ele>
        <time>2021-05-22T09:55:41Z</time>
      </trkpt>
      <trkpt lat="45.59012" lon="5.20335">
        <ele>318</ele>
        <time>2021-05-22T09:55:45Z</time>
      </trkpt>
      <trkpt lat="45.59025" lon="5.2039">
        <ele>316</ele>
        <time>2021-05-22T09:55:53Z</time>
      </trkpt>
      <trkpt lat="45.59055" lon="5.20594">
        <ele>309</ele>
        <time>2021-05-22T09:56:19Z</time>
      </trkpt>
      <trkpt lat="45.59064" lon="5.20639">
        <ele>307</ele>
        <time>2021-05-22T09:56:24Z</time>
      </trkpt>
      <trkpt lat="45.59075" lon="5.20659">
        <ele>306</ele>
        <time>2021-05-22T09:56:28Z</time>
      </trkpt>
      <trkpt lat="45.59112" lon="5.20711">
        <ele>305</ele>
        <time>2021-05-22T09:56:37Z</time>
      </trkpt>
      <trkpt lat="45.59134" lon="5.2076">
        <ele>306</ele>
        <time>2021-05-22T09:56:44Z</time>
      </trkpt>
      <trkpt lat="45.59143" lon="5.20786">
        <ele>306</ele>
        <time>2021-05-22T09:56:48Z</time>
      </trkpt>
      <trkpt lat="45.5915" lon="5.20812">
        <ele>306</ele>
        <time>2021-05-22T09:56:51Z</time>
      </trkpt>
      <trkpt lat="45.59176" lon="5.20943">
        <ele>304</ele>
        <time>2021-05-22T09:57:08Z</time>
      </trkpt>
      <trkpt lat="45.59191" lon="5.2101">
        <ele>303</ele>
        <time>2021-05-22T09:57:17Z</time>
      </trkpt>
      <trkpt lat="45.592" lon="5.21036">
        <ele>303</ele>
        <time>2021-05-22T09:57:20Z</time>
      </trkpt>
      <trkpt lat="45.5923" lon="5.21095">
        <ele>300</ele>
        <time>2021-05-22T09:57:29Z</time>
      </trkpt>
      <trkpt lat="45.59246" lon="5.21138">
        <ele>300</ele>
        <time>2021-05-22T09:57:36Z</time>
      </trkpt>
      <trkpt lat="45.59289" lon="5.21304">
        <ele>296</ele>
        <time>2021-05-22T09:57:58Z</time>
      </trkpt>
      <trkpt lat="45.59291" lon="5.2132">
        <ele>296</ele>
        <time>2021-05-22T09:58:00Z</time>
      </trkpt>
      <trkpt lat="45.59294" lon="5.21364">
        <ele>296</ele>
        <time>2021-05-22T09:58:05Z</time>
      </trkpt>
      <trkpt lat="45.59296" lon="5.21424">
        <ele>297</ele>
        <time>2021-05-22T09:58:13Z</time>
      </trkpt>
      <trkpt lat="45.59303" lon="5.21469">
        <ele>297</ele>
        <time>2021-05-22T09:58:18Z</time>
      </trkpt>
      <trkpt lat="45.59327" lon="5.21524">
        <ele>298</ele>
        <time>2021-05-22T09:58:26Z</time>
      </trkpt>
      <trkpt lat="45.59335" lon="5.21578">
        <ele>299</ele>
        <time>2021-05-22T09:58:33Z</time>
      </trkpt>
      <trkpt lat="45.59336" lon="5.21628">
        <ele>298</ele>
        <time>2021-05-22T09:58:40Z</time>
      </trkpt>
      <trkpt lat="45.59332" lon="5.21696">
        <ele>298</ele>
        <time>2021-05-22T09:58:48Z</time>
      </trkpt>
      <trkpt lat="45.59332" lon="5.21752">
        <ele>299</ele>
        <time>2021-05-22T09:58:55Z</time>
      </trkpt>
      <trkpt lat="45.59335" lon="5.21781">
        <ele>298</ele>
        <time>2021-05-22T09:58:59Z</time>
      </trkpt>
      <trkpt lat="45.59337" lon="5.21786">
        <ele>298</ele>
        <time>2021-05-22T09:58:59Z</time>
      </trkpt>
      <trkpt lat="45.59347" lon="5.21811">
        <ele>296</ele>
        <time>2021-05-22T09:59:03Z</time>
      </trkpt>
      <trkpt lat="45.59362" lon="5.21831">
        <ele>295</ele>
        <time>2021-05-22T09:59:07Z</time>
      </trkpt>
      <trkpt lat="45.59428" lon="5.2187">
        <ele>294</ele>
        <time>2021-05-22T09:59:19Z</time>
      </trkpt>
      <trkpt lat="45.59439" lon="5.21884">
        <ele>294</ele>
        <time>2021-05-22T09:59:22Z</time>
      </trkpt>
      <trkpt lat="45.5944" lon="5.21887">
        <ele>294</ele>
        <time>2021-05-22T09:59:22Z</time>
      </trkpt>
      <trkpt lat="45.59442" lon="5.21896">
        <ele>294</ele>
        <time>2021-05-22T09:59:24Z</time>
      </trkpt>
      <trkpt lat="45.59443" lon="5.21904">
        <ele>294</ele>
        <time>2021-05-22T09:59:25Z</time>
      </trkpt>
      <trkpt lat="45.5945" lon="5.21898">
        <ele>294</ele>
        <time>2021-05-22T09:59:26Z</time>
      </trkpt>
      <trkpt lat="45.59453" lon="5.2189">
        <ele>294</ele>
        <time>2021-05-22T09:59:27Z</time>
      </trkpt>
      <trkpt lat="45.59474" lon="5.21891">
        <ele>294</ele>
        <time>2021-05-22T09:59:31Z</time>
      </trkpt>
      <trkpt lat="45.59515" lon="5.21886">
        <ele>294</ele>
        <time>2021-05-22T09:59:38Z</time>
      </trkpt>
      <trkpt lat="45.59559" lon="5.21874">
        <ele>293</ele>
        <time>2021-05-22T09:59:46Z</time>
      </trkpt>
      <trkpt lat="45.59605" lon="5.21878">
        <ele>291</ele>
        <time>2021-05-22T09:59:54Z</time>
      </trkpt>
      <trkpt lat="45.59625" lon="5.21894">
        <ele>290</ele>
        <time>2021-05-22T09:59:58Z</time>
      </trkpt>
      <trkpt lat="45.5964" lon="5.21918">
        <ele>291</ele>
        <time>2021-05-22T10:00:02Z</time>
      </trkpt>
      <trkpt lat="45.5965" lon="5.21947">
        <ele>290</ele>
        <time>2021-05-22T10:00:06Z</time>
      </trkpt>
      <trkpt lat="45.59665" lon="5.22002">
        <ele>290</ele>
        <time>2021-05-22T10:00:14Z</time>
      </trkpt>
      <trkpt lat="45.59674" lon="5.22009">
        <ele>290</ele>
        <time>2021-05-22T10:00:16Z</time>
      </trkpt>
      <trkpt lat="45.59674" lon="5.22044">
        <ele>289</ele>
        <time>2021-05-22T10:00:20Z</time>
      </trkpt>
      <trkpt lat="45.59703" lon="5.22048">
        <ele>287</ele>
        <time>2021-05-22T10:00:25Z</time>
      </trkpt>
      <trkpt lat="45.59737" lon="5.22049">
        <ele>285</ele>
        <time>2021-05-22T10:00:31Z</time>
      </trkpt>
      <trkpt lat="45.59751" lon="5.22047">
        <ele>285</ele>
        <time>2021-05-22T10:00:34Z</time>
      </trkpt>
      <trkpt lat="45.5977" lon="5.22042">
        <ele>283</ele>
        <time>2021-05-22T10:00:37Z</time>
      </trkpt>
      <trkpt lat="45.59785" lon="5.22032">
        <ele>282</ele>
        <time>2021-05-22T10:00:40Z</time>
      </trkpt>
      <trkpt lat="45.59857" lon="5.21964">
        <ele>275</ele>
        <time>2021-05-22T10:00:55Z</time>
      </trkpt>
      <trkpt lat="45.59871" lon="5.21956">
        <ele>274</ele>
        <time>2021-05-22T10:00:58Z</time>
      </trkpt>
      <trkpt lat="45.59919" lon="5.21958">
        <ele>267</ele>
        <time>2021-05-22T10:01:07Z</time>
      </trkpt>
      <trkpt lat="45.59938" lon="5.2194">
        <ele>267</ele>
        <time>2021-05-22T10:01:11Z</time>
      </trkpt>
      <trkpt lat="45.59965" lon="5.21995">
        <ele>266</ele>
        <time>2021-05-22T10:01:19Z</time>
      </trkpt>
      <trkpt lat="45.59975" lon="5.22007">
        <ele>266</ele>
        <time>2021-05-22T10:01:21Z</time>
      </trkpt>
      <trkpt lat="45.59971" lon="5.22011">
        <ele>266</ele>
        <time>2021-05-22T10:01:22Z</time>
      </trkpt>
      <trkpt lat="45.59975" lon="5.22007">
        <ele>266</ele>
        <time>2021-05-22T10:01:23Z</time>
      </trkpt>
      <trkpt lat="45.59987" lon="5.22017">
        <ele>266</ele>
        <time>2021-05-22T10:01:26Z</time>
      </trkpt>
      <trkpt lat="45.60022" lon="5.22026">
        <ele>265</ele>
        <time>2021-05-22T10:01:32Z</time>
      </trkpt>
      <trkpt lat="45.6004" lon="5.22026">
        <ele>265</ele>
        <time>2021-05-22T10:01:35Z</time>
      </trkpt>
      <trkpt lat="45.60051" lon="5.22019">
        <ele>266</ele>
        <time>2021-05-22T10:01:37Z</time>
      </trkpt>
      <trkpt lat="45.60093" lon="5.21975">
        <ele>266</ele>
        <time>2021-05-22T10:01:47Z</time>
      </trkpt>
      <trkpt lat="45.60106" lon="5.2197">
        <ele>265</ele>
        <time>2021-05-22T10:01:49Z</time>
      </trkpt>
      <trkpt lat="45.60106" lon="5.21974">
        <ele>265</ele>
        <time>2021-05-22T10:01:49Z</time>
      </trkpt>
      <trkpt lat="45.6011" lon="5.21979">
        <ele>265</ele>
        <time>2021-05-22T10:01:50Z</time>
      </trkpt>
      <trkpt lat="45.60115" lon="5.21979">
        <ele>265</ele>
        <time>2021-05-22T10:01:51Z</time>
      </trkpt>
      <trkpt lat="45.60119" lon="5.21973">
        <ele>265</ele>
        <time>2021-05-22T10:01:52Z</time>
      </trkpt>
      <trkpt lat="45.60117" lon="5.21963">
        <ele>265</ele>
        <time>2021-05-22T10:01:54Z</time>
      </trkpt>
      <trkpt lat="45.60119" lon="5.21957">
        <ele>265</ele>
        <time>2021-05-22T10:01:54Z</time>
      </trkpt>
      <trkpt lat="45.60134" lon="5.21926">
        <ele>265</ele>
        <time>2021-05-22T10:01:59Z</time>
      </trkpt>
      <trkpt lat="45.60181" lon="5.21861">
        <ele>265</ele>
        <time>2021-05-22T10:02:11Z</time>
      </trkpt>
      <trkpt lat="45.60209" lon="5.21819">
        <ele>264</ele>
        <time>2021-05-22T10:02:18Z</time>
      </trkpt>
      <trkpt lat="45.60227" lon="5.21806">
        <ele>264</ele>
        <time>2021-05-22T10:02:22Z</time>
      </trkpt>
      <trkpt lat="45.60241" lon="5.21799">
        <ele>264</ele>
        <time>2021-05-22T10:02:24Z</time>
      </trkpt>
      <trkpt lat="45.60359" lon="5.21798">
        <ele>262</ele>
        <time>2021-05-22T10:02:45Z</time>
      </trkpt>
      <trkpt lat="45.60375" lon="5.21793">
        <ele>261</ele>
        <time>2021-05-22T10:02:48Z</time>
      </trkpt>
      <trkpt lat="45.60387" lon="5.21782">
        <ele>261</ele>
        <time>2021-05-22T10:02:51Z</time>
      </trkpt>
      <trkpt lat="45.60402" lon="5.21756">
        <ele>262</ele>
        <time>2021-05-22T10:02:55Z</time>
      </trkpt>
      <trkpt lat="45.60416" lon="5.21716">
        <ele>262</ele>
        <time>2021-05-22T10:03:00Z</time>
      </trkpt>
      <trkpt lat="45.60438" lon="5.21675">
        <ele>261</ele>
        <time>2021-05-22T10:03:07Z</time>
      </trkpt>
      <trkpt lat="45.60472" lon="5.2162">
        <ele>260</ele>
        <time>2021-05-22T10:03:16Z</time>
      </trkpt>
      <trkpt lat="45.60485" lon="5.2161">
        <ele>260</ele>
        <time>2021-05-22T10:03:19Z</time>
      </trkpt>
      <trkpt lat="45.60487" lon="5.21619">
        <ele>259</ele>
        <time>2021-05-22T10:03:20Z</time>
      </trkpt>
      <trkpt lat="45.60491" lon="5.21627">
        <ele>259</ele>
        <time>2021-05-22T10:03:21Z</time>
      </trkpt>
      <trkpt lat="45.60496" lon="5.21632">
        <ele>258</ele>
        <time>2021-05-22T10:03:22Z</time>
      </trkpt>
      <trkpt lat="45.60502" lon="5.21635">
        <ele>258</ele>
        <time>2021-05-22T10:03:23Z</time>
      </trkpt>
      <trkpt lat="45.60502" lon="5.2164">
        <ele>258</ele>
        <time>2021-05-22T10:03:24Z</time>
      </trkpt>
      <trkpt lat="45.60497" lon="5.21684">
        <ele>256</ele>
        <time>2021-05-22T10:03:29Z</time>
      </trkpt>
      <trkpt lat="45.60481" lon="5.2183">
        <ele>252</ele>
        <time>2021-05-22T10:03:48Z</time>
      </trkpt>
      <trkpt lat="45.60479" lon="5.21845">
        <ele>251</ele>
        <time>2021-05-22T10:03:50Z</time>
      </trkpt>
      <trkpt lat="45.60471" lon="5.21917">
        <ele>248</ele>
        <time>2021-05-22T10:03:59Z</time>
      </trkpt>
      <trkpt lat="45.60467" lon="5.21963">
        <ele>247</ele>
        <time>2021-05-22T10:04:05Z</time>
      </trkpt>
      <trkpt lat="45.6047" lon="5.22011">
        <ele>245</ele>
        <time>2021-05-22T10:04:11Z</time>
      </trkpt>
      <trkpt lat="45.60474" lon="5.22044">
        <ele>243</ele>
        <time>2021-05-22T10:04:15Z</time>
      </trkpt>
      <trkpt lat="45.60486" lon="5.22088">
        <ele>240</ele>
        <time>2021-05-22T10:04:21Z</time>
      </trkpt>
      <trkpt lat="45.60484" lon="5.22091">
        <ele>240</ele>
        <time>2021-05-22T10:04:21Z</time>
      </trkpt>
      <trkpt lat="45.60482" lon="5.22095">
        <ele>240</ele>
        <time>2021-05-22T10:04:22Z</time>
      </trkpt>
      <trkpt lat="45.60481" lon="5.22104">
        <ele>240</ele>
        <time>2021-05-22T10:04:23Z</time>
      </trkpt>
      <trkpt lat="45.60482" lon="5.22109">
        <ele>240</ele>
        <time>2021-05-22T10:04:24Z</time>
      </trkpt>
      <trkpt lat="45.60485" lon="5.22114">
        <ele>239</ele>
        <time>2021-05-22T10:04:24Z</time>
      </trkpt>
      <trkpt lat="45.60489" lon="5.22116">
        <ele>239</ele>
        <time>2021-05-22T10:04:25Z</time>
      </trkpt>
      <trkpt lat="45.60493" lon="5.22116">
        <ele>239</ele>
        <time>2021-05-22T10:04:26Z</time>
      </trkpt>
      <trkpt lat="45.60497" lon="5.22114">
        <ele>239</ele>
        <time>2021-05-22T10:04:27Z</time>
      </trkpt>
      <trkpt lat="45.60506" lon="5.2213">
        <ele>237</ele>
        <time>2021-05-22T10:04:29Z</time>
      </trkpt>
      <trkpt lat="45.60533" lon="5.22184">
        <ele>233</ele>
        <time>2021-05-22T10:04:37Z</time>
      </trkpt>
      <trkpt lat="45.60576" lon="5.22245">
        <ele>230</ele>
        <time>2021-05-22T10:04:48Z</time>
      </trkpt>
      <trkpt lat="45.60579" lon="5.22249">
        <ele>229</ele>
        <time>2021-05-22T10:04:49Z</time>
      </trkpt>
      <trkpt lat="45.60587" lon="5.22259">
        <ele>229</ele>
        <time>2021-05-22T10:04:51Z</time>
      </trkpt>
      <trkpt lat="45.6062" lon="5.22303">
        <ele>226</ele>
        <time>2021-05-22T10:04:59Z</time>
      </trkpt>
      <trkpt lat="45.60645" lon="5.22338">
        <ele>223</ele>
        <time>2021-05-22T10:05:05Z</time>
      </trkpt>
      <trkpt lat="45.6065" lon="5.22346">
        <ele>222</ele>
        <time>2021-05-22T10:05:06Z</time>
      </trkpt>
      <trkpt lat="45.60663" lon="5.22366">
        <ele>221</ele>
        <time>2021-05-22T10:05:10Z</time>
      </trkpt>
      <trkpt lat="45.6068" lon="5.22396">
        <ele>220</ele>
        <time>2021-05-22T10:05:15Z</time>
      </trkpt>
      <trkpt lat="45.60708" lon="5.22357">
        <ele>222</ele>
        <time>2021-05-22T10:05:22Z</time>
      </trkpt>
      <trkpt lat="45.6077" lon="5.22249">
        <ele>220</ele>
        <time>2021-05-22T10:05:39Z</time>
      </trkpt>
      <trkpt lat="45.60844" lon="5.22108">
        <ele>218</ele>
        <time>2021-05-22T10:06:01Z</time>
      </trkpt>
      <trkpt lat="45.60869" lon="5.22082">
        <ele>218</ele>
        <time>2021-05-22T10:06:06Z</time>
      </trkpt>
      <trkpt lat="45.60884" lon="5.22074">
        <ele>219</ele>
        <time>2021-05-22T10:06:09Z</time>
      </trkpt>
      <trkpt lat="45.60935" lon="5.22057">
        <ele>219</ele>
        <time>2021-05-22T10:06:19Z</time>
      </trkpt>
    </trkseg>
  </trk>
</gpx>